Provisional Data: Lackawanna River near Forest City, PA


Please select a monitoring station.
Please select start date.
Please select start date.

Toggle Unit: C/F Toggle Unit: C/F
Sample Time Temperature (C) Temperature (F) Specific Conductivity (mS/cm) pH   Turbidity (NTU+) DO (mg/L)
12/11/2021 12:00:00 AM 2.1 35.78 0.071 7.05 6.53 13.06
12/11/2021 12:15:00 AM 2.1 35.78 0.071 7.05 5.84 13.05
12/11/2021 12:30:00 AM 2.11 35.798 0.071 7.03 6.53 13.05
12/11/2021 12:45:00 AM 2.12 35.816 0.071 7.03 6.36 13.04
12/11/2021 1:00:00 AM 2.15 35.87 0.071 7.03 6.25 13.03
12/11/2021 1:15:00 AM 2.17 35.906 0.071 7.02 6.4 13.03
12/11/2021 1:30:00 AM 2.18 35.924 0.07 7.05 5.66 13.04
12/11/2021 1:45:00 AM 2.2 35.96 0.07 7.01 5.93 13.01
12/11/2021 2:00:00 AM 2.21 35.978 0.07 7.03 5.64 13.01
12/11/2021 2:15:00 AM 2.22 35.996 0.071 7.02 6.76 13
12/11/2021 2:30:00 AM 2.23 36.014 0.07 7.03 6.54 13
12/11/2021 2:45:00 AM 2.25 36.05 0.071 7.03 6.46 12.99
12/11/2021 3:00:00 AM 2.26 36.068 0.07 7.03 8.15 12.99
12/11/2021 3:15:00 AM 2.27 36.086 0.07 7.02 6.26 13
12/11/2021 3:30:00 AM 2.29 36.122 0.07 7.03 5.64 12.99
12/11/2021 3:45:00 AM 2.3 36.14 0.07 7.02 6.24 12.99
12/11/2021 4:00:00 AM 2.31 36.158 0.071 7.03 5.7 13
12/11/2021 4:15:00 AM 2.31 36.158 0.07 7.04 5.69 12.99
12/11/2021 4:30:00 AM 2.32 36.176 0.071 7.03 5.79 13
12/11/2021 4:45:00 AM 2.31 36.158 0.07 7.05 5.77 12.99
12/11/2021 5:00:00 AM 2.32 36.176 0.071 7.03 6.04 12.98
12/11/2021 5:15:00 AM 2.34 36.212 0.07 7.04 5.95 12.99
12/11/2021 5:30:00 AM 2.36 36.248 0.07 7.04 6.23 12.98
12/11/2021 5:45:00 AM 2.36 36.248 0.07 7.06 6.32 12.98
12/11/2021 6:00:00 AM 2.38 36.284 0.07 7.04 6.52 12.99
12/11/2021 6:15:00 AM 2.4 36.32 0.07 7.05 6.66 12.98
12/11/2021 6:30:00 AM 2.41 36.338 0.07 7.03 6.57 12.98
12/11/2021 6:45:00 AM 2.44 36.392 0.07 7.03 7.15 12.96
12/11/2021 7:00:00 AM 2.45 36.41 0.07 7.06 6.83 12.96
12/11/2021 7:15:00 AM 2.48 36.464 0.07 7.06 6.65 12.96
12/11/2021 7:30:00 AM 2.49 36.482 0.07 7.05 6.17 12.97
12/11/2021 7:45:00 AM 2.51 36.518 0.069 7.04 5.96 12.97
12/11/2021 8:00:00 AM 2.55 36.59 0.07 7.05 5.39 12.97
12/11/2021 8:15:00 AM 2.57 36.626 0.07 7.04 5.5 12.96
12/11/2021 8:30:00 AM 2.6 36.68 0.069 7.05 6.29 12.94
12/11/2021 8:45:00 AM 2.62 36.716 0.069 7.05 6.59 12.95
12/11/2021 9:00:00 AM 2.64 36.752 0.069 7.05 6.38 12.94
12/11/2021 9:15:00 AM 2.66 36.788 0.069 7.04 6.02 12.94
12/11/2021 9:30:00 AM 2.68 36.824 0.069 7.05 5.79 12.94
12/11/2021 9:45:00 AM 2.71 36.878 0.069 7.05 5.33 12.96
12/11/2021 10:00:00 AM 2.72 36.896 0.069 7.05 5.01 12.95
12/11/2021 10:15:00 AM 2.73 36.914 0.069 7.03 4.99 12.95
12/11/2021 10:30:00 AM 2.76 36.968 0.069 7.05 4.77 12.95
12/11/2021 10:45:00 AM 2.78 37.004 0.069 7.06 4.9 12.96
12/11/2021 11:00:00 AM 2.82 37.076 0.069 7.04 4.74 12.95
12/11/2021 11:15:00 AM 2.85 37.13 0.069 7.05 4.57 12.95
12/11/2021 11:30:00 AM 2.89 37.202 0.069 7.04 4.78 12.96
12/11/2021 11:45:00 AM 2.91 37.238 0.069 7.03 5.14 12.97
12/11/2021 12:00:00 PM 2.94 37.292 0.069 7.05 5.28 12.97
12/11/2021 12:15:00 PM 2.98 37.364 0.069 7.03 5.01 12.97
12/11/2021 12:30:00 PM 3.02 37.436 0.069 7.05 5.13 12.97
12/11/2021 12:45:00 PM 3.07 37.526 0.069 7.06 4.71 12.98
12/11/2021 1:00:00 PM 3.12 37.616 0.069 7.06 4.92 12.98
12/11/2021 1:15:00 PM 3.17 37.706 0.069 7.04 5.25 12.97
12/11/2021 1:30:00 PM 3.2 37.76 0.07 7.05 4.88 12.95
12/11/2021 1:45:00 PM 3.26 37.868 0.07 7.03 5.14 12.94
12/11/2021 2:00:00 PM 3.31 37.958 0.071 7.04 5.39 12.93
12/11/2021 2:15:00 PM 3.35 38.03 0.072 7.05 5.62 12.95
12/11/2021 2:30:00 PM 3.39 38.102 0.072 7.03 5.55 12.95
12/11/2021 2:45:00 PM 3.44 38.192 0.072 7.05 5.71 12.96
12/11/2021 3:00:00 PM 3.45 38.21 0.072 7.03 5.4 12.96
12/11/2021 3:15:00 PM 3.49 38.282 0.073 7.03 5.11 12.96
12/11/2021 3:30:00 PM 3.5 38.3 0.073 7.04 4.92 12.99
12/11/2021 3:45:00 PM 3.53 38.354 0.072 7.05 5 12.99
12/11/2021 4:00:00 PM 3.56 38.408 0.072 7.05 4.92 12.98
12/11/2021 4:15:00 PM 3.56 38.408 0.072 7.04 4.75 12.98
12/11/2021 4:30:00 PM 3.58 38.444 0.072 7.03 4.59 12.97
12/11/2021 4:45:00 PM 3.6 38.48 0.071 7.06 4.63 12.95
12/11/2021 5:00:00 PM 3.61 38.498 0.071 7.04 4.55 12.94
12/11/2021 5:15:00 PM 3.66 38.588 0.071 7.05 4.45 12.91
12/11/2021 5:30:00 PM 3.69 38.642 0.071 7.04 4.37 12.9
12/11/2021 5:45:00 PM 3.7 38.66 0.071 7.03 4.5 12.89
12/11/2021 6:00:00 PM 3.73 38.714 0.071 7.04 4.71 12.87
12/11/2021 6:15:00 PM 3.77 38.786 0.071 7.02 4.72 12.84
12/11/2021 6:30:00 PM 3.78 38.804 0.071 7.04 4.99 12.82
12/11/2021 6:45:00 PM 3.77 38.786 0.071 7.03 5.05 12.8
12/11/2021 7:00:00 PM 3.78 38.804 0.071 7.03 5.33 12.78
12/11/2021 7:15:00 PM 3.84 38.912 0.071 7.04 6.49 12.74
12/11/2021 7:30:00 PM 3.87 38.966 0.071 7.01 5.21 12.72
12/11/2021 7:45:00 PM 3.9 39.02 0.071 7.01 5.44 12.7
12/11/2021 8:00:00 PM 3.93 39.074 0.071 7.02 5.78 12.68
12/11/2021 8:15:00 PM 3.98 39.164 0.07 7.01 5.5 12.66
12/11/2021 8:30:00 PM 4.06 39.308 0.07 7.03 5.56 12.62
12/11/2021 8:45:00 PM 4.11 39.398 0.07 7 5.48 12.59
12/11/2021 9:00:00 PM 4.15 39.47 0.071 7.02 5.93 12.56
12/11/2021 9:15:00 PM 4.15 39.47 0.071 7.01 7.35 12.57
12/11/2021 9:30:00 PM 4.16 39.488 0.07 7.02 7.68 12.57
12/11/2021 9:45:00 PM 4.18 39.524 0.07 7.02 9.52 12.54
12/11/2021 10:00:00 PM 4.18 39.524 0.071 7.04 7.86 12.52
12/11/2021 10:15:00 PM 4.13 39.434 0.07 7.05 8.09 12.52
12/11/2021 10:30:00 PM 4.06 39.308 0.07 7.03 8.02 12.53
12/11/2021 10:45:00 PM 4.03 39.254 0.07 7.06 11.02 12.51
12/11/2021 11:00:00 PM 3.94 39.092 0.07 7.04 13.11 12.53
12/11/2021 11:15:00 PM 3.85 38.93 0.07 7.06 13.44 12.54
12/11/2021 11:30:00 PM 3.76 38.768 0.07 7.06 12.81 12.57
12/11/2021 11:45:00 PM 3.67 38.606 0.07 7.06 13.97 12.58
12/12/2021 12:00:00 AM 3.59 38.462 0.07 7.07 13.74 12.6
12/12/2021 12:15:00 AM 3.53 38.354 0.07 7.06 11.81 12.61
12/12/2021 12:30:00 AM 3.47 38.246 0.07 7.06 11.4 12.63
12/12/2021 12:45:00 AM 3.42 38.156 0.071 7.06 11.45 12.65
12/12/2021 1:00:00 AM 3.38 38.084 0.071 7.06 9.13 12.63
12/12/2021 1:15:00 AM 3.34 38.012 0.071 7.05 9.13 12.65
12/12/2021 1:30:00 AM 3.29 37.922 0.071 7.09 8.29 12.67
12/12/2021 1:45:00 AM 3.24 37.832 0.07 7.08 7.87 12.68
12/12/2021 2:00:00 AM 3.19 37.742 0.071 7.06 8.16 12.69
12/12/2021 2:15:00 AM 3.13 37.634 0.07 7.09 8.92 12.73
12/12/2021 2:30:00 AM 3.08 37.544 0.071 7.07 8.7 12.74
12/12/2021 2:45:00 AM 3.02 37.436 0.071 7.09 9.43 12.76
12/12/2021 3:00:00 AM 2.98 37.364 0.071 7.1 9.75 12.79
12/12/2021 3:15:00 AM 2.92 37.256 0.071 7.08 9.66 12.81
12/12/2021 3:30:00 AM 2.86 37.148 0.071 7.08 9.56 12.83
12/12/2021 3:45:00 AM 2.81 37.058 0.071 7.09 8.98 12.84
12/12/2021 4:00:00 AM 2.77 36.986 0.071 7.08 7.82 12.86
12/12/2021 4:15:00 AM 2.74 36.932 0.071 7.09 7.19 12.88
12/12/2021 4:30:00 AM 2.69 36.842 0.071 7.07 7.75 12.89
12/12/2021 4:45:00 AM 2.65 36.77 0.071 7.08 7.24 12.89
12/12/2021 5:00:00 AM 2.62 36.716 0.071 7.08 6.47 12.9
12/12/2021 5:15:00 AM 2.62 36.716 0.071 7.07 6.85 12.89
12/12/2021 5:30:00 AM 2.69 36.842 0.071 7.09 7.08 12.87
12/12/2021 5:45:00 AM 2.8 37.04 0.071 7.11 7.1 12.82
12/12/2021 6:00:00 AM 2.93 37.274 0.072 7.09 6.8 12.75
12/12/2021 6:15:00 AM 3.05 37.49 0.072 7.1 6.95 12.7
12/12/2021 6:30:00 AM 3.12 37.616 0.071 7.1 6.81 12.66
12/12/2021 6:45:00 AM 3.2 37.76 0.071 7.09 6.67 12.63
12/12/2021 7:00:00 AM 3.19 37.742 0.071 7.08 6.95 12.61
12/12/2021 7:15:00 AM 3.15 37.67 0.071 7.07 7.16 12.6
12/12/2021 7:30:00 AM 3.14 37.652 0.071 7.07 6.64 12.6
12/12/2021 7:45:00 AM 3.11 37.598 0.071 7.07 6.37 12.6
12/12/2021 8:00:00 AM 3.09 37.562 0.071 7.08 6.3 12.62
12/12/2021 8:15:00 AM 3.07 37.526 0.07 7.07 6.19 12.62
12/12/2021 8:30:00 AM 3.03 37.454 0.07 7.08 5.87 12.65
12/12/2021 8:45:00 AM 2.98 37.364 0.07 7.07 5.89 12.66
12/12/2021 9:00:00 AM 2.92 37.256 0.07 7.05 6.04 12.69
12/12/2021 9:15:00 AM 2.92 37.256 0.069 7.08 5.88 12.72
12/12/2021 9:30:00 AM 2.89 37.202 0.069 7.09 6.18 12.75
12/12/2021 9:45:00 AM 2.9 37.22 0.069 7.07 6.17 12.79
12/12/2021 10:00:00 AM 2.94 37.292 0.069 7.09 6.45 12.81
12/12/2021 10:15:00 AM 2.98 37.364 0.069 7.1 5.99 12.84
12/12/2021 10:30:00 AM 3.04 37.472 0.069 7.09 5.96 12.86
12/12/2021 10:45:00 AM 3.11 37.598 0.069 7.11 5.68 12.89
12/12/2021 11:00:00 AM 3.17 37.706 0.069 7.09 6.24 12.9
12/12/2021 11:15:00 AM 3.24 37.832 0.068 7.1 5.77 12.93
12/12/2021 11:30:00 AM 3.31 37.958 0.068 7.11 5.41 12.94
12/12/2021 11:45:00 AM 3.39 38.102 0.068 7.11 5.28 12.96
12/12/2021 12:00:00 PM 3.43 38.174 0.068 7.12 5.3 12.97
12/12/2021 12:15:00 PM 3.5 38.3 0.068 7.13 5.24 12.99
12/12/2021 12:30:00 PM 3.52 38.336 0.068 7.11 5.47 13.01
12/12/2021 12:45:00 PM 3.54 38.372 0.068 7.13 5.25 13.04
12/12/2021 1:00:00 PM 3.54 38.372 0.068 7.12 5.18 13.05
12/12/2021 1:15:00 PM 3.54 38.372 0.068 7.13 5.28 13.07
12/12/2021 1:30:00 PM 3.55 38.39 0.068 7.12 5.02 13.09
12/12/2021 1:45:00 PM 3.56 38.408 0.068 7.13 5.2 13.11
12/12/2021 2:00:00 PM 3.55 38.39 0.068 7.11 5 13.13
12/12/2021 2:15:00 PM 3.54 38.372 0.068 7.12 4.81 13.14
12/12/2021 2:30:00 PM 3.55 38.39 0.068 7.13 4.93 13.16
12/12/2021 2:45:00 PM 3.54 38.372 0.068 7.12 4.96 13.17
12/12/2021 3:00:00 PM 3.53 38.354 0.068 7.11 4.81 13.18
12/12/2021 3:15:00 PM 3.53 38.354 0.068 7.13 4.87 13.18
12/12/2021 3:30:00 PM 3.49 38.282 0.068 7.12 4.73 13.19
12/12/2021 3:45:00 PM 3.49 38.282 0.068 7.14 4.75 13.19
12/12/2021 4:00:00 PM 3.48 38.264 0.068 7.11 4.75 13.18
12/12/2021 4:15:00 PM 3.44 38.192 0.068 7.14 4.86 13.19
12/12/2021 4:30:00 PM 3.41 38.138 0.067 7.14 4.78 13.19
12/12/2021 4:45:00 PM 3.36 38.048 0.068 7.11 4.98 13.19
12/12/2021 5:00:00 PM 3.33 37.994 0.068 7.12 4.87 13.2
12/12/2021 5:15:00 PM 3.3 37.94 0.068 7.11 4.82 13.2
12/12/2021 5:30:00 PM 3.27 37.886 0.067 7.13 4.64 13.18
12/12/2021 5:45:00 PM 3.24 37.832 0.068 7.1 4.96 13.19
12/12/2021 6:00:00 PM 3.21 37.778 0.067 7.1 4.62 13.17
12/12/2021 6:15:00 PM 3.18 37.724 0.067 7.1 4.8 13.18
12/12/2021 6:30:00 PM 3.15 37.67 0.067 7.1 4.92 13.16
12/12/2021 6:45:00 PM 3.12 37.616 0.067 7.09 4.91 13.15
12/12/2021 7:00:00 PM 3.09 37.562 0.068 7.09 4.71 13.14
12/12/2021 7:15:00 PM 3.06 37.508 0.068 7.08 4.9 13.13
12/12/2021 7:30:00 PM 3.04 37.472 0.068 7.09 4.89 13.12
12/12/2021 7:45:00 PM 3.01 37.418 0.067 7.09 4.74 13.11
12/12/2021 8:00:00 PM 2.98 37.364 0.068 7.09 4.83 13.09
12/12/2021 8:15:00 PM 2.96 37.328 0.068 7.08 5.03 13.08
12/12/2021 8:30:00 PM 2.93 37.274 0.068 7.09 5.13 13.07
12/12/2021 8:45:00 PM 2.9 37.22 0.068 7.07 5.18 13.06
12/12/2021 9:00:00 PM 2.87 37.166 0.068 7.07 5.14 13.05
12/12/2021 9:15:00 PM 2.84 37.112 0.068 7.07 5.19 13.05
12/12/2021 9:30:00 PM 2.81 37.058 0.069 7.07 5.01 13.04
12/12/2021 9:45:00 PM 2.78 37.004 0.068 7.09 5.2 13.04
12/12/2021 10:00:00 PM 2.76 36.968 0.068 7.07 5.22 13.04
12/12/2021 10:15:00 PM 2.72 36.896 0.068 7.08 5.28 13.04
12/12/2021 10:30:00 PM 2.69 36.842 0.069 7.06 5.21 13.04
12/12/2021 10:45:00 PM 2.66 36.788 0.069 7.08 5.24 13.03
12/12/2021 11:00:00 PM 2.65 36.77 0.069 7.07 5.09 13.04
12/12/2021 11:15:00 PM 2.61 36.698 0.069 7.08 5.64 13.05
12/12/2021 11:30:00 PM 2.59 36.662 0.069 7.06 5.23 13.04
12/12/2021 11:45:00 PM 2.56 36.608 0.068 7.09 5.54 13.05
12/13/2021 12:00:00 AM 2.53 36.554 0.068 7.05 5.52 13.05
12/13/2021 12:15:00 AM 2.5 36.5 0.069 7.06 5.19 13.04
12/13/2021 12:30:00 AM 2.48 36.464 0.069 7.08 5.29 13.06
12/13/2021 12:45:00 AM 2.45 36.41 0.069 7.06 5.45 13.06
12/13/2021 1:00:00 AM 2.44 36.392 0.068 7.06 5.39 13.06
12/13/2021 1:15:00 AM 2.41 36.338 0.069 7.05 5.24 13.06
12/13/2021 1:30:00 AM 2.4 36.32 0.069 7.05 5.21 13.06
12/13/2021 1:45:00 AM 2.39 36.302 0.069 7.06 5.3 13.06
12/13/2021 2:00:00 AM 2.37 36.266 0.069 7.06 5.5 13.05
12/13/2021 2:15:00 AM 2.37 36.266 0.069 7.04 5.17 13.06
12/13/2021 2:30:00 AM 2.36 36.248 0.069 7.07 5.27 13.06
12/13/2021 2:45:00 AM 2.36 36.248 0.069 7.05 5.33 13.06
12/13/2021 3:00:00 AM 2.35 36.23 0.07 7.06 5.73 13.06
12/13/2021 3:15:00 AM 2.34 36.212 0.069 7.05 5.21 13.04
12/13/2021 3:30:00 AM 2.34 36.212 0.069 7.04 5.35 13.05
12/13/2021 3:45:00 AM 2.34 36.212 0.069 7.05 5.59 13.05
12/13/2021 4:00:00 AM 2.34 36.212 0.07 7.05 5.79 13.04
12/13/2021 4:15:00 AM 2.35 36.23 0.07 7.06 5.78 13.04
12/13/2021 4:30:00 AM 2.35 36.23 0.07 7.05 5.86 13.04
12/13/2021 4:45:00 AM 2.34 36.212 0.07 7.06 6.12 13.04
12/13/2021 5:00:00 AM 2.33 36.194 0.07 7.07 5.76 13.04
12/13/2021 5:15:00 AM 2.31 36.158 0.07 7.05 5.7 13.06
12/13/2021 5:30:00 AM 2.28 36.104 0.07 7.06 5.58 13.06
12/13/2021 5:45:00 AM 2.26 36.068 0.07 7.05 5.64 13.08
12/13/2021 6:00:00 AM 2.23 36.014 0.07 7.06 5.73 13.08
12/13/2021 6:15:00 AM 2.22 35.996 0.07 7.04 5.44 13.08
12/13/2021 6:30:00 AM 2.2 35.96 0.07 7.06 5.68 13.08
12/13/2021 6:45:00 AM 2.2 35.96 0.07 7.04 5.61 13.08
12/13/2021 7:00:00 AM 2.21 35.978 0.07 7.06 5.77 13.07
12/13/2021 7:15:00 AM 2.23 36.014 0.07 7.04 5.66 13.08
12/13/2021 7:30:00 AM 2.25 36.05 0.07 7.05 5.71 13.07
12/13/2021 7:45:00 AM 2.27 36.086 0.07 7.06 5.65 13.06
12/13/2021 8:00:00 AM 2.3 36.14 0.07 7.07 5.56 13.06
12/13/2021 8:15:00 AM 2.33 36.194 0.07 7.06 5.52 13.05
12/13/2021 8:30:00 AM 2.37 36.266 0.07 7.04 5.66 13.05
12/13/2021 8:45:00 AM 2.41 36.338 0.07 7.06 5.6 13.04
12/13/2021 9:00:00 AM 2.44 36.392 0.07 7.05 5.44 13.04
12/13/2021 9:15:00 AM 2.48 36.464 0.07 7.07 5.5 13.05
12/13/2021 9:30:00 AM 2.52 36.536 0.069 7.07 5.45 13.05
12/13/2021 9:45:00 AM 2.57 36.626 0.07 7.05 5.35 13.06
12/13/2021 10:00:00 AM 2.65 36.77 0.07 7.08 5.5 13.08
12/13/2021 10:15:00 AM 2.71 36.878 0.07 7.07 5.5 13.09
12/13/2021 10:30:00 AM 2.76 36.968 0.07 7.08 5.34 13.11
12/13/2021 10:45:00 AM 2.81 37.058 0.07 7.08 5.19 13.13
12/13/2021 11:00:00 AM 2.86 37.148 0.07 7.09 5.04 13.15
12/13/2021 11:15:00 AM 2.93 37.274 0.07 7.11 5.46 13.16
12/13/2021 11:30:00 AM 3 37.4 0.069 7.09 5.18 13.18
12/13/2021 11:45:00 AM 3.08 37.544 0.069 7.08 5 13.21
12/13/2021 12:00:00 PM 3.17 37.706 0.07 7.09 5.09 13.22
12/13/2021 12:15:00 PM 3.25 37.85 0.07 7.11 5.18 13.23
12/13/2021 12:30:00 PM 3.32 37.976 0.07 7.1 5.17 13.24
12/13/2021 12:45:00 PM 3.38 38.084 0.069 7.1 5.46 13.25
12/13/2021 1:00:00 PM 3.44 38.192 0.07 7.11 5.01 13.26
12/13/2021 1:15:00 PM 3.46 38.228 0.069 7.13 4.9 13.27
12/13/2021 1:30:00 PM 3.5 38.3 0.07 7.11 5 13.26
12/13/2021 1:45:00 PM 3.55 38.39 0.069 7.12 5.21 13.27
12/13/2021 2:00:00 PM 3.58 38.444 0.069 7.1 4.93 13.28
12/13/2021 2:15:00 PM 3.61 38.498 0.07 7.13 5.27 13.27
12/13/2021 2:30:00 PM 3.62 38.516 0.069 7.13 5.19 13.28
12/13/2021 2:45:00 PM 3.64 38.552 0.069 7.11 5.02 13.29
12/13/2021 3:00:00 PM 3.65 38.57 0.069 7.12 4.93 13.29
12/13/2021 3:15:00 PM 3.66 38.588 0.069 7.1 5.18 13.3
12/13/2021 3:30:00 PM 3.67 38.606 0.069 7.13 5.19 13.28
12/13/2021 3:45:00 PM 3.66 38.588 0.07 7.1 5.21 13.28
12/13/2021 4:00:00 PM 3.65 38.57 0.07 7.11 5.14 13.27
12/13/2021 4:15:00 PM 3.63 38.534 0.07 7.1 5.12 13.27
12/13/2021 4:30:00 PM 3.59 38.462 0.07 7.1 5.48 13.26
12/13/2021 4:45:00 PM 3.58 38.444 0.069 7.1 5.24 13.24
12/13/2021 5:00:00 PM 3.53 38.354 0.069 7.11 5.05 13.23
12/13/2021 5:15:00 PM 3.49 38.282 0.07 7.1 5.32 13.22
12/13/2021 5:30:00 PM 3.45 38.21 0.07 7.09 5.55 13.2
12/13/2021 5:45:00 PM 3.4 38.12 0.07 7.08 5.38 13.19
12/13/2021 6:00:00 PM 3.36 38.048 0.07 7.08 5.41 13.18
12/13/2021 6:15:00 PM 3.31 37.958 0.07 7.08 5.3 13.16
12/13/2021 6:30:00 PM 3.26 37.868 0.07 7.09 5.37 13.14
12/13/2021 6:45:00 PM 3.21 37.778 0.07 7.07 5.69 13.12
12/13/2021 7:00:00 PM 3.17 37.706 0.07 7.09 5.86 13.1
12/13/2021 7:15:00 PM 3.12 37.616 0.07 7.08 5.97 13.08
12/13/2021 7:30:00 PM 3.08 37.544 0.069 7.07 5.64 13.06
12/13/2021 7:45:00 PM 3.04 37.472 0.07 7.07 5.76 13.05
12/13/2021 8:00:00 PM 3 37.4 0.07 7.05 5.78 13.03
12/13/2021 8:15:00 PM 2.96 37.328 0.07 7.07 5.71 13.02
12/13/2021 8:30:00 PM 2.91 37.238 0.069 7.06 6.06 13.01
12/13/2021 8:45:00 PM 2.86 37.148 0.07 7.05 5.94 13.01
12/13/2021 9:00:00 PM 2.82 37.076 0.07 7.04 5.84 13
12/13/2021 9:15:00 PM 2.78 37.004 0.07 7.04 5.73 13
12/13/2021 9:30:00 PM 2.75 36.95 0.07 7.05 6.03 12.99
12/13/2021 9:45:00 PM 2.73 36.914 0.07 7.03 5.97 12.98
12/13/2021 10:00:00 PM 2.71 36.878 0.07 7.04 6.17 12.96
12/13/2021 10:15:00 PM 2.7 36.86 0.071 7.03 6.04 12.95
12/13/2021 10:30:00 PM 2.69 36.842 0.071 7.06 6.03 12.95
12/13/2021 10:45:00 PM 2.68 36.824 0.071 7.03 6.1 12.93
12/13/2021 11:00:00 PM 2.67 36.806 0.071 7.02 5.89 12.93
12/13/2021 11:15:00 PM 2.65 36.77 0.071 7.02 6.34 12.92
12/13/2021 11:30:00 PM 2.63 36.734 0.071 7.04 6.32 12.9
12/13/2021 11:45:00 PM 2.6 36.68 0.071 7.01 6.12 12.91
12/14/2021 12:00:00 AM 2.59 36.662 0.071 7.04 6.53 12.91
12/14/2021 12:15:00 AM 2.57 36.626 0.071 7.03 6.58 12.91
12/14/2021 12:30:00 AM 2.54 36.572 0.071 7.02 6.42 12.92
12/14/2021 12:45:00 AM 2.51 36.518 0.071 7.02 6.44 12.92
12/14/2021 1:00:00 AM 2.48 36.464 0.071 7.02 6.5 12.92
12/14/2021 1:15:00 AM 2.45 36.41 0.071 7.03 6.66 12.92
12/14/2021 1:30:00 AM 2.43 36.374 0.071 7.01 6.73 12.92
12/14/2021 1:45:00 AM 2.41 36.338 0.071 7.03 6.69 12.94
12/14/2021 2:00:00 AM 2.41 36.338 0.071 7.02 6.63 12.93
12/14/2021 2:15:00 AM 2.4 36.32 0.071 7.04 7.56 12.94
12/14/2021 2:30:00 AM 2.38 36.284 0.071 7.03 6.82 12.93
12/14/2021 2:45:00 AM 2.37 36.266 0.071 7.03 6.87 12.93
12/14/2021 3:00:00 AM 2.37 36.266 0.071 7.04 6.68 12.93
12/14/2021 3:15:00 AM 2.36 36.248 0.071 7.01 6.5 12.93
12/14/2021 3:30:00 AM 2.36 36.248 0.072 7.04 6.62 12.93
12/14/2021 3:45:00 AM 2.36 36.248 0.071 7.03 6.89 12.93
12/14/2021 4:00:00 AM 2.36 36.248 0.071 7.02 6.48 12.93
12/14/2021 4:15:00 AM 2.35 36.23 0.071 7.03 6.97 12.92
12/14/2021 4:30:00 AM 2.33 36.194 0.071 7.02 6.61 12.93
12/14/2021 4:45:00 AM 2.32 36.176 0.071 7.02 6.62 12.92
12/14/2021 5:00:00 AM 2.32 36.176 0.071 7.01 7 12.93
12/14/2021 5:15:00 AM 2.32 36.176 0.071 7.02 6.6 12.93
12/14/2021 5:30:00 AM 2.31 36.158 0.071 7.02 6.65 12.92
12/14/2021 5:45:00 AM 2.28 36.104 0.071 7.02 7.1 12.92
12/14/2021 6:00:00 AM 2.28 36.104 0.071 7.01 7.58 12.92
12/14/2021 6:15:00 AM 2.29 36.122 0.071 7.03 6.96 12.93
12/14/2021 6:30:00 AM 2.28 36.104 0.071 7.02 6.49 12.94
12/14/2021 6:45:00 AM 2.27 36.086 0.07 7.03 7.13 12.93
12/14/2021 7:00:00 AM 2.27 36.086 0.071 7.01 6.73 12.95
12/14/2021 7:15:00 AM 2.27 36.086 0.071 7.02 6.36 12.96
12/14/2021 7:30:00 AM 2.26 36.068 0.071 7.01 6.52 12.96
12/14/2021 7:45:00 AM 2.26 36.068 0.071 7.02 6.58 12.97
12/14/2021 8:00:00 AM 2.24 36.032 0.071 7.03 6.42 12.98
12/14/2021 8:15:00 AM 2.26 36.068 0.071 7.03 6.54 12.98
12/14/2021 8:30:00 AM 2.28 36.104 0.071 7.02 6.36 12.99
12/14/2021 8:45:00 AM 2.29 36.122 0.071 7.01 6.19 13
12/14/2021 9:00:00 AM 2.3 36.14 0.071 7.03 6.33 13.01
12/14/2021 9:15:00 AM 2.33 36.194 0.07 7.03 6.12 13.03
12/14/2021 9:30:00 AM 2.37 36.266 0.071 7.05 6.09 13.05
12/14/2021 9:45:00 AM 2.42 36.356 0.071 7.04 6.11 13.07
12/14/2021 10:00:00 AM 2.47 36.446 0.07 7.04 6.08 13.08
12/14/2021 10:15:00 AM 2.53 36.554 0.07 7.03 6.03 13.11
12/14/2021 10:30:00 AM 2.6 36.68 0.07 7.04 5.9 13.13
12/14/2021 10:45:00 AM 2.68 36.824 0.07 7.05 5.76 13.16
12/14/2021 11:00:00 AM 2.77 36.986 0.07 7.06 5.84 13.18
12/14/2021 11:15:00 AM 2.86 37.148 0.07 7.06 5.8 13.21
12/14/2021 11:30:00 AM 2.95 37.31 0.07 7.07 6.09 13.23
12/14/2021 11:45:00 AM 3.02 37.436 0.07 7.06 6.24 13.24
12/14/2021 12:00:00 PM 3.09 37.562 0.07 7.07 6.11 13.26
12/14/2021 12:15:00 PM 3.21 37.778 0.07 7.09 5.63 13.28
12/14/2021 12:30:00 PM 3.3 37.94 0.07 7.09 5.72 13.31
12/14/2021 12:45:00 PM 3.37 38.066 0.069 7.09 5.86 13.32
12/14/2021 1:00:00 PM 3.4 38.12 0.07 7.07 5.79 13.33
12/14/2021 1:15:00 PM 3.43 38.174 0.07 7.08 5.63 13.34
12/14/2021 1:30:00 PM 3.43 38.174 0.069 7.1 5.5 13.38
12/14/2021 1:45:00 PM 3.47 38.246 0.069 7.1 5.54 13.39
12/14/2021 2:00:00 PM 3.52 38.336 0.069 7.09 5.64 13.4
12/14/2021 2:15:00 PM 3.55 38.39 0.069 7.08 5.51 13.41
12/14/2021 2:30:00 PM 3.58 38.444 0.069 7.08 5.48 13.41
12/14/2021 2:45:00 PM 3.6 38.48 0.069 7.08 5.36 13.42
12/14/2021 3:00:00 PM 3.6 38.48 0.069 7.09 5.31 13.43
12/14/2021 3:15:00 PM 3.58 38.444 0.069 7.1 5.28 13.44
12/14/2021 3:30:00 PM 3.55 38.39 0.069 7.09 5.72 13.44
12/14/2021 3:45:00 PM 3.51 38.318 0.069 7.09 5.27 13.46
12/14/2021 4:00:00 PM 3.46 38.228 0.068 7.09 5.16 13.47
12/14/2021 4:15:00 PM 3.43 38.174 0.069 7.1 5.26 13.47
12/14/2021 4:30:00 PM 3.36 38.048 0.068 7.09 5.24 13.48
12/14/2021 4:45:00 PM 3.3 37.94 0.069 7.08 5.29 13.49
12/14/2021 5:00:00 PM 3.22 37.796 0.068 7.08 5.25 13.5
12/14/2021 5:15:00 PM 3.15 37.67 0.068 7.07 5.21 13.5
12/14/2021 5:30:00 PM 3.11 37.598 0.068 7.09 5.45 13.5
12/14/2021 5:45:00 PM 3.05 37.49 0.067 7.08 5.12 13.49
12/14/2021 6:00:00 PM 3.01 37.418 0.068 7.08 5.18 13.48
12/14/2021 6:15:00 PM 2.98 37.364 0.068 7.07 5.45 13.47
12/14/2021 6:30:00 PM 2.91 37.238 0.068 7.07 5.28 13.46
12/14/2021 6:45:00 PM 2.86 37.148 0.067 7.07 5.44 13.45
12/14/2021 7:00:00 PM 2.8 37.04 0.068 7.06 5.53 13.45
12/14/2021 7:15:00 PM 2.74 36.932 0.068 7.06 5.41 13.44
12/14/2021 7:30:00 PM 2.69 36.842 0.068 7.07 5.34 13.43
12/14/2021 7:45:00 PM 2.64 36.752 0.068 7.07 5.68 13.41
12/14/2021 8:00:00 PM 2.59 36.662 0.068 7.07 5.66 13.41
12/14/2021 8:15:00 PM 2.54 36.572 0.068 7.05 5.47 13.4
12/14/2021 8:30:00 PM 2.5 36.5 0.068 7.08 5.17 13.39
12/14/2021 8:45:00 PM 2.47 36.446 0.068 7.07 5.49 13.39
12/14/2021 9:00:00 PM 2.44 36.392 0.068 7.06 5.91 13.36
12/14/2021 9:15:00 PM 2.42 36.356 0.067 7.05 5.86 13.36
12/14/2021 9:30:00 PM 2.4 36.32 0.068 7.06 6.16 13.34
12/14/2021 9:45:00 PM 2.39 36.302 0.067 7.05 6.53 13.33
12/14/2021 10:00:00 PM 2.38 36.284 0.068 7.05 6.36 13.32
12/14/2021 10:15:00 PM 2.38 36.284 0.067 7.07 6.83 13.31
12/14/2021 10:30:00 PM 2.4 36.32 0.068 7.04 6.63 13.29
12/14/2021 10:45:00 PM 2.4 36.32 0.067 7.04 6.96 13.27
12/14/2021 11:00:00 PM 2.41 36.338 0.067 7.05 7.25 13.25
12/14/2021 11:15:00 PM 2.41 36.338 0.067 7.04 7.4 13.23
12/14/2021 11:30:00 PM 2.4 36.32 0.068 7.03 7.4 13.22
12/14/2021 11:45:00 PM 2.39 36.302 0.068 7.04 7.21 13.21
12/15/2021 12:00:00 AM 2.36 36.248 0.068 7.04 7.57 13.19
12/15/2021 12:15:00 AM 2.32 36.176 0.069 7.03 8.06 13.18
12/15/2021 12:30:00 AM 2.31 36.158 0.068 7.04 7.51 13.18
12/15/2021 12:45:00 AM 2.29 36.122 0.069 7.03 7.8 13.17
12/15/2021 1:00:00 AM 2.27 36.086 0.069 7.04 8.17 13.16
12/15/2021 1:15:00 AM 2.26 36.068 0.069 7.03 8.09 13.17
12/15/2021 1:30:00 AM 2.24 36.032 0.069 7.03 7.3 13.18
12/15/2021 1:45:00 AM 2.21 35.978 0.069 7.02 7.52 13.16
12/15/2021 2:00:00 AM 2.17 35.906 0.069 7.01 7.76 13.14
12/15/2021 2:15:00 AM 2.15 35.87 0.069 7.02 7.52 13.14
12/15/2021 2:30:00 AM 2.13 35.834 0.069 7.02 7.38 13.15
12/15/2021 2:45:00 AM 2.1 35.78 0.069 7.03 7.55 13.17
12/15/2021 3:00:00 AM 2.08 35.744 0.069 7.03 7.25 13.17
12/15/2021 3:15:00 AM 2.07 35.726 0.069 7.03 6.85 13.18
12/15/2021 3:30:00 AM 2.05 35.69 0.069 7.05 6.69 13.2
12/15/2021 3:45:00 AM 2.03 35.654 0.069 7.03 6.62 13.2
12/15/2021 4:00:00 AM 2 35.6 0.069 7.06 6.46 13.2
12/15/2021 4:15:00 AM 1.98 35.564 0.069 7.03 6.75 13.19
12/15/2021 4:30:00 AM 1.98 35.564 0.069 7.04 6.49 13.21
12/15/2021 4:45:00 AM 1.96 35.528 0.069 7.04 6.49 13.21
12/15/2021 5:00:00 AM 1.95 35.51 0.068 7.04 6.66 13.22
12/15/2021 5:15:00 AM 1.95 35.51 0.068 7.06 6.45 13.23
12/15/2021 5:30:00 AM 1.92 35.456 0.069 7.03 6.74 13.22
12/15/2021 5:45:00 AM 1.92 35.456 0.069 7.03 6.32 13.23
12/15/2021 6:00:00 AM 1.91 35.438 0.069 7.05 6.27 13.24
12/15/2021 6:15:00 AM 1.9 35.42 0.069 7.03 6.6 13.23
12/15/2021 6:30:00 AM 1.89 35.402 0.069 7.03 7.06 13.23
12/15/2021 6:45:00 AM 1.88 35.384 0.069 7.02 6.29 13.24
12/15/2021 7:00:00 AM 1.88 35.384 0.069 7.04 6.19 13.25
12/15/2021 7:15:00 AM 1.87 35.366 0.069 7.05 6.23 13.24
12/15/2021 7:30:00 AM 1.86 35.348 0.069 7.03 6.25 13.25
12/15/2021 7:45:00 AM 1.87 35.366 0.069 7.06 6.27 13.24
12/15/2021 8:00:00 AM 1.87 35.366 0.069 7.06 5.87 13.24
12/15/2021 8:15:00 AM 1.88 35.384 0.069 7.05 5.92 13.24
12/15/2021 8:30:00 AM 1.9 35.42 0.069 7.05 6.02 13.25
12/15/2021 8:45:00 AM 1.9 35.42 0.069 7.05 5.95 13.24
12/15/2021 9:00:00 AM 1.91 35.438 0.069 7.04 6.17 13.25
12/15/2021 9:15:00 AM 1.94 35.492 0.069 7.06 6.23 13.26
12/15/2021 9:30:00 AM 1.96 35.528 0.069 7.04 6.06 13.27
12/15/2021 9:45:00 AM 1.99 35.582 0.069 7.08 6.18 13.3
12/15/2021 10:00:00 AM 2.03 35.654 0.069 7.06 5.98 13.32
12/15/2021 10:15:00 AM 2.07 35.726 0.069 7.05 6.16 13.34
12/15/2021 10:30:00 AM 2.09 35.762 0.069 7.05 6.28 13.35
12/15/2021 10:45:00 AM 2.13 35.834 0.069 7.07 6.26 13.38
12/15/2021 11:00:00 AM 2.19 35.942 0.068 7.07 6.2 13.4
12/15/2021 11:15:00 AM 2.24 36.032 0.069 7.07 6.12 13.4
12/15/2021 11:30:00 AM 2.34 36.212 0.069 7.1 6.34 13.42
12/15/2021 11:45:00 AM 2.43 36.374 0.069 7.08 6.11 13.42
12/15/2021 12:00:00 PM 2.5 36.5 0.069 7.09 6.29 13.43
12/15/2021 12:15:00 PM 2.56 36.608 0.069 7.09 6.26 13.44
12/15/2021 12:30:00 PM 2.63 36.734 0.069 7.1 6.18 13.46
12/15/2021 12:45:00 PM 2.7 36.86 0.069 7.11 6.46 13.48
12/15/2021 1:00:00 PM 2.75 36.95 0.069 7.11 6 13.49
12/15/2021 1:15:00 PM 2.81 37.058 0.069 7.11 5.86 13.5
12/15/2021 1:30:00 PM 2.85 37.13 0.069 7.11 6.1 13.53
12/15/2021 1:45:00 PM 2.86 37.148 0.069 7.1 5.69 13.55
12/15/2021 2:00:00 PM 2.86 37.148 0.069 7.12 5.66 13.56
12/15/2021 2:15:00 PM 2.88 37.184 0.069 7.11 5.67 13.55
12/15/2021 2:30:00 PM 2.91 37.238 0.069 7.13 5.77 13.57
12/15/2021 2:45:00 PM 2.92 37.256 0.069 7.12 5.85 13.57
12/15/2021 3:00:00 PM 2.92 37.256 0.069 7.1 5.76 13.58
12/15/2021 3:15:00 PM 2.94 37.292 0.069 7.12 6.06 13.57
12/15/2021 3:30:00 PM 2.95 37.31 0.069 7.11 6.02 13.56
12/15/2021 3:45:00 PM 2.95 37.31 0.069 7.11 5.9 13.55
12/15/2021 4:00:00 PM 2.96 37.328 0.069 7.11 5.93 13.54
12/15/2021 4:15:00 PM 2.94 37.292 0.069 7.11 5.98 13.54
12/15/2021 4:30:00 PM 2.94 37.292 0.068 7.1 5.77 13.52
12/15/2021 4:45:00 PM 2.95 37.31 0.069 7.1 5.79 13.51
12/15/2021 5:00:00 PM 2.95 37.31 0.069 7.09 5.63 13.49
12/15/2021 5:15:00 PM 2.95 37.31 0.069 7.1 5.93 13.46
12/15/2021 5:30:00 PM 2.96 37.328 0.069 7.11 5.71 13.44
12/15/2021 5:45:00 PM 2.96 37.328 0.069 7.09 5.82 13.41
12/15/2021 6:00:00 PM 2.97 37.346 0.069 7.12 5.79 13.37
12/15/2021 6:15:00 PM 2.98 37.364 0.07 7.09 5.86 13.35
12/15/2021 6:30:00 PM 2.99 37.382 0.069 7.1 6.49 13.32
12/15/2021 6:45:00 PM 3 37.4 0.07 7.11 6.29 13.29
12/15/2021 7:00:00 PM 3.01 37.418 0.07 7.09 6.38 13.26
12/15/2021 7:15:00 PM 3.03 37.454 0.07 7.08 6.32 13.24
12/15/2021 7:30:00 PM 3.04 37.472 0.07 7.1 6.48 13.21
12/15/2021 7:45:00 PM 3.05 37.49 0.07 7.09 6.7 13.19
12/15/2021 8:00:00 PM 3.06 37.508 0.07 7.08 6.67 13.17
12/15/2021 8:15:00 PM 3.06 37.508 0.07 7.08 6.26 13.15
12/15/2021 8:30:00 PM 3.08 37.544 0.07 7.06 6.65 13.13
12/15/2021 8:45:00 PM 3.09 37.562 0.07 7.08 6.7 13.12
12/15/2021 9:00:00 PM 3.09 37.562 0.069 7.08 7.67 13.1
12/15/2021 9:15:00 PM 3.1 37.58 0.069 7.08 7.92 13.08
12/15/2021 9:30:00 PM 3.11 37.598 0.069 7.07 7.59 13.07
12/15/2021 9:45:00 PM 3.12 37.616 0.069 7.04 7.16 13.05
12/15/2021 10:00:00 PM 3.12 37.616 0.07 7.08 7.79 13.03
12/15/2021 10:15:00 PM 3.13 37.634 0.07 7.03 7.57 13.03
12/15/2021 10:30:00 PM 3.14 37.652 0.07 7.05 7.61 13.01
12/15/2021 10:45:00 PM 3.15 37.67 0.07 7.05 7.92 13.01
12/15/2021 11:00:00 PM 3.16 37.688 0.069 7.03 8.18 12.97
12/15/2021 11:15:00 PM 3.16 37.688 0.07 7.03 7.8 12.97
12/15/2021 11:30:00 PM 3.16 37.688 0.07 7.03 7.63 12.97
12/15/2021 11:45:00 PM 3.17 37.706 0.069 7.03 8.11 12.96
12/16/2021 12:00:00 AM 3.17 37.706 0.069 7.02 8.65 12.95
12/16/2021 12:15:00 AM 3.17 37.706 0.07 7.02 8.24 12.94
12/16/2021 12:30:00 AM 3.18 37.724 0.069 7.04 9.36 12.94
12/16/2021 12:45:00 AM 3.17 37.706 0.07 7.02 8.94 12.92
12/16/2021 1:00:00 AM 3.19 37.742 0.069 7.01 8.48 12.91
12/16/2021 1:15:00 AM 3.19 37.742 0.07 7.01 8.41 12.91
12/16/2021 1:30:00 AM 3.2 37.76 0.07 7.02 8.29 12.91
12/16/2021 1:45:00 AM 3.21 37.778 0.07 7.02 8.85 12.9
12/16/2021 2:00:00 AM 3.2 37.76 0.07 7 7.99 12.89
12/16/2021 2:15:00 AM 3.19 37.742 0.07 7 8.43 12.89
12/16/2021 2:30:00 AM 3.18 37.724 0.069 7 8.01 12.88
12/16/2021 2:45:00 AM 3.16 37.688 0.07 7.01 8.12 12.9
12/16/2021 3:00:00 AM 3.16 37.688 0.07 7.01 7.73 12.9
12/16/2021 3:15:00 AM 3.14 37.652 0.07 7 14.86 12.88
12/16/2021 3:30:00 AM 3.12 37.616 0.07 7 60.16 12.9
12/16/2021 3:45:00 AM 3.08 37.544 0.07 7 9.63 12.9
12/16/2021 4:00:00 AM 3.06 37.508 0.069 7.01 8.97 12.91
12/16/2021 4:15:00 AM 3.05 37.49 0.069 7 8.85 12.91
12/16/2021 4:30:00 AM 3.04 37.472 0.069 7.02 8.78 12.9
12/16/2021 4:45:00 AM 3.03 37.454 0.069 7 8.51 12.9
12/16/2021 5:00:00 AM 3.03 37.454 0.069 6.98 8.46 12.9
12/16/2021 5:15:00 AM 3.03 37.454 0.07 7.01 8.11 12.9
12/16/2021 5:30:00 AM 3.03 37.454 0.07 7.02 8.07 12.9
12/16/2021 5:45:00 AM 3.04 37.472 0.069 7 8.52 12.9
12/16/2021 6:00:00 AM 3.04 37.472 0.069 7 8.06 12.89
12/16/2021 6:15:00 AM 3.04 37.472 0.069 7 8.18 12.89
12/16/2021 6:30:00 AM 3.05 37.49 0.069 7.01 7.92 12.89
12/16/2021 6:45:00 AM 3.06 37.508 0.069 7 8.13 12.9
12/16/2021 7:00:00 AM 3.06 37.508 0.07 7.02 7.73 12.89
12/16/2021 7:15:00 AM 3.06 37.508 0.069 7.01 7.85 12.9
12/16/2021 7:30:00 AM 3.06 37.508 0.069 7.02 7.6 12.9
12/16/2021 7:45:00 AM 3.06 37.508 0.069 7.02 7.58 12.89
12/16/2021 8:00:00 AM 3.06 37.508 0.069 7.01 7.41 12.9
12/16/2021 8:15:00 AM 3.07 37.526 0.069 7.02 7.87 12.89
12/16/2021 8:30:00 AM 3.08 37.544 0.069 7.01 7.87 12.9
12/16/2021 8:45:00 AM 3.1 37.58 0.069 7.04 7.62 12.9
12/16/2021 9:00:00 AM 3.11 37.598 0.069 7.02 7.74 12.9
12/16/2021 9:15:00 AM 3.13 37.634 0.069 7.02 8.06 12.91
12/16/2021 9:30:00 AM 3.15 37.67 0.069 7.04 7.91 12.92
12/16/2021 9:45:00 AM 3.19 37.742 0.069 7.04 8.39 12.94
12/16/2021 10:00:00 AM 3.22 37.796 0.069 7.05 7.66 12.96
12/16/2021 10:15:00 AM 3.28 37.904 0.069 7.03 7.52 12.96
12/16/2021 10:30:00 AM 3.34 38.012 0.069 7.07 7.35 13
12/16/2021 10:45:00 AM 3.41 38.138 0.069 7.04 7.33 13.02
12/16/2021 11:00:00 AM 3.48 38.264 0.069 7.06 7.26 13.02
12/16/2021 11:15:00 AM 3.55 38.39 0.069 7.07 7.02 13.04
12/16/2021 11:30:00 AM 3.62 38.516 0.069 7.06 6.88 13.05
12/16/2021 11:45:00 AM 3.71 38.678 0.068 7.08 6.95 13.08
12/16/2021 12:00:00 PM 3.8 38.84 0.069 7.07 6.78 13.1
12/16/2021 12:15:00 PM 3.91 39.038 0.069 7.1 6.86 13.1
12/16/2021 12:30:00 PM 4.03 39.254 0.069 7.09 6.83 13.08
12/16/2021 12:45:00 PM 4.12 39.416 0.069 7.09 6.89 13.09
12/16/2021 1:00:00 PM 4.23 39.614 0.068 7.08 7.13 13.07
12/16/2021 1:15:00 PM 4.3 39.74 0.069 7.07 6.98 13.09
12/16/2021 1:30:00 PM 4.37 39.866 0.068 7.09 6.98 13.09
12/16/2021 1:45:00 PM 4.46 40.028 0.069 7.09 6.93 13.09
12/16/2021 2:00:00 PM 4.54 40.172 0.068 7.1 7.54 13.1
12/16/2021 2:15:00 PM 4.59 40.262 0.069 7.09 7.14 13.09
12/16/2021 2:30:00 PM 4.65 40.37 0.068 7.1 6.96 13.09
12/16/2021 2:45:00 PM 4.67 40.406 0.069 7.1 6.72 13.12
12/16/2021 3:00:00 PM 4.71 40.478 0.068 7.1 6.88 13.13
12/16/2021 3:15:00 PM 4.74 40.532 0.069 7.1 7.16 13.15
12/16/2021 3:30:00 PM 4.75 40.55 0.069 7.11 6.98 13.15
12/16/2021 3:45:00 PM 4.75 40.55 0.068 7.12 6.94 13.17
12/16/2021 4:00:00 PM 4.75 40.55 0.068 7.11 6.9 13.18
12/16/2021 4:15:00 PM 4.74 40.532 0.068 7.13 6.85 13.18
12/16/2021 4:30:00 PM 4.74 40.532 0.068 7.1 6.8 13.17
12/16/2021 4:45:00 PM 4.7 40.46 0.069 7.1 6.77 13.18
12/16/2021 5:00:00 PM 4.69 40.442 0.068 7.11 6.97 13.17
12/16/2021 5:15:00 PM 4.66 40.388 0.069 7.11 6.86 13.16
12/16/2021 5:30:00 PM 4.65 40.37 0.069 7.09 7.01 13.14
12/16/2021 5:45:00 PM 4.61 40.298 0.068 7.09 7.06 13.13
12/16/2021 6:00:00 PM 4.61 40.298 0.069 7.1 7.3 13.09
12/16/2021 6:15:00 PM 4.56 40.208 0.068 7.1 7.45 13.08
12/16/2021 6:30:00 PM 4.55 40.19 0.069 7.1 7.36 13.04
12/16/2021 6:45:00 PM 4.5 40.1 0.068 7.12 7.24 13.02
12/16/2021 7:00:00 PM 4.47 40.046 0.069 7.08 7.37 12.99
12/16/2021 7:15:00 PM 4.45 40.01 0.068 7.11 8.43 12.97
12/16/2021 7:30:00 PM 4.44 39.992 0.069 7.08 7.67 12.93
12/16/2021 7:45:00 PM 4.42 39.956 0.069 7.1 8.02 12.91
12/16/2021 8:00:00 PM 4.4 39.92 0.069 7.08 8.26 12.9
12/16/2021 8:15:00 PM 4.39 39.902 0.069 7.08 8.36 12.86
12/16/2021 8:30:00 PM 4.37 39.866 0.069 7.06 8.72 12.85
12/16/2021 8:45:00 PM 4.37 39.866 0.069 7.06 9.92 12.82
12/16/2021 9:00:00 PM 4.34 39.812 0.069 7.05 9.88 12.79
12/16/2021 9:15:00 PM 4.34 39.812 0.069 7.06 13.05 12.76
12/16/2021 9:30:00 PM 4.34 39.812 0.069 7.06 10.05 12.75
12/16/2021 9:45:00 PM 4.36 39.848 0.069 7.07 10.52 12.71
12/16/2021 10:00:00 PM 4.39 39.902 0.069 7.06 11.34 12.67
12/16/2021 10:15:00 PM 4.39 39.902 0.069 7.04 10.25 12.66
12/16/2021 10:30:00 PM 4.37 39.866 0.069 7.04 9.98 12.64
12/16/2021 10:45:00 PM 4.39 39.902 0.069 7.03 10.23 12.61
12/16/2021 11:00:00 PM 4.39 39.902 0.068 7.04 9.61 12.6
12/16/2021 11:15:00 PM 4.4 39.92 0.069 7.04 9.99 12.57
12/16/2021 11:30:00 PM 4.4 39.92 0.069 7.03 9.69 12.57
12/16/2021 11:45:00 PM 4.42 39.956 0.069 7.03 9.68 12.55
12/17/2021 12:00:00 AM 4.44 39.992 0.069 7.02 10.2 12.54
12/17/2021 12:15:00 AM 4.48 40.064 0.069 7.03 10.96 12.51
12/17/2021 12:30:00 AM 4.5 40.1 0.068 7.03 10.59 12.49
12/17/2021 12:45:00 AM 4.52 40.136 0.069 7.02 10 12.49
12/17/2021 1:00:00 AM 4.53 40.154 0.069 7.03 10.08 12.47
12/17/2021 1:15:00 AM 4.56 40.208 0.069 7.01 9.8 12.47
12/17/2021 1:30:00 AM 4.58 40.244 0.069 7.02 10.28 12.46
12/17/2021 1:45:00 AM 4.6 40.28 0.069 7.03 11.46 12.45
12/17/2021 2:00:00 AM 4.63 40.334 0.069 7.02 10.9 12.43
12/17/2021 2:15:00 AM 4.61 40.298 0.069 7.01 10.32 12.43
12/17/2021 2:30:00 AM 4.62 40.316 0.069 7.02 10.03 12.44
12/17/2021 2:45:00 AM 4.64 40.352 0.069 7.03 10.01 12.43
12/17/2021 3:00:00 AM 4.66 40.388 0.069 7.04 10.44 12.4
12/17/2021 3:15:00 AM 4.7 40.46 0.069 7.01 10.53 12.35
12/17/2021 3:30:00 AM 4.7 40.46 0.069 7.01 11.97 12.33
12/17/2021 3:45:00 AM 4.65 40.37 0.069 7 10.77 12.36
12/17/2021 4:00:00 AM 4.6 40.28 0.069 7.01 10.64 12.37
12/17/2021 4:15:00 AM 4.56 40.208 0.069 7.05 10.68 12.37
12/17/2021 4:30:00 AM 4.53 40.154 0.069 7.02 11 12.38
12/17/2021 4:45:00 AM 4.54 40.172 0.069 7.04 11.37 12.34
12/17/2021 5:00:00 AM 4.52 40.136 0.069 7.02 11.76 12.31
12/17/2021 5:15:00 AM 4.45 40.01 0.069 7.05 10.44 12.33
12/17/2021 5:30:00 AM 4.39 39.902 0.069 7.02 10.71 12.35
12/17/2021 5:45:00 AM 4.34 39.812 0.069 7.03 10.81 12.37
12/17/2021 6:00:00 AM 4.29 39.722 0.069 7.05 11.68 12.36
12/17/2021 6:15:00 AM 4.22 39.596 0.069 7.03 11.61 12.4
12/17/2021 6:30:00 AM 4.16 39.488 0.069 7.06 11.1 12.4
12/17/2021 6:45:00 AM 4.09 39.362 0.069 7.05 11.25 12.42
12/17/2021 7:00:00 AM 4.02 39.236 0.069 7.05 10.66 12.43
12/17/2021 7:15:00 AM 3.94 39.092 0.069 7.05 11.03 12.47
12/17/2021 7:30:00 AM 3.87 38.966 0.069 7.06 10.37 12.49
12/17/2021 7:45:00 AM 3.8 38.84 0.069 7.05 10.55 12.49
12/17/2021 8:00:00 AM 3.74 38.732 0.069 7.06 10.55 12.51
12/17/2021 8:15:00 AM 3.7 38.66 0.069 7.07 9.9 12.52
12/17/2021 8:30:00 AM 3.65 38.57 0.069 7.06 10.02 12.52
12/17/2021 8:45:00 AM 3.61 38.498 0.069 7.08 10.56 12.52
12/17/2021 9:00:00 AM 3.58 38.444 0.069 7.06 9.83 12.53
12/17/2021 9:15:00 AM 3.58 38.444 0.069 7.09 9.54 12.55
12/17/2021 9:30:00 AM 3.59 38.462 0.069 7.07 10.01 12.57
12/17/2021 9:45:00 AM 3.62 38.516 0.069 7.1 9.64 12.6
12/17/2021 10:00:00 AM 3.64 38.552 0.069 7.08 9.49 12.62
12/17/2021 10:15:00 AM 3.66 38.588 0.069 7.09 9.45 12.64
12/17/2021 10:30:00 AM 3.71 38.678 0.069 7.1 10.43 12.66
12/17/2021 10:45:00 AM 3.78 38.804 0.069 7.12 9.39 12.67
12/17/2021 11:00:00 AM 3.86 38.948 0.069 7.1 9.27 12.7
12/17/2021 11:15:00 AM 3.94 39.092 0.069 7.14 9.26 12.73
12/17/2021 11:30:00 AM 4.04 39.272 0.069 7.12 9.26 12.74
12/17/2021 11:45:00 AM 4.16 39.488 0.069 7.13 9.41 12.76
12/17/2021 12:00:00 PM 4.24 39.632 0.069 7.15 9.78 12.78
12/17/2021 12:15:00 PM 4.36 39.848 0.069 7.15 9.67 12.78
12/17/2021 12:30:00 PM 4.48 40.064 0.069 7.15 9.62 12.77
12/17/2021 12:45:00 PM 4.57 40.226 0.068 7.15 9.61 12.76
12/17/2021 1:00:00 PM 4.7 40.46 0.068 7.15 9.67 12.73
12/17/2021 1:15:00 PM 4.78 40.604 0.068 7.14 9.58 12.72
12/17/2021 1:30:00 PM 4.9 40.82 0.067 7.15 9.54 12.69
12/17/2021 1:45:00 PM 4.95 40.91 0.067 7.14 9.29 12.68
12/17/2021 2:00:00 PM 5.01 41.018 0.067 7.17 9.35 12.67
12/17/2021 2:15:00 PM 5.04 41.072 0.067 7.15 9.27 12.67
12/17/2021 2:30:00 PM 5.08 41.144 0.067 7.15 9.17 12.67
12/17/2021 2:45:00 PM 5.12 41.216 0.067 7.14 9.4 12.66
12/17/2021 3:00:00 PM 5.15 41.27 0.067 7.15 9.12 12.66
12/17/2021 3:15:00 PM 5.17 41.306 0.067 7.16 9.28 12.66
12/17/2021 3:30:00 PM 5.16 41.288 0.067 7.14 9.45 12.66
12/17/2021 3:45:00 PM 5.15 41.27 0.066 7.16 9.45 12.66
12/17/2021 4:00:00 PM 5.14 41.252 0.066 7.13 9.32 12.66
12/17/2021 4:15:00 PM 5.13 41.234 0.066 7.14 9.03 12.66
12/17/2021 4:30:00 PM 5.13 41.234 0.066 7.15 9.01 12.65
12/17/2021 4:45:00 PM 5.12 41.216 0.066 7.13 9.8 12.64
12/17/2021 5:00:00 PM 5.11 41.198 0.066 7.14 9.06 12.64
12/17/2021 5:15:00 PM 5.09 41.162 0.065 7.12 9.25 12.64
12/17/2021 5:30:00 PM 5.05 41.09 0.066 7.12 9.33 12.63
12/17/2021 5:45:00 PM 5 41 0.066 7.12 9.99 12.63
12/17/2021 6:00:00 PM 4.95 40.91 0.066 7.12 9.59 12.62
12/17/2021 6:15:00 PM 4.9 40.82 0.067 7.11 9.85 12.62
12/17/2021 6:30:00 PM 4.85 40.73 0.067 7.12 10.22 12.6
12/17/2021 6:45:00 PM 4.79 40.622 0.067 7.13 9.85 12.59
12/17/2021 7:00:00 PM 4.74 40.532 0.066 7.1 9.88 12.58
12/17/2021 7:15:00 PM 4.68 40.424 0.067 7.1 9.74 12.58
12/17/2021 7:30:00 PM 4.62 40.316 0.067 7.1 9.92 12.57
12/17/2021 7:45:00 PM 4.56 40.208 0.067 7.1 9.91 12.56
12/17/2021 8:00:00 PM 4.51 40.118 0.067 7.1 10.97 12.55
12/17/2021 8:15:00 PM 4.46 40.028 0.067 7.11 10.86 12.54
12/17/2021 8:30:00 PM 4.41 39.938 0.067 7.12 11.77 12.53
12/17/2021 8:45:00 PM 4.36 39.848 0.067 7.09 10.83 12.52
12/17/2021 9:00:00 PM 4.33 39.794 0.067 7.1 11.2 12.51
12/17/2021 9:15:00 PM 4.29 39.722 0.067 7.1 11.02 12.5
12/17/2021 9:30:00 PM 4.25 39.65 0.067 7.09 11.04 12.48
12/17/2021 9:45:00 PM 4.22 39.596 0.067 7.09 11.16 12.46
12/17/2021 10:00:00 PM 4.19 39.542 0.067 7.08 11.32 12.45
12/17/2021 10:15:00 PM 4.15 39.47 0.067 7.08 11.44 12.44
12/17/2021 10:30:00 PM 4.11 39.398 0.068 7.06 11.17 12.43
12/17/2021 10:45:00 PM 4.06 39.308 0.067 7.08 11.15 12.41
12/17/2021 11:00:00 PM 4.03 39.254 0.067 7.06 12.04 12.4
12/17/2021 11:15:00 PM 4.03 39.254 0.068 7.07 11.32 12.41
12/17/2021 11:30:00 PM 4 39.2 0.068 7.07 11.26 12.41
12/17/2021 11:45:00 PM 3.98 39.164 0.068 7.07 11.31 12.41
12/18/2021 12:00:00 AM 3.95 39.11 0.067 7.07 11.07 12.42
12/18/2021 12:15:00 AM 3.92 39.056 0.068 7.05 11.3 12.41
12/18/2021 12:30:00 AM 3.9 39.02 0.068 7.05 11.32 12.41
12/18/2021 12:45:00 AM 3.88 38.984 0.068 7.04 11.52 12.4
12/18/2021 1:00:00 AM 3.88 38.984 0.068 7.06 11.54 12.41
12/18/2021 1:15:00 AM 3.85 38.93 0.068 7.07 11.25 12.4
12/18/2021 1:30:00 AM 3.85 38.93 0.068 7.06 11.57 12.4
12/18/2021 1:45:00 AM 3.87 38.966 0.068 7.06 11.56 12.42
12/18/2021 2:00:00 AM 3.86 38.948 0.068 7.05 11.11 12.41
12/18/2021 2:15:00 AM 3.87 38.966 0.068 7.06 11.57 12.42
12/18/2021 2:30:00 AM 3.86 38.948 0.068 7.05 11.69 12.41
12/18/2021 2:45:00 AM 3.86 38.948 0.068 7.07 11.49 12.4
12/18/2021 3:00:00 AM 3.88 38.984 0.068 7.06 11.8 12.4
12/18/2021 3:15:00 AM 3.89 39.002 0.068 7.04 11.6 12.4
12/18/2021 3:30:00 AM 3.9 39.02 0.068 7.05 11.41 12.41
12/18/2021 3:45:00 AM 3.9 39.02 0.068 7.05 11.57 12.42
12/18/2021 4:00:00 AM 3.92 39.056 0.068 7.05 11.51 12.42
12/18/2021 4:15:00 AM 3.91 39.038 0.068 7.05 11.57 12.41
12/18/2021 4:30:00 AM 3.92 39.056 0.068 7.05 11.51 12.41
12/18/2021 4:45:00 AM 3.94 39.092 0.068 7.03 11.67 12.41
12/18/2021 5:00:00 AM 3.95 39.11 0.068 7.06 11.49 12.41
12/18/2021 5:15:00 AM 3.95 39.11 0.068 7.04 11.39 12.4
12/18/2021 5:30:00 AM 3.96 39.128 0.068 7.05 11.56 12.4
12/18/2021 5:45:00 AM 3.98 39.164 0.068 7.05 11.36 12.41
12/18/2021 6:00:00 AM 3.98 39.164 0.068 7.03 11.58 12.39
12/18/2021 6:15:00 AM 3.98 39.164 0.068 7.03 11.57 12.38
12/18/2021 6:30:00 AM 3.98 39.164 0.068 7.06 11.6 12.38
12/18/2021 6:45:00 AM 4.01 39.218 0.068 7.03 11.18 12.38
12/18/2021 7:00:00 AM 4 39.2 0.068 7.02 11.15 12.37
12/18/2021 7:15:00 AM 3.98 39.164 0.068 7.06 11.24 12.36
12/18/2021 7:30:00 AM 3.98 39.164 0.068 7.02 11.47 12.35
12/18/2021 7:45:00 AM 4 39.2 0.068 7.04 11.25 12.36
12/18/2021 8:00:00 AM 4.01 39.218 0.068 7.04 11.14 12.37
12/18/2021 8:15:00 AM 4.02 39.236 0.067 7.03 11.36 12.37
12/18/2021 8:30:00 AM 4.02 39.236 0.068 7.06 11.15 12.37
12/18/2021 8:45:00 AM 4.02 39.236 0.067 7.03 10.89 12.36
12/18/2021 9:00:00 AM 4.03 39.254 0.068 7.04 11.19 12.37
12/18/2021 9:15:00 AM 4.03 39.254 0.067 7.06 10.66 12.38
12/18/2021 9:30:00 AM 4.03 39.254 0.068 7.04 10.54 12.39
12/18/2021 9:45:00 AM 4.02 39.236 0.067 7.06 10.77 12.4
12/18/2021 10:00:00 AM 4.02 39.236 0.068 7.05 10.74 12.42
12/18/2021 10:15:00 AM 4.01 39.218 0.067 7.07 10.68 12.42
12/18/2021 10:30:00 AM 4.02 39.236 0.067 7.05 10.81 12.45
12/18/2021 10:45:00 AM 4.03 39.254 0.067 7.07 10.51 12.48
12/18/2021 11:00:00 AM 4.03 39.254 0.067 7.06 10.66 12.51
12/18/2021 11:15:00 AM 4.02 39.236 0.068 7.07 10.65 12.53
12/18/2021 11:30:00 AM 4.01 39.218 0.067 7.08 10.65 12.55
12/18/2021 11:45:00 AM 4 39.2 0.068 7.08 10.38 12.57
12/18/2021 12:00:00 PM 3.98 39.164 0.068 7.08 10.62 12.57
12/18/2021 12:15:00 PM 3.97 39.146 0.067 7.08 10.86 12.6
12/18/2021 12:30:00 PM 3.96 39.128 0.067 7.09 10.38 12.62
12/18/2021 12:45:00 PM 3.93 39.074 0.067 7.09 10.47 12.62
12/18/2021 1:00:00 PM 3.91 39.038 0.067 7.1 10.75 12.63
12/18/2021 1:15:00 PM 3.89 39.002 0.067 7.11 10.6 12.64
12/18/2021 1:30:00 PM 3.87 38.966 0.067 7.12 10.72 12.66
12/18/2021 1:45:00 PM 3.85 38.93 0.067 7.09 10.91 12.68
12/18/2021 2:00:00 PM 3.84 38.912 0.067 7.13 10.63 12.69
12/18/2021 2:15:00 PM 3.83 38.894 0.067 7.1 10.55 12.71
12/18/2021 2:30:00 PM 3.82 38.876 0.067 7.1 10.57 12.71
12/18/2021 2:45:00 PM 3.81 38.858 0.067 7.11 10.44 12.72
12/18/2021 3:00:00 PM 3.8 38.84 0.067 7.12 10.77 12.71
12/18/2021 3:15:00 PM 3.79 38.822 0.067 7.13 10.56 12.72
12/18/2021 3:30:00 PM 3.78 38.804 0.067 7.12 10.41 12.72
12/18/2021 3:45:00 PM 3.78 38.804 0.067 7.14 10.45 12.72
12/18/2021 4:00:00 PM 3.78 38.804 0.067 7.11 10.36 12.71
12/18/2021 4:15:00 PM 3.76 38.768 0.067 7.11 10.38 12.71
12/18/2021 4:30:00 PM 3.75 38.75 0.067 7.12 10.29 12.7
12/18/2021 4:45:00 PM 3.74 38.732 0.067 7.1 10.61 12.69
12/18/2021 5:00:00 PM 3.73 38.714 0.067 7.1 10.66 12.68
12/18/2021 5:15:00 PM 3.72 38.696 0.067 7.12 10.68 12.67
12/18/2021 5:30:00 PM 3.7 38.66 0.067 7.11 10.69 12.66
12/18/2021 5:45:00 PM 3.69 38.642 0.068 7.09 10.75 12.65
12/18/2021 6:00:00 PM 3.69 38.642 0.067 7.1 10.65 12.64
12/18/2021 6:15:00 PM 3.71 38.678 0.067 7.09 11.07 12.63
12/18/2021 6:30:00 PM 3.71 38.678 0.067 7.11 11.51 12.62
12/18/2021 6:45:00 PM 3.7 38.66 0.068 7.07 11.74 12.6
12/18/2021 7:00:00 PM 3.71 38.678 0.067 7.1 11.24 12.58
12/18/2021 7:15:00 PM 3.7 38.66 0.068 7.07 10.77 12.57
12/18/2021 7:30:00 PM 3.7 38.66 0.068 7.06 10.76 12.56
12/18/2021 7:45:00 PM 3.71 38.678 0.068 7.09 11 12.54
12/18/2021 8:00:00 PM 3.71 38.678 0.068 7.09 11.12 12.53
12/18/2021 8:15:00 PM 3.71 38.678 0.068 7.07 10.61 12.51
12/18/2021 8:30:00 PM 3.69 38.642 0.068 7.05 10.95 12.49
12/18/2021 8:45:00 PM 3.69 38.642 0.068 7.06 10.92 12.48
12/18/2021 9:00:00 PM 3.68 38.624 0.068 7.07 11.64 12.47
12/18/2021 9:15:00 PM 3.69 38.642 0.068 7.05 11.04 12.46
12/18/2021 9:30:00 PM 3.69 38.642 0.068 7.07 11.03 12.44
12/18/2021 9:45:00 PM 3.7 38.66 0.069 7.05 10.89 12.43
12/18/2021 10:00:00 PM 3.7 38.66 0.069 7.07 11.42 12.42
12/18/2021 10:15:00 PM 3.71 38.678 0.069 7.04 11.35 12.42
12/18/2021 10:30:00 PM 3.71 38.678 0.069 7.04 11.74 12.41
12/18/2021 10:45:00 PM 3.72 38.696 0.069 7.04 11.33 12.4
12/18/2021 11:00:00 PM 3.74 38.732 0.069 7.03 11.17 12.39
12/18/2021 11:15:00 PM 3.74 38.732 0.069 7.06 11.36 12.38
12/18/2021 11:30:00 PM 3.73 38.714 0.069 7.02 11.65 12.36
12/18/2021 11:45:00 PM 3.75 38.75 0.069 7.03 11.4 12.37
12/19/2021 12:00:00 AM 3.75 38.75 0.069 7.03 11.6 12.35
12/19/2021 12:15:00 AM 3.74 38.732 0.07 7.02 11.85 12.35
12/19/2021 12:30:00 AM 3.75 38.75 0.069 7.04 11.92 12.35
12/19/2021 12:45:00 AM 3.76 38.768 0.069 7.02 11.89 12.35
12/19/2021 1:00:00 AM 3.76 38.768 0.07 7.05 11.97 12.36
12/19/2021 1:15:00 AM 3.76 38.768 0.07 7.01 11.96 12.36
12/19/2021 1:30:00 AM 3.75 38.75 0.07 7.03 12.36 12.34
12/19/2021 1:45:00 AM 3.74 38.732 0.07 7.02 13.11 12.32
12/19/2021 2:00:00 AM 3.73 38.714 0.07 7.03 12.25 12.32
12/19/2021 2:15:00 AM 3.71 38.678 0.07 7.02 12.6 12.31
12/19/2021 2:30:00 AM 3.7 38.66 0.07 7.02 12.63 12.32
12/19/2021 2:45:00 AM 3.69 38.642 0.07 7.03 12.65 12.34
12/19/2021 3:00:00 AM 3.66 38.588 0.07 7.04 12.46 12.37
12/19/2021 3:15:00 AM 3.63 38.534 0.07 7.04 12.44 12.39
12/19/2021 3:30:00 AM 3.59 38.462 0.07 7.04 12.8 12.4
12/19/2021 3:45:00 AM 3.54 38.372 0.07 7.06 12.79 12.42
12/19/2021 4:00:00 AM 3.49 38.282 0.07 7.07 12.44 12.44
12/19/2021 4:15:00 AM 3.44 38.192 0.07 7.06 12.67 12.45
12/19/2021 4:30:00 AM 3.4 38.12 0.07 7.07 12.69 12.47
12/19/2021 4:45:00 AM 3.36 38.048 0.07 7.06 12.42 12.48
12/19/2021 5:00:00 AM 3.33 37.994 0.07 7.08 12.27 12.49
12/19/2021 5:15:00 AM 3.3 37.94 0.07 7.07 12.6 12.49
12/19/2021 5:30:00 AM 3.26 37.868 0.07 7.07 12.09 12.51
12/19/2021 5:45:00 AM 3.23 37.814 0.07 7.08 11.98 12.52
12/19/2021 6:00:00 AM 3.18 37.724 0.07 7.06 11.96 12.51
12/19/2021 6:15:00 AM 3.14 37.652 0.07 7.06 12.32 12.53
12/19/2021 6:30:00 AM 3.12 37.616 0.07 7.07 12.26 12.54
12/19/2021 6:45:00 AM 3.07 37.526 0.07 7.06 12.36 12.55
12/19/2021 7:00:00 AM 3.02 37.436 0.07 7.06 12.61 12.57
12/19/2021 7:15:00 AM 2.97 37.346 0.07 7.07 12.22 12.59
12/19/2021 7:30:00 AM 2.93 37.274 0.07 7.09 12.56 12.61
12/19/2021 7:45:00 AM 2.92 37.256 0.07 7.09 12.32 12.62
12/19/2021 8:00:00 AM 2.89 37.202 0.07 7.09 12.47 12.63
12/19/2021 8:15:00 AM 2.83 37.094 0.07 7.09 12.17 12.65
12/19/2021 8:30:00 AM 2.8 37.04 0.07 7.08 12.84 12.67
12/19/2021 8:45:00 AM 2.76 36.968 0.069 7.09 11.81 12.69
12/19/2021 9:00:00 AM 2.69 36.842 0.069 7.09 11.46 12.7
12/19/2021 9:15:00 AM 2.63 36.734 0.069 7.06 11.59 12.72
12/19/2021 9:30:00 AM 2.59 36.662 0.068 7.09 11.59 12.74
12/19/2021 9:45:00 AM 2.56 36.608 0.068 7.07 11.71 12.76
12/19/2021 10:00:00 AM 2.51 36.518 0.068 7.07 11.82 12.79
12/19/2021 10:15:00 AM 2.5 36.5 0.067 7.1 11.61 12.81
12/19/2021 10:30:00 AM 2.49 36.482 0.067 7.08 11.66 12.84
12/19/2021 10:45:00 AM 2.46 36.428 0.067 7.08 11.65 12.87
12/19/2021 11:00:00 AM 2.45 36.41 0.067 7.07 11.48 12.89
12/19/2021 11:15:00 AM 2.43 36.374 0.067 7.08 11.67 12.93
12/19/2021 11:30:00 AM 2.43 36.374 0.067 7.09 11.5 12.95
12/19/2021 11:45:00 AM 2.42 36.356 0.067 7.09 11.5 12.99
12/19/2021 12:00:00 PM 2.43 36.374 0.067 7.1 11.83 13.02
12/19/2021 12:15:00 PM 2.45 36.41 0.068 7.1 11.34 13.05
12/19/2021 12:30:00 PM 2.45 36.41 0.068 7.1 11.21 13.09
12/19/2021 12:45:00 PM 2.46 36.428 0.068 7.11 11.21 13.11
12/19/2021 1:00:00 PM 2.47 36.446 0.068 7.12 11.25 13.14
12/19/2021 1:15:00 PM 2.47 36.446 0.068 7.11 11.22 13.16
12/19/2021 1:30:00 PM 2.46 36.428 0.068 7.14 11.36 13.19
12/19/2021 1:45:00 PM 2.47 36.446 0.068 7.13 11.3 13.21
12/19/2021 2:00:00 PM 2.49 36.482 0.068 7.13 11.24 13.23
12/19/2021 2:15:00 PM 2.5 36.5 0.068 7.12 11.43 13.25
12/19/2021 2:30:00 PM 2.5 36.5 0.069 7.13 11.6 13.27
12/19/2021 2:45:00 PM 2.5 36.5 0.069 7.14 11.56 13.29
12/19/2021 3:00:00 PM 2.49 36.482 0.069 7.14 11.41 13.31
12/19/2021 3:15:00 PM 2.49 36.482 0.069 7.15 11.5 13.33
12/19/2021 3:30:00 PM 2.49 36.482 0.07 7.15 11.33 13.35
12/19/2021 3:45:00 PM 2.49 36.482 0.069 7.17 11.44 13.37
12/19/2021 4:00:00 PM 2.46 36.428 0.07 7.14 11.12 13.38
12/19/2021 4:15:00 PM 2.42 36.356 0.069 7.17 11.1 13.4
12/19/2021 4:30:00 PM 2.39 36.302 0.07 7.16 11.1 13.4
12/19/2021 4:45:00 PM 2.36 36.248 0.07 7.15 10.98 13.41
12/19/2021 5:00:00 PM 2.31 36.158 0.07 7.16 11.03 13.41
12/19/2021 5:15:00 PM 2.25 36.05 0.07 7.14 11.12 13.41
12/19/2021 5:30:00 PM 2.19 35.942 0.07 7.15 11.57 13.42
12/19/2021 5:45:00 PM 2.1 35.78 0.07 7.15 11.58 13.42
12/19/2021 6:00:00 PM 2.04 35.672 0.071 7.14 11.87 13.42
12/19/2021 6:15:00 PM 1.98 35.564 0.071 7.15 11.74 13.42
12/19/2021 6:30:00 PM 1.91 35.438 0.071 7.16 11.73 13.41
12/19/2021 6:45:00 PM 1.85 35.33 0.071 7.15 11.9 13.42
12/19/2021 7:00:00 PM 1.8 35.24 0.071 7.14 11.57 13.42
12/19/2021 7:15:00 PM 1.77 35.186 0.072 7.13 11.79 13.42
12/19/2021 7:30:00 PM 1.74 35.132 0.071 7.15 11.46 13.43
12/19/2021 7:45:00 PM 1.71 35.078 0.071 7.13 11.24 13.44
12/19/2021 8:00:00 PM 1.68 35.024 0.071 7.14 11.34 13.44
12/19/2021 8:15:00 PM 1.66 34.988 0.072 7.14 11.58 13.45
12/19/2021 8:30:00 PM 1.63 34.934 0.071 7.16 11.59 13.45
12/19/2021 8:45:00 PM 1.6 34.88 0.071 7.13 11.99 13.44
12/19/2021 9:00:00 PM 1.59 34.862 0.071 7.14 11.88 13.45
12/19/2021 9:15:00 PM 1.58 34.844 0.071 7.13 11.65 13.45
12/19/2021 9:30:00 PM 1.53 34.754 0.071 7.13 11.39 13.45
12/19/2021 9:45:00 PM 1.52 34.736 0.071 7.14 11.35 13.44
12/19/2021 10:00:00 PM 1.52 34.736 0.071 7.15 11.2 13.44
12/19/2021 10:15:00 PM 1.49 34.682 0.071 7.15 11.19 13.44
12/19/2021 10:30:00 PM 1.46 34.628 0.071 7.14 11.25 13.44
12/19/2021 10:45:00 PM 1.43 34.574 0.071 7.14 11.35 13.44
12/19/2021 11:00:00 PM 1.41 34.538 0.071 7.13 11.51 13.43
12/19/2021 11:15:00 PM 1.37 34.466 0.071 7.13 11.34 13.44
12/19/2021 11:30:00 PM 1.31 34.358 0.071 7.13 11.54 13.45
12/19/2021 11:45:00 PM 1.27 34.286 0.071 7.13 11.4 13.45
12/20/2021 12:00:00 AM 1.23 34.214 0.071 7.14 11.67 13.45
12/20/2021 12:15:00 AM 1.19 34.142 0.071 7.14 11.78 13.46
12/20/2021 12:30:00 AM 1.19 34.142 0.071 7.12 11.88 13.46
12/20/2021 12:45:00 AM 1.19 34.142 0.071 7.12 12.2 13.45
12/20/2021 1:00:00 AM 1.16 34.088 0.071 7.11 11.78 13.46
12/20/2021 1:15:00 AM 1.14 34.052 0.071 7.12 11.56 13.46
12/20/2021 1:30:00 AM 1.13 34.034 0.072 7.12 11.82 13.46
12/20/2021 1:45:00 AM 1.14 34.052 0.072 7.13 11.6 13.46
12/20/2021 2:00:00 AM 1.14 34.052 0.072 7.11 11.35 13.46
12/20/2021 2:15:00 AM 1.15 34.07 0.072 7.12 11.2 13.46
12/20/2021 2:30:00 AM 1.14 34.052 0.072 7.11 11.27 13.46
12/20/2021 2:45:00 AM 1.11 33.998 0.072 7.11 11.16 13.46
12/20/2021 3:00:00 AM 1.1 33.98 0.071 7.13 11.2 13.47
12/20/2021 3:15:00 AM 1.09 33.962 0.072 7.11 11.18 13.46
12/20/2021 3:30:00 AM 1.09 33.962 0.072 7.11 11.09 13.47
12/20/2021 3:45:00 AM 1.06 33.908 0.072 7.1 11.31 13.47
12/20/2021 4:00:00 AM 1.05 33.89 0.071 7.1 11.3 13.46
12/20/2021 4:15:00 AM 1.02 33.836 0.072 7.11 11.4 13.47
12/20/2021 4:30:00 AM 1.03 33.854 0.071 7.1 11.56 13.46
12/20/2021 4:45:00 AM 1.03 33.854 0.071 7.11 11.14 13.45
12/20/2021 5:00:00 AM 1.02 33.836 0.071 7.12 11.25 13.46
12/20/2021 5:15:00 AM 1.02 33.836 0.072 7.13 11.16 13.46
12/20/2021 5:30:00 AM 1.01 33.818 0.071 7.12 11.07 13.47
12/20/2021 5:45:00 AM 1.01 33.818 0.071 7.09 11.37 13.46
12/20/2021 6:00:00 AM 1.01 33.818 0.071 7.1 11.31 13.46
12/20/2021 6:15:00 AM 1 33.8 0.071 7.09 10.97 13.48
12/20/2021 6:30:00 AM 1 33.8 0.071 7.11 11.17 13.47
12/20/2021 6:45:00 AM 0.98 33.764 0.071 7.09 11.24 13.46
12/20/2021 7:00:00 AM 1 33.8 0.07 7.09 11.31 13.48
12/20/2021 7:15:00 AM 1 33.8 0.07 7.08 11.02 13.46
12/20/2021 7:30:00 AM 1.01 33.818 0.07 7.09 10.99 13.45
12/20/2021 7:45:00 AM 1.03 33.854 0.07 7.11 11.18 13.45
12/20/2021 8:00:00 AM 1.06 33.908 0.07 7.11 10.99 13.44
12/20/2021 8:15:00 AM 1.08 33.944 0.07 7.11 11.03 13.44
12/20/2021 8:30:00 AM 1.1 33.98 0.07 7.1 10.89 13.43
12/20/2021 8:45:00 AM 1.12 34.016 0.07 7.12 11.01 13.43
12/20/2021 9:00:00 AM 1.16 34.088 0.07 7.12 11.07 13.43
12/20/2021 9:15:00 AM 1.22 34.196 0.07 7.13 11.06 13.42
12/20/2021 9:30:00 AM 1.27 34.286 0.07 7.13 11.04 13.43
12/20/2021 9:45:00 AM 1.31 34.358 0.07 7.15 11.18 13.44
12/20/2021 10:00:00 AM 1.36 34.448 0.07 7.13 11.01 13.45
12/20/2021 10:15:00 AM 1.43 34.574 0.07 7.14 11.16 13.46
12/20/2021 10:30:00 AM 1.49 34.682 0.07 7.14 11.29 13.48
12/20/2021 10:45:00 AM 1.58 34.844 0.07 7.14 10.9 13.49
12/20/2021 11:00:00 AM 1.66 34.988 0.07 7.15 11 13.51
12/20/2021 11:15:00 AM 1.74 35.132 0.07 7.14 11.17 13.53
12/20/2021 11:30:00 AM 1.81 35.258 0.07 7.15 11.06 13.54
12/20/2021 11:45:00 AM 1.87 35.366 0.07 7.15 11.02 13.56
12/20/2021 12:00:00 PM 1.93 35.474 0.069 7.16 11.08 13.59
12/20/2021 12:15:00 PM 1.99 35.582 0.07 7.15 10.98 13.59
12/20/2021 12:30:00 PM 2.04 35.672 0.07 7.16 10.96 13.61
12/20/2021 12:45:00 PM 2.09 35.762 0.07 7.15 10.98 13.63
12/20/2021 1:00:00 PM 2.1 35.78 0.07 7.15 11.08 13.64
12/20/2021 1:15:00 PM 2.12 35.816 0.069 7.17 11.22 13.65
12/20/2021 1:30:00 PM 2.15 35.87 0.069 7.18 11.03 13.66
12/20/2021 1:45:00 PM 2.21 35.978 0.07 7.18 11.13 13.67
12/20/2021 2:00:00 PM 2.27 36.086 0.07 7.17 11.25 13.68
12/20/2021 2:15:00 PM 2.33 36.194 0.07 7.16 11.57 13.68
12/20/2021 2:30:00 PM 2.36 36.248 0.07 7.18 11.4 13.69
12/20/2021 2:45:00 PM 2.38 36.284 0.07 7.18 11.36 13.69
12/20/2021 3:00:00 PM 2.39 36.302 0.07 7.17 11.56 13.69
12/20/2021 3:15:00 PM 2.39 36.302 0.07 7.17 11.56 13.68
12/20/2021 3:30:00 PM 2.39 36.302 0.07 7.16 11.43 13.69
12/20/2021 3:45:00 PM 2.38 36.284 0.07 7.18 11.25 13.69
12/20/2021 4:00:00 PM 2.38 36.284 0.07 7.17 11.16 13.69
12/20/2021 4:15:00 PM 2.37 36.266 0.07 7.17 11.11 13.69
12/20/2021 4:30:00 PM 2.36 36.248 0.069 7.19 11.35 13.68
12/20/2021 4:45:00 PM 2.34 36.212 0.07 7.18 11.29 13.67
12/20/2021 5:00:00 PM 2.3 36.14 0.069 7.17 11.13 13.66
12/20/2021 5:15:00 PM 2.26 36.068 0.07 7.15 11.05 13.64
12/20/2021 5:30:00 PM 2.22 35.996 0.07 7.17 11.47 13.63
12/20/2021 5:45:00 PM 2.19 35.942 0.07 7.18 11.26 13.61
12/20/2021 6:00:00 PM 2.17 35.906 0.07 7.15 11.39 13.59
12/20/2021 6:15:00 PM 2.14 35.852 0.07 7.17 11.32 13.56
12/20/2021 6:30:00 PM 2.11 35.798 0.07 7.14 11.31 13.54
12/20/2021 6:45:00 PM 2.08 35.744 0.07 7.14 11.3 13.53
12/20/2021 7:00:00 PM 2.04 35.672 0.07 7.14 11.69 13.51
12/20/2021 7:15:00 PM 2 35.6 0.07 7.14 11.33 13.49
12/20/2021 7:30:00 PM 1.96 35.528 0.07 7.14 11.96 13.47
12/20/2021 7:45:00 PM 1.91 35.438 0.07 7.13 12.06 13.46
12/20/2021 8:00:00 PM 1.88 35.384 0.07 7.13 12.28 13.45
12/20/2021 8:15:00 PM 1.84 35.312 0.07 7.13 11.97 13.43
12/20/2021 8:30:00 PM 1.8 35.24 0.07 7.15 12.45 13.41
12/20/2021 8:45:00 PM 1.77 35.186 0.07 7.14 11.53 13.4
12/20/2021 9:00:00 PM 1.74 35.132 0.07 7.14 11.37 13.38
12/20/2021 9:15:00 PM 1.71 35.078 0.07 7.12 11.28 13.37
12/20/2021 9:30:00 PM 1.69 35.042 0.07 7.12 11.31 13.36
12/20/2021 9:45:00 PM 1.66 34.988 0.07 7.12 11.48 13.35
12/20/2021 10:00:00 PM 1.64 34.952 0.07 7.12 11.51 13.34
12/20/2021 10:15:00 PM 1.61 34.898 0.07 7.13 11.61 13.33
12/20/2021 10:30:00 PM 1.59 34.862 0.07 7.11 11.63 13.32
12/20/2021 10:45:00 PM 1.57 34.826 0.07 7.11 11.98 13.31
12/20/2021 11:00:00 PM 1.56 34.808 0.07 7.11 12.01 13.3
12/20/2021 11:15:00 PM 1.54 34.772 0.07 7.1 12.23 13.3
12/20/2021 11:30:00 PM 1.53 34.754 0.07 7.1 12.12 13.29
12/20/2021 11:45:00 PM 1.52 34.736 0.07 7.1 12.14 13.29
12/21/2021 12:00:00 AM 1.49 34.682 0.07 7.09 12.4 13.28
12/21/2021 12:15:00 AM 1.48 34.664 0.07 7.1 12.38 13.28
12/21/2021 12:30:00 AM 1.47 34.646 0.07 7.11 13.03 13.27
12/21/2021 12:45:00 AM 1.47 34.646 0.07 7.09 12.77 13.27
12/21/2021 1:00:00 AM 1.47 34.646 0.07 7.12 12.54 13.27
12/21/2021 1:15:00 AM 1.47 34.646 0.07 7.11 12.53 13.26
12/21/2021 1:30:00 AM 1.45 34.61 0.07 7.11 12.86 13.26
12/21/2021 1:45:00 AM 1.44 34.592 0.07 7.1 13.06 13.25
12/21/2021 2:00:00 AM 1.43 34.574 0.07 7.12 12.86 13.25
12/21/2021 2:15:00 AM 1.42 34.556 0.07 7.08 13.53 13.26
12/21/2021 2:30:00 AM 1.42 34.556 0.07 7.09 12.86 13.25
12/21/2021 2:45:00 AM 1.41 34.538 0.07 7.09 12.43 13.25
12/21/2021 3:00:00 AM 1.4 34.52 0.07 7.09 12.37 13.25
12/21/2021 3:15:00 AM 1.39 34.502 0.07 7.08 12.6 13.25
12/21/2021 3:30:00 AM 1.4 34.52 0.07 7.11 12.41 13.25
12/21/2021 3:45:00 AM 1.39 34.502 0.07 7.11 12.63 13.25
12/21/2021 4:00:00 AM 1.39 34.502 0.07 7.1 14.11 13.24
12/21/2021 4:15:00 AM 1.39 34.502 0.07 7.08 12.97 13.24
12/21/2021 4:30:00 AM 1.39 34.502 0.07 7.1 12.73 13.24
12/21/2021 4:45:00 AM 1.38 34.484 0.071 7.1 12.62 13.24
12/21/2021 5:00:00 AM 1.38 34.484 0.071 7.1 12.45 13.24
12/21/2021 5:15:00 AM 1.38 34.484 0.07 7.09 12.57 13.23
12/21/2021 5:30:00 AM 1.39 34.502 0.07 7.08 12.51 13.24
12/21/2021 5:45:00 AM 1.38 34.484 0.07 7.08 12.27 13.23
12/21/2021 6:00:00 AM 1.38 34.484 0.07 7.08 12.37 13.23
12/21/2021 6:15:00 AM 1.38 34.484 0.07 7.09 12.42 13.22
12/21/2021 6:30:00 AM 1.39 34.502 0.07 7.09 13.04 13.22
12/21/2021 6:45:00 AM 1.4 34.52 0.07 7.1 12.04 13.22
12/21/2021 7:00:00 AM 1.41 34.538 0.071 7.09 11.98 13.21
12/21/2021 7:15:00 AM 1.43 34.574 0.071 7.09 12.12 13.21
12/21/2021 7:30:00 AM 1.44 34.592 0.071 7.09 12.11 13.21
12/21/2021 7:45:00 AM 1.47 34.646 0.071 7.1 11.95 13.2
12/21/2021 8:00:00 AM 1.49 34.682 0.071 7.07 11.78 13.19
12/21/2021 8:15:00 AM 1.5 34.7 0.071 7.09 11.69 13.2
12/21/2021 8:30:00 AM 1.5 34.7 0.07 7.1 11.61 13.2
12/21/2021 8:45:00 AM 1.52 34.736 0.071 7.08 11.74 13.2
12/21/2021 9:00:00 AM 1.53 34.754 0.071 7.09 11.58 13.21
12/21/2021 9:15:00 AM 1.55 34.79 0.07 7.09 11.65 13.22
12/21/2021 9:30:00 AM 1.56 34.808 0.071 7.09 12.02 13.23
12/21/2021 9:45:00 AM 1.57 34.826 0.071 7.09 12.27 13.24
12/21/2021 10:00:00 AM 1.61 34.898 0.071 7.1 12.05 13.27
12/21/2021 10:15:00 AM 1.65 34.97 0.07 7.1 12.02 13.28
12/21/2021 10:30:00 AM 1.72 35.096 0.071 7.1 11.59 13.3
12/21/2021 10:45:00 AM 1.81 35.258 0.07 7.13 11.94 13.32
12/21/2021 11:00:00 AM 1.88 35.384 0.071 7.13 11.57 13.34
12/21/2021 11:15:00 AM 1.94 35.492 0.07 7.14 11.57 13.36
12/21/2021 11:30:00 AM 2.01 35.618 0.07 7.11 11.5 13.37
12/21/2021 11:45:00 AM 2.1 35.78 0.071 7.14 11.28 13.4
12/21/2021 12:00:00 PM 2.19 35.942 0.07 7.13 11.39 13.41
12/21/2021 12:15:00 PM 2.29 36.122 0.07 7.13 11.64 13.42
12/21/2021 12:30:00 PM 2.4 36.32 0.07 7.15 11.24 13.43
12/21/2021 12:45:00 PM 2.48 36.464 0.07 7.14 11.29 13.43
12/21/2021 1:00:00 PM 2.53 36.554 0.07 7.14 11.19 13.45
12/21/2021 1:15:00 PM 2.57 36.626 0.07 7.14 11.25 13.46
12/21/2021 1:30:00 PM 2.62 36.716 0.07 7.16 11.48 13.47
12/21/2021 1:45:00 PM 2.64 36.752 0.07 7.12 11.46 13.49
12/21/2021 2:00:00 PM 2.68 36.824 0.069 7.15 11.4 13.5
12/21/2021 2:15:00 PM 2.71 36.878 0.07 7.12 11.31 13.51
12/21/2021 2:30:00 PM 2.74 36.932 0.07 7.14 11.41 13.52
12/21/2021 2:45:00 PM 2.77 36.986 0.07 7.13 11.47 13.54
12/21/2021 3:00:00 PM 2.78 37.004 0.07 7.14 11.54 13.54
12/21/2021 3:15:00 PM 2.79 37.022 0.07 7.14 11.61 13.55
12/21/2021 3:30:00 PM 2.79 37.022 0.07 7.13 11.65 13.56
12/21/2021 3:45:00 PM 2.78 37.004 0.07 7.15 11.46 13.56
12/21/2021 4:00:00 PM 2.79 37.022 0.07 7.16 11.4 13.56
12/21/2021 4:15:00 PM 2.78 37.004 0.07 7.16 11.25 13.57
12/21/2021 4:30:00 PM 2.76 36.968 0.07 7.17 11.65 13.56
12/21/2021 4:45:00 PM 2.73 36.914 0.07 7.16 11.51 13.55
12/21/2021 5:00:00 PM 2.69 36.842 0.07 7.15 11.7 13.54
12/21/2021 5:15:00 PM 2.65 36.77 0.07 7.15 11.56 13.53
12/21/2021 5:30:00 PM 2.61 36.698 0.07 7.13 11.68 13.51
12/21/2021 5:45:00 PM 2.57 36.626 0.07 7.14 11.64 13.49
12/21/2021 6:00:00 PM 2.53 36.554 0.07 7.14 12.15 13.47
12/21/2021 6:15:00 PM 2.48 36.464 0.07 7.12 11.6 13.45
12/21/2021 6:30:00 PM 2.44 36.392 0.07 7.13 11.96 13.43
12/21/2021 6:45:00 PM 2.4 36.32 0.07 7.12 11.97 13.4
12/21/2021 7:00:00 PM 2.36 36.248 0.07 7.13 12.22 13.39
12/21/2021 7:15:00 PM 2.33 36.194 0.07 7.12 12.56 13.37
12/21/2021 7:30:00 PM 2.29 36.122 0.07 7.11 12.92 13.36
12/21/2021 7:45:00 PM 2.24 36.032 0.07 7.11 12.94 13.34
12/21/2021 8:00:00 PM 2.2 35.96 0.071 7.12 12.88 13.32
12/21/2021 8:15:00 PM 2.15 35.87 0.071 7.12 12.65 13.31
12/21/2021 8:30:00 PM 2.1 35.78 0.071 7.12 12.95 13.31
12/21/2021 8:45:00 PM 2.05 35.69 0.07 7.11 13.08 13.29
12/21/2021 9:00:00 PM 2.01 35.618 0.071 7.12 13 13.28
12/21/2021 9:15:00 PM 1.98 35.564 0.071 7.11 12.72 13.27
12/21/2021 9:30:00 PM 1.95 35.51 0.07 7.13 13 13.25
12/21/2021 9:45:00 PM 1.92 35.456 0.071 7.11 12.92 13.23
12/21/2021 10:00:00 PM 1.88 35.384 0.071 7.11 12.89 13.22
12/21/2021 10:15:00 PM 1.84 35.312 0.071 7.1 13.8 13.21
12/21/2021 10:30:00 PM 1.82 35.276 0.071 7.11 13.34 13.2
12/21/2021 10:45:00 PM 1.8 35.24 0.071 7.1 13.66 13.19
12/21/2021 11:00:00 PM 1.78 35.204 0.071 7.09 13.96 13.17
12/21/2021 11:15:00 PM 1.76 35.168 0.071 7.1 14.55 13.17
12/21/2021 11:30:00 PM 1.74 35.132 0.071 7.08 14.39 13.15
12/21/2021 11:45:00 PM 1.74 35.132 0.071 7.11 14.36 13.15
12/22/2021 12:00:00 AM 1.74 35.132 0.071 7.1 15.04 13.15
12/22/2021 12:15:00 AM 1.74 35.132 0.07 7.09 14.95 13.13
12/22/2021 12:30:00 AM 1.73 35.114 0.071 7.09 14.61 13.13
12/22/2021 12:45:00 AM 1.74 35.132 0.071 7.1 13.98 13.12
12/22/2021 1:00:00 AM 1.76 35.168 0.071 7.09 14.08 13.13
12/22/2021 1:15:00 AM 1.78 35.204 0.071 7.11 13.77 13.12
12/22/2021 1:30:00 AM 1.79 35.222 0.071 7.09 14.04 13.12
12/22/2021 1:45:00 AM 1.82 35.276 0.071 7.11 14.31 13.12
12/22/2021 2:00:00 AM 1.84 35.312 0.071 7.1 14.2 13.11
12/22/2021 2:15:00 AM 1.87 35.366 0.071 7.1 14.12 13.09
12/22/2021 2:30:00 AM 1.88 35.384 0.07 7.08 14.38 13.09
12/22/2021 2:45:00 AM 1.91 35.438 0.071 7.1 14.15 13.09
12/22/2021 3:00:00 AM 1.91 35.438 0.071 7.08 14.04 13.07
12/22/2021 3:15:00 AM 1.92 35.456 0.07 7.07 14.02 13.06
12/22/2021 3:30:00 AM 1.92 35.456 0.071 7.09 14.21 13.07
12/22/2021 3:45:00 AM 1.93 35.474 0.071 7.08 14.17 13.07
12/22/2021 4:00:00 AM 1.93 35.474 0.071 7.08 13.73 13.06
12/22/2021 4:15:00 AM 1.93 35.474 0.07 7.09 13.7 13.07
12/22/2021 4:30:00 AM 1.92 35.456 0.071 7.09 13.94 13.06
12/22/2021 4:45:00 AM 1.92 35.456 0.071 7.07 13.36 13.06
12/22/2021 5:00:00 AM 1.91 35.438 0.071 7.06 13.25 13.05
12/22/2021 5:15:00 AM 1.9 35.42 0.071 7.07 12.96 13.05
12/22/2021 5:30:00 AM 1.89 35.402 0.071 7.06 13.6 13.05
12/22/2021 5:45:00 AM 1.87 35.366 0.071 7.07 13.75 13.04
12/22/2021 6:00:00 AM 1.85 35.33 0.071 7.07 13.38 13.04
12/22/2021 6:15:00 AM 1.84 35.312 0.071 7.07 13.49 13.04
12/22/2021 6:30:00 AM 1.83 35.294 0.071 7.07 13.58 13.03
12/22/2021 6:45:00 AM 1.82 35.276 0.071 7.07 13.17 13.04
12/22/2021 7:00:00 AM 1.8 35.24 0.071 7.06 13.15 13.03
12/22/2021 7:15:00 AM 1.78 35.204 0.07 7.06 13.34 13.03
12/22/2021 7:30:00 AM 1.76 35.168 0.071 7.06 12.69 13.04
12/22/2021 7:45:00 AM 1.74 35.132 0.071 7.06 13.31 13.04
12/22/2021 8:00:00 AM 1.72 35.096 0.071 7.06 12.65 13.04
12/22/2021 8:15:00 AM 1.7 35.06 0.071 7.06 12.44 13.04
12/22/2021 8:30:00 AM 1.68 35.024 0.071 7.05 12.29 13.04
12/22/2021 8:45:00 AM 1.68 35.024 0.071 7.05 12.03 13.05
12/22/2021 9:00:00 AM 1.68 35.024 0.071 7.05 12.18 13.06
12/22/2021 9:15:00 AM 1.69 35.042 0.071 7.07 12.64 13.07
12/22/2021 9:30:00 AM 1.72 35.096 0.071 7.08 12.8 13.08
12/22/2021 9:45:00 AM 1.74 35.132 0.071 7.1 12.62 13.09
12/22/2021 10:00:00 AM 1.77 35.186 0.071 7.07 12.79 13.11
12/22/2021 10:15:00 AM 1.81 35.258 0.071 7.09 12.76 13.12
12/22/2021 10:30:00 AM 1.84 35.312 0.07 7.11 13 13.16
12/22/2021 10:45:00 AM 1.88 35.384 0.071 7.09 13.03 13.18
12/22/2021 11:00:00 AM 1.96 35.528 0.07 7.13 12.65 13.21
12/22/2021 11:15:00 AM 2.07 35.726 0.07 7.11 12.56 13.22
12/22/2021 11:30:00 AM 2.17 35.906 0.071 7.13 13.13 13.24
12/22/2021 11:45:00 AM 2.29 36.122 0.07 7.14 15.29 13.25
12/22/2021 12:00:00 PM 2.38 36.284 0.07 7.13 13.09 13.26
12/22/2021 12:15:00 PM 2.41 36.338 0.07 7.13 13.76 13.24
12/22/2021 12:30:00 PM 2.43 36.374 0.071 7.13 14.95 13.24
12/22/2021 12:45:00 PM 2.45 36.41 0.07 7.14 14.96 13.24
12/22/2021 1:00:00 PM 2.47 36.446 0.07 7.15 15.67 13.24
12/22/2021 1:15:00 PM 2.52 36.536 0.07 7.14 15.06 13.23
12/22/2021 1:30:00 PM 2.57 36.626 0.07 7.14 15.99 13.23
12/22/2021 1:45:00 PM 2.59 36.662 0.07 7.16 16.1 13.22
12/22/2021 2:00:00 PM 2.6 36.68 0.07 7.16 15.42 13.24
12/22/2021 2:15:00 PM 2.53 36.554 0.07 7.15 16.06 13.23
12/22/2021 2:30:00 PM 2.42 36.356 0.07 7.13 16.16 13.24
12/22/2021 2:45:00 PM 2.36 36.248 0.07 7.15 16.26 13.24
12/22/2021 3:00:00 PM 2.32 36.176 0.07 7.16 15.52 13.27
12/22/2021 3:15:00 PM 2.29 36.122 0.07 7.16 15.74 13.28
12/22/2021 3:30:00 PM 2.29 36.122 0.07 7.16 15.58 13.28
12/22/2021 3:45:00 PM 2.28 36.104 0.07 7.16 16.02 13.29
12/22/2021 4:00:00 PM 2.24 36.032 0.07 7.18 16.75 13.28
12/22/2021 4:15:00 PM 2.18 35.924 0.07 7.16 16.43 13.29
12/22/2021 4:30:00 PM 2.11 35.798 0.07 7.17 17.18 13.3
12/22/2021 4:45:00 PM 2.07 35.726 0.071 7.16 16.85 13.3
12/22/2021 5:00:00 PM 2.01 35.618 0.071 7.18 18.24 13.3
12/22/2021 5:15:00 PM 1.96 35.528 0.07 7.19 16.75 13.31
12/22/2021 5:30:00 PM 1.93 35.474 0.071 7.17 16.9 13.29
12/22/2021 5:45:00 PM 1.85 35.33 0.07 7.18 19.28 13.31
12/22/2021 6:00:00 PM 1.8 35.24 0.071 7.17 17.31 13.3
12/22/2021 6:15:00 PM 1.72 35.096 0.071 7.17 17.02 13.3
12/22/2021 6:30:00 PM 1.67 35.006 0.071 7.17 30.46 13.3
12/22/2021 6:45:00 PM 1.62 34.916 0.071 7.16 18.04 13.29
12/22/2021 7:00:00 PM 1.58 34.844 0.071 7.18 38.14 13.29
12/22/2021 7:15:00 PM 1.53 34.754 0.071 7.16 18.34 13.29
12/22/2021 7:30:00 PM 1.5 34.7 0.071 7.17 17.46 13.28
12/22/2021 7:45:00 PM 1.45 34.61 0.071 7.17 17.32 13.29
12/22/2021 8:00:00 PM 1.39 34.502 0.071 7.16 17.81 13.31
12/22/2021 8:15:00 PM 1.34 34.412 0.071 7.15 18.11 13.31
12/22/2021 8:30:00 PM 1.32 34.376 0.072 7.16 18.04 13.32
12/22/2021 8:45:00 PM 1.28 34.304 0.071 7.16 20.14 13.32
12/22/2021 9:00:00 PM 1.24 34.232 0.071 7.16 18.77 13.32
12/22/2021 9:15:00 PM 1.19 34.142 0.072 7.16 15.76 13.33
12/22/2021 9:30:00 PM 1.16 34.088 0.072 7.17 16.58 13.33
12/22/2021 9:45:00 PM 1.1 33.98 0.071 7.15 17.94 13.34
12/22/2021 10:00:00 PM 1.04 33.872 0.072 7.17 17.28 13.35
12/22/2021 10:15:00 PM 1 33.8 0.072 7.16 17.32 13.35
12/22/2021 10:30:00 PM 0.96 33.728 0.072 7.15 16.75 13.36
12/22/2021 10:45:00 PM 0.93 33.674 0.072 7.15 17.01 13.37
12/22/2021 11:00:00 PM 0.9 33.62 0.072 7.14 16.87 13.38
12/22/2021 11:15:00 PM 0.87 33.566 0.072 7.16 17.04 13.37
12/22/2021 11:30:00 PM 0.87 33.566 0.072 7.15 17.35 13.38
12/22/2021 11:45:00 PM 0.87 33.566 0.071 7.16 16.5 13.37
12/23/2021 12:00:00 AM 0.88 33.584 0.071 7.17 17.19 13.37
12/23/2021 12:15:00 AM 0.87 33.566 0.072 7.17 16.91 13.36
12/23/2021 12:30:00 AM 0.86 33.548 0.072 7.14 18.39 13.36
12/23/2021 12:45:00 AM 0.87 33.566 0.072 7.17 17.21 13.35
12/23/2021 1:00:00 AM 0.87 33.566 0.072 7.14 16.82 13.35
12/23/2021 1:15:00 AM 0.87 33.566 0.072 7.17 16.36 13.36
12/23/2021 1:30:00 AM 0.86 33.548 0.072 7.15 16.82 13.34
12/23/2021 1:45:00 AM 0.89 33.602 0.071 7.17 15.92 13.34
12/23/2021 2:00:00 AM 0.9 33.62 0.072 7.15 15.69 13.34
12/23/2021 2:15:00 AM 0.9 33.62 0.071 7.18 15.43 13.34
12/23/2021 2:30:00 AM 0.91 33.638 0.072 7.16 15.82 13.34
12/23/2021 2:45:00 AM 0.91 33.638 0.072 7.16 16.18 13.35
12/23/2021 3:00:00 AM 0.91 33.638 0.071 7.14 15.28 13.34
12/23/2021 3:15:00 AM 0.93 33.674 0.072 7.16 15.85 13.33
12/23/2021 3:30:00 AM 0.94 33.692 0.072 7.13 17.68 13.33
12/23/2021 3:45:00 AM 0.95 33.71 0.072 7.13 14.96 13.33
12/23/2021 4:00:00 AM 0.97 33.746 0.072 7.13 14.8 13.32
12/23/2021 4:15:00 AM 0.98 33.764 0.072 7.16 15.22 13.31
12/23/2021 4:30:00 AM 0.98 33.764 0.071 7.14 16.36 13.31
12/23/2021 4:45:00 AM 0.99 33.782 0.072 7.13 15.15 13.3
12/23/2021 5:00:00 AM 0.99 33.782 0.071 7.13 15.36 13.3
12/23/2021 5:15:00 AM 1 33.8 0.071 7.15 14.99 13.3
12/23/2021 5:30:00 AM 0.98 33.764 0.072 7.13 15.76 13.3
12/23/2021 5:45:00 AM 1 33.8 0.072 7.13 14.86 13.31
12/23/2021 6:00:00 AM 1 33.8 0.072 7.12 14.5 13.31
12/23/2021 6:15:00 AM 0.97 33.746 0.071 7.13 14.42 13.31
12/23/2021 6:30:00 AM 0.97 33.746 0.072 7.12 14.9 13.32
12/23/2021 6:45:00 AM 0.95 33.71 0.072 7.13 14.4 13.31
12/23/2021 7:00:00 AM 0.97 33.746 0.072 7.12 13.98 13.32
12/23/2021 7:15:00 AM 0.97 33.746 0.072 7.13 14.35 13.31
12/23/2021 7:30:00 AM 0.97 33.746 0.072 7.11 14.02 13.32
12/23/2021 7:45:00 AM 0.98 33.764 0.072 7.13 14.7 13.31
12/23/2021 8:00:00 AM 1 33.8 0.071 7.11 13.62 13.31
12/23/2021 8:15:00 AM 1.04 33.872 0.072 7.11 13.7 13.33
12/23/2021 8:30:00 AM 1.04 33.872 0.072 7.11 13.9 13.31
12/23/2021 8:45:00 AM 1.07 33.926 0.071 7.11 14.4 13.32
12/23/2021 9:00:00 AM 1.1 33.98 0.071 7.13 14.14 13.31
12/23/2021 9:15:00 AM 1.14 34.052 0.072 7.11 14.25 13.31
12/23/2021 9:30:00 AM 1.2 34.16 0.072 7.13 14.29 13.32
12/23/2021 9:45:00 AM 1.27 34.286 0.072 7.11 14.46 13.33
12/23/2021 10:00:00 AM 1.32 34.376 0.071 7.14 14.58 13.34
12/23/2021 10:15:00 AM 1.38 34.484 0.072 7.13 14.98 13.35
12/23/2021 10:30:00 AM 1.45 34.61 0.071 7.14 15.54 13.38
12/23/2021 10:45:00 AM 1.51 34.718 0.071 7.12 15.3 13.39
12/23/2021 11:00:00 AM 1.58 34.844 0.072 7.13 14.74 13.4
12/23/2021 11:15:00 AM 1.61 34.898 0.071 7.14 14.99 13.41
12/23/2021 11:30:00 AM 1.65 34.97 0.071 7.13 14.68 13.43
12/23/2021 11:45:00 AM 1.71 35.078 0.071 7.14 14.32 13.45
12/23/2021 12:00:00 PM 1.76 35.168 0.071 7.13 14.44 13.46
12/23/2021 12:15:00 PM 1.81 35.258 0.071 7.14 14.98 13.48
12/23/2021 12:30:00 PM 1.86 35.348 0.071 7.15 15.06 13.49
12/23/2021 12:45:00 PM 1.91 35.438 0.071 7.13 16.08 13.49
12/23/2021 1:00:00 PM 1.94 35.492 0.071 7.15 16.14 13.48
12/23/2021 1:15:00 PM 1.98 35.564 0.071 7.13 16.2 13.5
12/23/2021 1:30:00 PM 2 35.6 0.071 7.13 16.23 13.5
12/23/2021 1:45:00 PM 2.02 35.636 0.071 7.13 16.16 13.52
12/23/2021 2:00:00 PM 2.04 35.672 0.071 7.13 16.78 13.53
12/23/2021 2:15:00 PM 2.05 35.69 0.071 7.12 16.34 13.54
12/23/2021 2:30:00 PM 2.06 35.708 0.071 7.13 16.01 13.54
12/23/2021 2:45:00 PM 2.08 35.744 0.071 7.15 15.72 13.55
12/23/2021 3:00:00 PM 2.09 35.762 0.071 7.15 15.52 13.58
12/23/2021 3:15:00 PM 2.1 35.78 0.071 7.16 15.69 13.58
12/23/2021 3:30:00 PM 2.12 35.816 0.071 7.15 15.83 13.6
12/23/2021 3:45:00 PM 2.16 35.888 0.07 7.15 15.45 13.6
12/23/2021 4:00:00 PM 2.2 35.96 0.071 7.16 15.6 13.6
12/23/2021 4:15:00 PM 2.2 35.96 0.071 7.17 15.58 13.61
12/23/2021 4:30:00 PM 2.17 35.906 0.071 7.16 16 13.61
12/23/2021 4:45:00 PM 2.1 35.78 0.071 7.15 15.46 13.61
12/23/2021 5:00:00 PM 2.04 35.672 0.071 7.15 15.89 13.62
12/23/2021 5:15:00 PM 2.01 35.618 0.071 7.17 15.69 13.63
12/23/2021 5:30:00 PM 1.97 35.546 0.071 7.14 15.47 13.62
12/23/2021 5:45:00 PM 1.93 35.474 0.071 7.15 15.52 13.62
12/23/2021 6:00:00 PM 1.91 35.438 0.071 7.14 15.67 13.61
12/23/2021 6:15:00 PM 1.89 35.402 0.071 7.15 15.94 13.6
12/23/2021 6:30:00 PM 1.89 35.402 0.071 7.16 16.53 13.59
12/23/2021 6:45:00 PM 1.89 35.402 0.071 7.15 16.06 13.57
12/23/2021 7:00:00 PM 1.89 35.402 0.071 7.15 16.25 13.55
12/23/2021 7:15:00 PM 1.89 35.402 0.071 7.14 15.53 13.55
12/23/2021 7:30:00 PM 1.89 35.402 0.071 7.14 15.26 13.54
12/23/2021 7:45:00 PM 1.87 35.366 0.071 7.11 15.51 13.52
12/23/2021 8:00:00 PM 1.85 35.33 0.071 7.11 15.57 13.51
12/23/2021 8:15:00 PM 1.84 35.312 0.072 7.13 15.44 13.49
12/23/2021 8:30:00 PM 1.83 35.294 0.071 7.13 15.24 13.48
12/23/2021 8:45:00 PM 1.82 35.276 0.071 7.13 15.01 13.46
12/23/2021 9:00:00 PM 1.79 35.222 0.071 7.12 14.9 13.45
12/23/2021 9:15:00 PM 1.78 35.204 0.071 7.1 14.75 13.43
12/23/2021 9:30:00 PM 1.76 35.168 0.072 7.13 15.08 13.42
12/23/2021 9:45:00 PM 1.74 35.132 0.071 7.13 16.82 13.41
12/23/2021 10:00:00 PM 1.73 35.114 0.072 7.12 14.9 13.4
12/23/2021 10:15:00 PM 1.72 35.096 0.071 7.11 15.16 13.38
12/23/2021 10:30:00 PM 1.71 35.078 0.071 7.08 15.39 13.36
12/23/2021 10:45:00 PM 1.69 35.042 0.071 7.1 15.26 13.35
12/23/2021 11:00:00 PM 1.67 35.006 0.072 7.09 15.98 13.34
12/23/2021 11:15:00 PM 1.64 34.952 0.071 7.1 15.96 13.33
12/23/2021 11:30:00 PM 1.61 34.898 0.071 7.08 44.3 13.32
12/23/2021 11:45:00 PM 1.6 34.88 0.071 7.09 18.48 13.3
12/24/2021 12:00:00 AM 1.58 34.844 0.072 7.1 17.35 13.3
12/24/2021 12:15:00 AM 1.57 34.826 0.071 7.09 18.53 13.28
12/24/2021 12:30:00 AM 1.57 34.826 0.072 7.09 17.89 13.28
12/24/2021 12:45:00 AM 1.57 34.826 0.071 7.09 17.28 13.26
12/24/2021 1:00:00 AM 1.57 34.826 0.072 7.08 17.09 13.27
12/24/2021 1:15:00 AM 1.56 34.808 0.071 7.08 16.87 13.26
12/24/2021 1:30:00 AM 1.53 34.754 0.072 7.08 17 13.25
12/24/2021 1:45:00 AM 1.51 34.718 0.072 7.07 17.22 13.25
12/24/2021 2:00:00 AM 1.49 34.682 0.072 7.08 17.02 13.25
12/24/2021 2:15:00 AM 1.47 34.646 0.072 7.07 17.32 13.24
12/24/2021 2:30:00 AM 1.45 34.61 0.072 7.07 17.32 13.25
12/24/2021 2:45:00 AM 1.41 34.538 0.071 7.06 17.63 13.23
12/24/2021 3:00:00 AM 1.37 34.466 0.071 7.08 17.17 13.22
12/24/2021 3:15:00 AM 1.35 34.43 0.071 7.07 17.42 13.24
12/24/2021 3:30:00 AM 1.3 34.34 0.072 7.08 17.47 13.23
12/24/2021 3:45:00 AM 1.25 34.25 0.072 7.07 17.99 13.23
12/24/2021 4:00:00 AM 1.22 34.196 0.072 7.07 18.24 13.22
12/24/2021 4:15:00 AM 1.18 34.124 0.072 7.07 17.19 13.22
12/24/2021 4:30:00 AM 1.15 34.07 0.072 7.09 17.25 13.23
12/24/2021 4:45:00 AM 1.12 34.016 0.072 7.08 16.75 13.23
12/24/2021 5:00:00 AM 1.1 33.98 0.072 7.06 16.61 13.23
12/24/2021 5:15:00 AM 1.1 33.98 0.072 7.07 17.12 13.22
12/24/2021 5:30:00 AM 1.13 34.034 0.072 7.08 16.4 13.23
12/24/2021 5:45:00 AM 1.17 34.106 0.072 7.08 16.96 13.24
12/24/2021 6:00:00 AM 1.19 34.142 0.072 7.09 16.77 13.24
12/24/2021 6:15:00 AM 1.21 34.178 0.072 7.08 16.62 13.24
12/24/2021 6:30:00 AM 1.23 34.214 0.072 7.11 17.37 13.23
12/24/2021 6:45:00 AM 1.24 34.232 0.072 7.09 16 13.24
12/24/2021 7:00:00 AM 1.24 34.232 0.072 7.09 15.75 13.23
12/24/2021 7:15:00 AM 1.24 34.232 0.072 7.09 15.47 13.23
12/24/2021 7:30:00 AM 1.24 34.232 0.072 7.08 15.27 13.22
12/24/2021 7:45:00 AM 1.26 34.268 0.072 7.09 15.12 13.23
12/24/2021 8:00:00 AM 1.27 34.286 0.072 7.09 14.93 13.23
12/24/2021 8:15:00 AM 1.26 34.268 0.072 7.07 15 13.23
12/24/2021 8:30:00 AM 1.27 34.286 0.072 7.09 15.32 13.23
12/24/2021 8:45:00 AM 1.29 34.322 0.072 7.07 15.17 13.23
12/24/2021 9:00:00 AM 1.3 34.34 0.072 7.07 15 13.22
12/24/2021 9:15:00 AM 1.33 34.394 0.072 7.08 14.97 13.23
12/24/2021 9:30:00 AM 1.32 34.376 0.072 7.06 15.1 13.21
12/24/2021 9:45:00 AM 1.36 34.448 0.072 7.1 15.42 13.23
12/24/2021 10:00:00 AM 1.4 34.52 0.072 7.08 15.38 13.24
12/24/2021 10:15:00 AM 1.45 34.61 0.072 7.08 15.07 13.26
12/24/2021 10:30:00 AM 1.5 34.7 0.072 7.1 14.89 13.27
12/24/2021 10:45:00 AM 1.54 34.772 0.072 7.08 15.46 13.28
12/24/2021 11:00:00 AM 1.59 34.862 0.072 7.08 14.99 13.3
12/24/2021 11:15:00 AM 1.64 34.952 0.072 7.08 15.1 13.31
12/24/2021 11:30:00 AM 1.71 35.078 0.072 7.11 15.44 13.32
12/24/2021 11:45:00 AM 1.8 35.24 0.072 7.08 14.95 13.33
12/24/2021 12:00:00 PM 1.9 35.42 0.072 7.1 14.97 13.36
12/24/2021 12:15:00 PM 1.97 35.546 0.071 7.1 15.02 13.38
12/24/2021 12:30:00 PM 2.03 35.654 0.072 7.11 14.72 13.4
12/24/2021 12:45:00 PM 2.07 35.726 0.071 7.12 14.44 13.4
12/24/2021 1:00:00 PM 2.13 35.834 0.071 7.09 14.68 13.42
12/24/2021 1:15:00 PM 2.19 35.942 0.071 7.12 14.88 13.43
12/24/2021 1:30:00 PM 2.24 36.032 0.071 7.09 15.17 13.43
12/24/2021 1:45:00 PM 2.28 36.104 0.072 7.11 15.06 13.44
12/24/2021 2:00:00 PM 2.35 36.23 0.071 7.12 15.1 13.46
12/24/2021 2:15:00 PM 2.39 36.302 0.072 7.1 15.51 13.47
12/24/2021 2:30:00 PM 2.41 36.338 0.071 7.11 15.62 13.47
12/24/2021 2:45:00 PM 2.41 36.338 0.071 7.11 15.73 13.49
12/24/2021 3:00:00 PM 2.41 36.338 0.071 7.1 14.86 13.5
12/24/2021 3:15:00 PM 2.4 36.32 0.071 7.12 14.83 13.51
12/24/2021 3:30:00 PM 2.4 36.32 0.071 7.14 15.13 13.53
12/24/2021 3:45:00 PM 2.41 36.338 0.071 7.13 14.5 13.54
12/24/2021 4:00:00 PM 2.42 36.356 0.071 7.13 14.48 13.56
12/24/2021 4:15:00 PM 2.42 36.356 0.071 7.12 14.64 13.55
12/24/2021 4:30:00 PM 2.43 36.374 0.071 7.12 15.2 13.56
12/24/2021 4:45:00 PM 2.42 36.356 0.071 7.12 15.2 13.57
12/24/2021 5:00:00 PM 2.4 36.32 0.071 7.11 16.16 13.57
12/24/2021 5:15:00 PM 2.36 36.248 0.071 7.14 16.81 13.56
12/24/2021 5:30:00 PM 2.32 36.176 0.071 7.14 16.27 13.56
12/24/2021 5:45:00 PM 2.28 36.104 0.071 7.12 16.02 13.56
12/24/2021 6:00:00 PM 2.23 36.014 0.071 7.11 15.56 13.56
12/24/2021 6:15:00 PM 2.18 35.924 0.071 7.11 15.71 13.56
12/24/2021 6:30:00 PM 2.14 35.852 0.071 7.1 15.59 13.55
12/24/2021 6:45:00 PM 2.11 35.798 0.072 7.11 15.67 13.54
12/24/2021 7:00:00 PM 2.07 35.726 0.071 7.1 15.41 13.51
12/24/2021 7:15:00 PM 2.04 35.672 0.071 7.1 15.25 13.5
12/24/2021 7:30:00 PM 2.01 35.618 0.072 7.12 15.59 13.48
12/24/2021 7:45:00 PM 1.98 35.564 0.072 7.1 15.65 13.47
12/24/2021 8:00:00 PM 1.95 35.51 0.072 7.11 15.39 13.45
12/24/2021 8:15:00 PM 1.93 35.474 0.071 7.1 15.43 13.44
12/24/2021 8:30:00 PM 1.9 35.42 0.071 7.1 15.28 13.44
12/24/2021 8:45:00 PM 1.89 35.402 0.072 7.1 16.32 13.43
12/24/2021 9:00:00 PM 1.87 35.366 0.072 7.1 16.09 13.41
12/24/2021 9:15:00 PM 1.86 35.348 0.072 7.09 15.69 13.41
12/24/2021 9:30:00 PM 1.85 35.33 0.072 7.07 15.24 13.39
12/24/2021 9:45:00 PM 1.83 35.294 0.072 7.08 15.41 13.38
12/24/2021 10:00:00 PM 1.82 35.276 0.071 7.06 15.23 13.35
12/24/2021 10:15:00 PM 1.8 35.24 0.072 7.08 15.45 13.34
12/24/2021 10:30:00 PM 1.78 35.204 0.072 7.07 16.3 13.33
12/24/2021 10:45:00 PM 1.77 35.186 0.072 7.1 15.44 13.3
12/24/2021 11:00:00 PM 1.76 35.168 0.072 7.08 15.41 13.29
12/24/2021 11:15:00 PM 1.74 35.132 0.072 7.1 15.27 13.28
12/24/2021 11:30:00 PM 1.73 35.114 0.071 7.08 15.6 13.27
12/24/2021 11:45:00 PM 1.72 35.096 0.072 7.08 15.28 13.26
12/25/2021 12:00:00 AM 1.73 35.114 0.072 7.06 15.13 13.25
12/25/2021 12:15:00 AM 1.73 35.114 0.072 7.07 15.05 13.25
12/25/2021 12:30:00 AM 1.73 35.114 0.072 7.07 15.43 13.23
12/25/2021 12:45:00 AM 1.72 35.096 0.071 7.08 15.17 13.23
12/25/2021 1:00:00 AM 1.72 35.096 0.071 7.07 15.86 13.22
12/25/2021 1:15:00 AM 1.71 35.078 0.071 7.07 15.83 13.21
12/25/2021 1:30:00 AM 1.72 35.096 0.072 7.06 15.77 13.2
12/25/2021 1:45:00 AM 1.74 35.132 0.072 7.07 15.6 13.2
12/25/2021 2:00:00 AM 1.74 35.132 0.071 7.08 15.2 13.19
12/25/2021 2:15:00 AM 1.76 35.168 0.072 7.06 15.6 13.18
12/25/2021 2:30:00 AM 1.78 35.204 0.071 7.07 16.06 13.19
12/25/2021 2:45:00 AM 1.78 35.204 0.072 7.06 15.86 13.18
12/25/2021 3:00:00 AM 1.78 35.204 0.072 7.06 15.71 13.16
12/25/2021 3:15:00 AM 1.78 35.204 0.072 7.04 15.71 13.14
12/25/2021 3:30:00 AM 1.8 35.24 0.072 7.05 15.47 13.16
12/25/2021 3:45:00 AM 1.81 35.258 0.072 7.06 15.36 13.15
12/25/2021 4:00:00 AM 1.81 35.258 0.072 7.06 15.51 13.15
12/25/2021 4:15:00 AM 1.82 35.276 0.072 7.05 15.56 13.15
12/25/2021 4:30:00 AM 1.82 35.276 0.072 7.06 15.36 13.15
12/25/2021 4:45:00 AM 1.82 35.276 0.072 7.09 15.17 13.16
12/25/2021 5:00:00 AM 1.83 35.294 0.072 7.06 15.04 13.15
12/25/2021 5:15:00 AM 1.82 35.276 0.071 7.06 15.4 13.14
12/25/2021 5:30:00 AM 1.81 35.258 0.072 7.07 15.58 13.13
12/25/2021 5:45:00 AM 1.81 35.258 0.072 7.08 15.57 13.13
12/25/2021 6:00:00 AM 1.82 35.276 0.071 7.06 15.71 13.13
12/25/2021 6:15:00 AM 1.82 35.276 0.071 7.06 15.15 13.14
12/25/2021 6:30:00 AM 1.83 35.294 0.071 7.08 14.93 13.14
12/25/2021 6:45:00 AM 1.83 35.294 0.071 7.06 14.82 13.14
12/25/2021 7:00:00 AM 1.83 35.294 0.071 7.07 14.63 13.13
12/25/2021 7:15:00 AM 1.84 35.312 0.071 7.06 14.91 13.14
12/25/2021 7:30:00 AM 1.85 35.33 0.071 7.08 14.98 13.12
12/25/2021 7:45:00 AM 1.85 35.33 0.071 7.05 15.07 13.12
12/25/2021 8:00:00 AM 1.85 35.33 0.071 7.07 15.66 13.12
12/25/2021 8:15:00 AM 1.85 35.33 0.071 7.06 16.58 13.1
12/25/2021 8:30:00 AM 1.88 35.384 0.071 7.07 16.59 13.11
12/25/2021 8:45:00 AM 1.88 35.384 0.071 7.06 15.92 13.1
12/25/2021 9:00:00 AM 1.89 35.402 0.071 7.05 15.74 13.1
12/25/2021 9:15:00 AM 1.9 35.42 0.071 7.05 15.66 13.1
12/25/2021 9:30:00 AM 1.91 35.438 0.071 7.08 16 13.1
12/25/2021 9:45:00 AM 1.92 35.456 0.071 7.07 15.85 13.09
12/25/2021 10:00:00 AM 1.93 35.474 0.071 7.07 15.44 13.09
12/25/2021 10:15:00 AM 1.94 35.492 0.071 7.05 15.63 13.08
12/25/2021 10:30:00 AM 1.95 35.51 0.071 7.06 15.44 13.08
12/25/2021 10:45:00 AM 1.98 35.564 0.071 7.08 15.14 13.09
12/25/2021 11:00:00 AM 1.98 35.564 0.071 7.05 15 13.09
12/25/2021 11:15:00 AM 2 35.6 0.071 7.05 14.83 13.09
12/25/2021 11:30:00 AM 2.02 35.636 0.071 7.07 14.86 13.1
12/25/2021 11:45:00 AM 2.05 35.69 0.071 7.07 14.83 13.1
12/25/2021 12:00:00 PM 2.07 35.726 0.071 7.08 14.61 13.11
12/25/2021 12:15:00 PM 2.08 35.744 0.071 7.07 14.81 13.11
12/25/2021 12:30:00 PM 2.1 35.78 0.071 7.07 14.69 13.11
12/25/2021 12:45:00 PM 2.12 35.816 0.071 7.06 14.8 13.11
12/25/2021 1:00:00 PM 2.16 35.888 0.071 7.06 14.63 13.11
12/25/2021 1:15:00 PM 2.19 35.942 0.071 7.05 14.84 13.12
12/25/2021 1:30:00 PM 2.21 35.978 0.072 7.06 14.94 13.13
12/25/2021 1:45:00 PM 2.24 36.032 0.072 7.04 14.83 13.13
12/25/2021 2:00:00 PM 2.26 36.068 0.073 7.05 14.89 13.13
12/25/2021 2:15:00 PM 2.27 36.086 0.073 7.06 14.72 13.15
12/25/2021 2:30:00 PM 2.27 36.086 0.074 7.05 14.67 13.15
12/25/2021 2:45:00 PM 2.27 36.086 0.074 7.03 14.66 13.15
12/25/2021 3:00:00 PM 2.27 36.086 0.074 7.03 14.64 13.14
12/25/2021 3:15:00 PM 2.27 36.086 0.074 7.03 14.97 13.15
12/25/2021 3:30:00 PM 2.27 36.086 0.074 7.02 15 13.16
12/25/2021 3:45:00 PM 2.26 36.068 0.074 7.03 15.39 13.16
12/25/2021 4:00:00 PM 2.26 36.068 0.075 7.03 14.85 13.14
12/25/2021 4:15:00 PM 2.25 36.05 0.075 7.01 14.93 13.13
12/25/2021 4:30:00 PM 2.25 36.05 0.075 7.03 14.91 13.14
12/25/2021 4:45:00 PM 2.25 36.05 0.076 7.01 15.28 13.13
12/25/2021 5:00:00 PM 2.25 36.05 0.076 7.04 15.23 13.12
12/25/2021 5:15:00 PM 2.24 36.032 0.076 7.01 15.6 13.11
12/25/2021 5:30:00 PM 2.23 36.014 0.076 7.01 15.59 13.09
12/25/2021 5:45:00 PM 2.23 36.014 0.076 7.02 15.92 13.08
12/25/2021 6:00:00 PM 2.22 35.996 0.076 7 16.36 13.08
12/25/2021 6:15:00 PM 2.21 35.978 0.075 7.01 16.66 13.08
12/25/2021 6:30:00 PM 2.2 35.96 0.076 7 16.89 13.06
12/25/2021 6:45:00 PM 2.19 35.942 0.076 7.02 16.69 13.06
12/25/2021 7:00:00 PM 2.18 35.924 0.075 7.01 15.97 13.06
12/25/2021 7:15:00 PM 2.18 35.924 0.075 7.03 15.82 13.06
12/25/2021 7:30:00 PM 2.19 35.942 0.075 7.01 15.92 13.05
12/25/2021 7:45:00 PM 2.18 35.924 0.074 7.02 16.21 13.05
12/25/2021 8:00:00 PM 2.17 35.906 0.075 7 16.07 13.04
12/25/2021 8:15:00 PM 2.17 35.906 0.074 7.01 16.14 13.04
12/25/2021 8:30:00 PM 2.16 35.888 0.075 6.99 15.81 13.05
12/25/2021 8:45:00 PM 2.16 35.888 0.074 7.02 15.67 13.04
12/25/2021 9:00:00 PM 2.16 35.888 0.074 7 16.06 13.04
12/25/2021 9:15:00 PM 2.16 35.888 0.074 7 16.9 13.05
12/25/2021 9:30:00 PM 2.17 35.906 0.074 6.99 16.22 13.04
12/25/2021 9:45:00 PM 2.17 35.906 0.074 7.02 16.06 13.06
12/25/2021 10:00:00 PM 2.19 35.942 0.073 7.03 16.85 13.04
12/25/2021 10:15:00 PM 2.2 35.96 0.074 7.01 16.35 13.04
12/25/2021 10:30:00 PM 2.22 35.996 0.073 7 16.39 13.04
12/25/2021 10:45:00 PM 2.24 36.032 0.073 7 16.97 13.04
12/25/2021 11:00:00 PM 2.26 36.068 0.073 7.01 17.34 13.04
12/25/2021 11:15:00 PM 2.28 36.104 0.073 7.01 17.52 13.06
12/25/2021 11:30:00 PM 2.29 36.122 0.073 7.02 16.55 13.06
12/25/2021 11:45:00 PM 2.29 36.122 0.073 7.01 16.68 13.07
12/26/2021 12:00:00 AM 2.28 36.104 0.072 7.03 16.47 13.07
12/26/2021 12:15:00 AM 2.28 36.104 0.073 7.03 16.55 13.07
12/26/2021 12:30:00 AM 2.26 36.068 0.073 7.01 16.99 13.06
12/26/2021 12:45:00 AM 2.27 36.086 0.073 7 16.98 13.07
12/26/2021 1:00:00 AM 2.26 36.068 0.072 7 17.14 13.08
12/26/2021 1:15:00 AM 2.25 36.05 0.073 7.02 17.11 13.07
12/26/2021 1:30:00 AM 2.24 36.032 0.072 7.01 16.75 13.08
12/26/2021 1:45:00 AM 2.23 36.014 0.072 7.01 16.63 13.08
12/26/2021 2:00:00 AM 2.22 35.996 0.072 7.01 16.57 13.1
12/26/2021 2:15:00 AM 2.21 35.978 0.072 7.02 16.7 13.1
12/26/2021 2:30:00 AM 2.21 35.978 0.072 7.04 17.55 13.12
12/26/2021 2:45:00 AM 2.19 35.942 0.072 7.04 16.61 13.11
12/26/2021 3:00:00 AM 2.18 35.924 0.072 7.02 17.07 13.12
12/26/2021 3:15:00 AM 2.17 35.906 0.071 7.01 16.88 13.13
12/26/2021 3:30:00 AM 2.15 35.87 0.071 7 16.94 13.14
12/26/2021 3:45:00 AM 2.13 35.834 0.071 7.01 16.64 13.14
12/26/2021 4:00:00 AM 2.11 35.798 0.071 7.02 16.87 13.15
12/26/2021 4:15:00 AM 2.1 35.78 0.071 7.01 16.67 13.15
12/26/2021 4:30:00 AM 2.07 35.726 0.071 7.04 16.47 13.16
12/26/2021 4:45:00 AM 2.06 35.708 0.071 7.03 16.44 13.16
12/26/2021 5:00:00 AM 2.04 35.672 0.071 7.04 16.47 13.18
12/26/2021 5:15:00 AM 2.03 35.654 0.071 7.01 16.85 13.18
12/26/2021 5:30:00 AM 2.02 35.636 0.071 7.01 16.81 13.18
12/26/2021 5:45:00 AM 2 35.6 0.071 7.03 16.52 13.19
12/26/2021 6:00:00 AM 1.99 35.582 0.071 7.03 16.41 13.2
12/26/2021 6:15:00 AM 1.98 35.564 0.07 7.03 16.65 13.2
12/26/2021 6:30:00 AM 1.96 35.528 0.071 7.02 16.04 13.2
12/26/2021 6:45:00 AM 1.95 35.51 0.071 7.01 16.45 13.21
12/26/2021 7:00:00 AM 1.93 35.474 0.071 7.01 16.12 13.2
12/26/2021 7:15:00 AM 1.92 35.456 0.071 7.02 16.3 13.22
12/26/2021 7:30:00 AM 1.91 35.438 0.07 7.03 15.9 13.22
12/26/2021 7:45:00 AM 1.89 35.402 0.071 7 15.99 13.22
12/26/2021 8:00:00 AM 1.87 35.366 0.07 7.01 15.91 13.23
12/26/2021 8:15:00 AM 1.86 35.348 0.07 7.01 16.42 13.23
12/26/2021 8:30:00 AM 1.86 35.348 0.071 7.02 15.71 13.23
12/26/2021 8:45:00 AM 1.86 35.348 0.071 7.01 15.5 13.24
12/26/2021 9:00:00 AM 1.87 35.366 0.071 7.01 15.67 13.26
12/26/2021 9:15:00 AM 1.9 35.42 0.071 7.02 15.55 13.27
12/26/2021 9:30:00 AM 1.94 35.492 0.071 7.04 15.77 13.28
12/26/2021 9:45:00 AM 1.99 35.582 0.071 7.04 15.82 13.29
12/26/2021 10:00:00 AM 2.05 35.69 0.071 7.04 15.89 13.31
12/26/2021 10:15:00 AM 2.12 35.816 0.071 7.06 15.87 13.32
12/26/2021 10:30:00 AM 2.17 35.906 0.071 7.02 16.1 13.34
12/26/2021 10:45:00 AM 2.23 36.014 0.07 7.06 16.07 13.35
12/26/2021 11:00:00 AM 2.26 36.068 0.071 7.05 16.3 13.36
12/26/2021 11:15:00 AM 2.29 36.122 0.071 7.04 16.17 13.37
12/26/2021 11:30:00 AM 2.31 36.158 0.071 7.07 15.93 13.38
12/26/2021 11:45:00 AM 2.3 36.14 0.071 7.05 15.85 13.4
12/26/2021 12:00:00 PM 2.29 36.122 0.071 7.05 15.55 13.41
12/26/2021 12:15:00 PM 2.27 36.086 0.071 7.05 15.85 13.42
12/26/2021 12:30:00 PM 2.27 36.086 0.07 7.06 16.24 13.43
12/26/2021 12:45:00 PM 2.26 36.068 0.071 7.06 16.73 13.43
12/26/2021 1:00:00 PM 2.26 36.068 0.071 7.07 16.65 13.43
12/26/2021 1:15:00 PM 2.27 36.086 0.071 7.06 16.48 13.45
12/26/2021 1:30:00 PM 2.28 36.104 0.071 7.08 16.3 13.44
12/26/2021 1:45:00 PM 2.28 36.104 0.071 7.05 16.15 13.45
12/26/2021 2:00:00 PM 2.29 36.122 0.071 7.08 16.53 13.45
12/26/2021 2:15:00 PM 2.29 36.122 0.07 7.08 16.49 13.45
12/26/2021 2:30:00 PM 2.29 36.122 0.071 7.06 15.94 13.46
12/26/2021 2:45:00 PM 2.3 36.14 0.07 7.08 15.77 13.46
12/26/2021 3:00:00 PM 2.3 36.14 0.07 7.05 15.8 13.45
12/26/2021 3:15:00 PM 2.31 36.158 0.071 7.06 15.55 13.45
12/26/2021 3:30:00 PM 2.31 36.158 0.07 7.08 15.82 13.45
12/26/2021 3:45:00 PM 2.3 36.14 0.07 7.08 16.06 13.43
12/26/2021 4:00:00 PM 2.3 36.14 0.07 7.05 15.95 13.43
12/26/2021 4:15:00 PM 2.29 36.122 0.07 7.07 15.85 13.43
12/26/2021 4:30:00 PM 2.29 36.122 0.071 7.06 15.83 13.43
12/26/2021 4:45:00 PM 2.27 36.086 0.07 7.06 15.5 13.42
12/26/2021 5:00:00 PM 2.25 36.05 0.071 7.05 15.55 13.41
12/26/2021 5:15:00 PM 2.23 36.014 0.07 7.07 15.83 13.4
12/26/2021 5:30:00 PM 2.21 35.978 0.07 7.04 15.6 13.38
12/26/2021 5:45:00 PM 2.19 35.942 0.07 7.05 16 13.37
12/26/2021 6:00:00 PM 2.16 35.888 0.07 7.03 15.79 13.37
12/26/2021 6:15:00 PM 2.14 35.852 0.071 7.05 15.85 13.35
12/26/2021 6:30:00 PM 2.13 35.834 0.07 7.04 15.72 13.34
12/26/2021 6:45:00 PM 2.12 35.816 0.07 7.05 15.54 13.34
12/26/2021 7:00:00 PM 2.1 35.78 0.07 7.04 15.5 13.33
12/26/2021 7:15:00 PM 2.09 35.762 0.07 7.04 15.75 13.34
12/26/2021 7:30:00 PM 2.07 35.726 0.07 7.03 15.82 13.33
12/26/2021 7:45:00 PM 2.06 35.708 0.07 7.04 16.48 13.33
12/26/2021 8:00:00 PM 2.04 35.672 0.07 7.06 16.22 13.33
12/26/2021 8:15:00 PM 2.04 35.672 0.07 7.04 16.21 13.32
12/26/2021 8:30:00 PM 2.03 35.654 0.07 7.06 15.88 13.32
12/26/2021 8:45:00 PM 2.01 35.618 0.07 7.03 16.59 13.3
12/26/2021 9:00:00 PM 1.99 35.582 0.07 7.05 15.52 13.31
12/26/2021 9:15:00 PM 1.97 35.546 0.07 7.07 15.3 13.31
12/26/2021 9:30:00 PM 1.96 35.528 0.07 7.04 15.28 13.32
12/26/2021 9:45:00 PM 1.94 35.492 0.07 7.05 15.59 13.32
12/26/2021 10:00:00 PM 1.94 35.492 0.07 7.08 15.38 13.31
12/26/2021 10:15:00 PM 1.92 35.456 0.07 7.06 15.56 13.31
12/26/2021 10:30:00 PM 1.92 35.456 0.07 7.05 15.2 13.33
12/26/2021 10:45:00 PM 1.89 35.402 0.069 7.05 15.45 13.33
12/26/2021 11:00:00 PM 1.87 35.366 0.07 7.06 16.2 13.33
12/26/2021 11:15:00 PM 1.84 35.312 0.069 7.06 16.37 13.33
12/26/2021 11:30:00 PM 1.82 35.276 0.07 7.05 16.53 13.34
12/26/2021 11:45:00 PM 1.8 35.24 0.07 7.06 17.51 13.33
12/27/2021 12:00:00 AM 1.77 35.186 0.07 7.08 16.54 13.34
12/27/2021 12:15:00 AM 1.75 35.15 0.069 7.07 15.85 13.35
12/27/2021 12:30:00 AM 1.72 35.096 0.069 7.06 16.08 13.35
12/27/2021 12:45:00 AM 1.68 35.024 0.069 7.06 15.62 13.35
12/27/2021 1:00:00 AM 1.64 34.952 0.069 7.06 15.77 13.36
12/27/2021 1:15:00 AM 1.65 34.97 0.069 7.06 15.86 13.36
12/27/2021 1:30:00 AM 1.63 34.934 0.069 7.08 15.97 13.36
12/27/2021 1:45:00 AM 1.63 34.934 0.069 7.06 15.59 13.36
12/27/2021 2:00:00 AM 1.59 34.862 0.069 7.04 15.98 13.35
12/27/2021 2:15:00 AM 1.57 34.826 0.069 7.06 15.98 13.35
12/27/2021 2:30:00 AM 1.56 34.808 0.069 7.03 15.63 13.35
12/27/2021 2:45:00 AM 1.54 34.772 0.069 7.04 15.78 13.35
12/27/2021 3:00:00 AM 1.54 34.772 0.069 7.05 15.48 13.34
12/27/2021 3:15:00 AM 1.51 34.718 0.069 7.03 15.8 13.35
12/27/2021 3:30:00 AM 1.51 34.718 0.07 7.04 15.91 13.34
12/27/2021 3:45:00 AM 1.51 34.718 0.07 7.03 15.5 13.34
12/27/2021 4:00:00 AM 1.51 34.718 0.07 7.03 15.59 13.33
12/27/2021 4:15:00 AM 1.5 34.7 0.07 7.02 15.53 13.33
12/27/2021 4:30:00 AM 1.5 34.7 0.069 7.01 15.7 13.33
12/27/2021 4:45:00 AM 1.5 34.7 0.069 7.01 15.94 13.33
12/27/2021 5:00:00 AM 1.45 34.61 0.069 7.01 15.57 13.33
12/27/2021 5:15:00 AM 1.45 34.61 0.07 7.01 15.66 13.32
12/27/2021 5:30:00 AM 1.47 34.646 0.069 7.04 15.42 13.32
12/27/2021 5:45:00 AM 1.47 34.646 0.07 7.03 15.33 13.31
12/27/2021 6:00:00 AM 1.47 34.646 0.07 7.04 15.19 13.31
12/27/2021 6:15:00 AM 1.5 34.7 0.07 7.01 15.31 13.31
12/27/2021 6:30:00 AM 1.52 34.736 0.07 7.02 15.39 13.3
12/27/2021 6:45:00 AM 1.53 34.754 0.07 7 15.9 13.3
12/27/2021 7:00:00 AM 1.56 34.808 0.07 7 15.5 13.3
12/27/2021 7:15:00 AM 1.58 34.844 0.07 7 15.5 13.29
12/27/2021 7:30:00 AM 1.6 34.88 0.07 7 15.71 13.28
12/27/2021 7:45:00 AM 1.63 34.934 0.07 7 15.33 13.28
12/27/2021 8:00:00 AM 1.64 34.952 0.07 7 17.04 13.28
12/27/2021 8:15:00 AM 1.66 34.988 0.07 7.03 16.44 13.27
12/27/2021 8:30:00 AM 1.68 35.024 0.07 7.01 16.77 13.27
12/27/2021 8:45:00 AM 1.69 35.042 0.07 7.01 16.63 13.27
12/27/2021 9:00:00 AM 1.69 35.042 0.07 7 16.5 13.27
12/27/2021 9:15:00 AM 1.71 35.078 0.07 7.01 16.67 13.27
12/27/2021 9:30:00 AM 1.71 35.078 0.07 7.01 16.55 13.27
12/27/2021 9:45:00 AM 1.72 35.096 0.07 7.01 16.31 13.28
12/27/2021 10:00:00 AM 1.74 35.132 0.07 7.01 16.56 13.29
12/27/2021 10:15:00 AM 1.76 35.168 0.07 7 16.6 13.3
12/27/2021 10:30:00 AM 1.78 35.204 0.07 7.03 16.92 13.31
12/27/2021 10:45:00 AM 1.82 35.276 0.07 7 16.5 13.32
12/27/2021 11:00:00 AM 1.87 35.366 0.07 7.01 16.2 13.33
12/27/2021 11:15:00 AM 1.89 35.402 0.07 7.03 16.57 13.34
12/27/2021 11:30:00 AM 1.91 35.438 0.07 7.01 16.46 13.35
12/27/2021 11:45:00 AM 1.95 35.51 0.07 7.03 15.96 13.38
12/27/2021 12:00:00 PM 1.96 35.528 0.07 7.02 16 13.39
12/27/2021 12:15:00 PM 1.99 35.582 0.07 7.04 15.75 13.4
12/27/2021 12:30:00 PM 2 35.6 0.07 7.03 15.59 13.41
12/27/2021 12:45:00 PM 1.99 35.582 0.07 7.03 15.82 13.42
12/27/2021 1:00:00 PM 2 35.6 0.07 7.04 15.33 13.42
12/27/2021 1:15:00 PM 2.02 35.636 0.07 7.03 15.43 13.44
12/27/2021 1:30:00 PM 2.01 35.618 0.07 7.04 15.54 13.44
12/27/2021 1:45:00 PM 2.01 35.618 0.07 7.04 15.3 13.45
12/27/2021 2:00:00 PM 2.04 35.672 0.07 7.04 15.43 13.47
12/27/2021 2:15:00 PM 2.04 35.672 0.07 7.03 15.66 13.49
12/27/2021 2:30:00 PM 2.02 35.636 0.07 7.05 15.37 13.49
12/27/2021 2:45:00 PM 2.02 35.636 0.07 7.05 15.29 13.51
12/27/2021 3:00:00 PM 2.01 35.618 0.071 7.05 14.96 13.52
12/27/2021 3:15:00 PM 2.01 35.618 0.07 7.07 15.41 13.52
12/27/2021 3:30:00 PM 1.99 35.582 0.071 7.06 15.38 13.52
12/27/2021 3:45:00 PM 1.97 35.546 0.071 7.06 15.24 13.5
12/27/2021 4:00:00 PM 1.95 35.51 0.07 7.05 15.41 13.5
12/27/2021 4:15:00 PM 1.94 35.492 0.071 7.06 15.33 13.5
12/27/2021 4:30:00 PM 1.94 35.492 0.071 7.05 15.37 13.49
12/27/2021 4:45:00 PM 1.93 35.474 0.071 7.05 15.21 13.48
12/27/2021 5:00:00 PM 1.92 35.456 0.072 7.08 15.12 13.47
12/27/2021 5:15:00 PM 1.92 35.456 0.072 7.06 14.7 13.45
12/27/2021 5:30:00 PM 1.9 35.42 0.072 7.06 14.2 13.45
12/27/2021 5:45:00 PM 1.89 35.402 0.072 7.05 13.87 13.44
12/27/2021 6:00:00 PM 1.87 35.366 0.072 7.04 14.5 13.42
12/27/2021 6:15:00 PM 1.86 35.348 0.072 7.05 14.03 13.41
12/27/2021 6:30:00 PM 1.84 35.312 0.073 7.07 14.07 13.41
12/27/2021 6:45:00 PM 1.82 35.276 0.072 7.07 14.88 13.39
12/27/2021 7:00:00 PM 1.81 35.258 0.073 7.07 14.99 13.38
12/27/2021 7:15:00 PM 1.79 35.222 0.073 7.07 14.62 13.37
12/27/2021 7:30:00 PM 1.77 35.186 0.073 7.05 14.57 13.37
12/27/2021 7:45:00 PM 1.75 35.15 0.073 7.04 14.33 13.36
12/27/2021 8:00:00 PM 1.74 35.132 0.073 7.04 14.89 13.35
12/27/2021 8:15:00 PM 1.72 35.096 0.073 7.06 15.27 13.35
12/27/2021 8:30:00 PM 1.71 35.078 0.073 7.06 14.63 13.34
12/27/2021 8:45:00 PM 1.69 35.042 0.073 7.05 14.66 13.34
12/27/2021 9:00:00 PM 1.67 35.006 0.073 7.06 14.41 13.33
12/27/2021 9:15:00 PM 1.65 34.97 0.073 7.05 14.97 13.32
12/27/2021 9:30:00 PM 1.64 34.952 0.072 7.05 14.86 13.31
12/27/2021 9:45:00 PM 1.65 34.97 0.073 7.03 15.61 13.3
12/27/2021 10:00:00 PM 1.64 34.952 0.073 7.04 14.67 13.29
12/27/2021 10:15:00 PM 1.65 34.97 0.072 7.04 14.55 13.29
12/27/2021 10:30:00 PM 1.67 35.006 0.072 7.04 15.3 13.29
12/27/2021 10:45:00 PM 1.68 35.024 0.072 7.05 14.86 13.28
12/27/2021 11:00:00 PM 1.68 35.024 0.072 7.05 15.05 13.28
12/27/2021 11:15:00 PM 1.69 35.042 0.072 7.06 14.88 13.28
12/27/2021 11:30:00 PM 1.7 35.06 0.072 7.03 14.51 13.27
12/27/2021 11:45:00 PM 1.7 35.06 0.072 7.04 15.44 13.26
12/28/2021 12:00:00 AM 1.71 35.078 0.072 7.04 15.34 13.26
12/28/2021 12:15:00 AM 1.72 35.096 0.072 7.01 15.04 13.25
12/28/2021 12:30:00 AM 1.73 35.114 0.072 7.03 15.34 13.24
12/28/2021 12:45:00 AM 1.74 35.132 0.071 7.02 14.9 13.24
12/28/2021 1:00:00 AM 1.74 35.132 0.072 7.03 15.14 13.24
12/28/2021 1:15:00 AM 1.76 35.168 0.071 7.02 15.19 13.23
12/28/2021 1:30:00 AM 1.77 35.186 0.072 7.03 15.48 13.22
12/28/2021 1:45:00 AM 1.78 35.204 0.072 7.02 15.12 13.22
12/28/2021 2:00:00 AM 1.8 35.24 0.072 7.02 15.35 13.21
12/28/2021 2:15:00 AM 1.8 35.24 0.072 7 15.64 13.2
12/28/2021 2:30:00 AM 1.82 35.276 0.072 7 15.43 13.19
12/28/2021 2:45:00 AM 1.83 35.294 0.072 7.01 15 13.19
12/28/2021 3:00:00 AM 1.85 35.33 0.072 7.01 15.39 13.18
12/28/2021 3:15:00 AM 1.87 35.366 0.072 7.03 15.63 13.17
12/28/2021 3:30:00 AM 1.88 35.384 0.071 7.01 15.75 13.18
12/28/2021 3:45:00 AM 1.89 35.402 0.072 7.02 15.29 13.16
12/28/2021 4:00:00 AM 1.9 35.42 0.072 7.01 15.29 13.16
12/28/2021 4:15:00 AM 1.93 35.474 0.072 7.01 14.98 13.15
12/28/2021 4:30:00 AM 1.94 35.492 0.072 7.01 14.94 13.15
12/28/2021 4:45:00 AM 1.95 35.51 0.072 7.01 14.67 13.14
12/28/2021 5:00:00 AM 1.96 35.528 0.072 7.01 15.34 13.13
12/28/2021 5:15:00 AM 1.98 35.564 0.072 7.02 15.21 13.14
12/28/2021 5:30:00 AM 1.98 35.564 0.072 7.01 15.1 13.14
12/28/2021 5:45:00 AM 2 35.6 0.072 7.01 15.48 13.13
12/28/2021 6:00:00 AM 2 35.6 0.073 6.99 15.3 13.13
12/28/2021 6:15:00 AM 2 35.6 0.072 7.02 15.42 13.13
12/28/2021 6:30:00 AM 2 35.6 0.072 6.99 15.12 13.13
12/28/2021 6:45:00 AM 2 35.6 0.073 7.03 15.01 13.13
12/28/2021 7:00:00 AM 2.01 35.618 0.073 7.01 15.11 13.12
12/28/2021 7:15:00 AM 2.01 35.618 0.073 7.02 15.53 13.13
12/28/2021 7:30:00 AM 2.03 35.654 0.073 7.02 14.93 13.13
12/28/2021 7:45:00 AM 2.02 35.636 0.073 7.01 355.28 13.13
12/28/2021 8:00:00 AM 2.03 35.654 0.073 6.99 15.04 13.13
12/28/2021 8:15:00 AM 2.04 35.672 0.073 7 14.47 13.14
12/28/2021 8:30:00 AM 2.05 35.69 0.073 7.04 49.72 13.15
12/28/2021 8:45:00 AM 2.06 35.708 0.073 7.01 14.16 13.15
12/28/2021 9:00:00 AM 2.07 35.726 0.073 7.01 13.45 13.16
12/28/2021 9:15:00 AM 2.07 35.726 0.072 7.03 14.13 13.17
12/28/2021 9:30:00 AM 2.09 35.762 0.073 7.01 13.58 13.18
12/28/2021 9:45:00 AM 2.12 35.816 0.073 7.03 13.38 13.2
12/28/2021 10:00:00 AM 2.13 35.834 0.072 7.03 13.67 13.21
12/28/2021 10:15:00 AM 2.16 35.888 0.073 7.05 13.5 13.23
12/28/2021 10:30:00 AM 2.18 35.924 0.073 7.02 13.37 13.24
12/28/2021 10:45:00 AM 2.24 36.032 0.073 7.06 13.29 13.25
12/28/2021 11:00:00 AM 2.3 36.14 0.072 7.03 13.39 13.28
12/28/2021 11:15:00 AM 2.38 36.284 0.073 7.04 13.24 13.3
12/28/2021 11:30:00 AM 2.46 36.428 0.072 7.06 13.3 13.31
12/28/2021 11:45:00 AM 2.5 36.5 0.072 7.05 13.18 13.32
12/28/2021 12:00:00 PM 2.56 36.608 0.072 7.06 13.29 13.33
12/28/2021 12:15:00 PM 2.61 36.698 0.072 7.05 13.23 13.34
12/28/2021 12:30:00 PM 2.7 36.86 0.072 7.06 13.27 13.35
12/28/2021 12:45:00 PM 2.78 37.004 0.072 7.05 13.34 13.36
12/28/2021 1:00:00 PM 2.83 37.094 0.072 7.06 13.35 13.37
12/28/2021 1:15:00 PM 2.84 37.112 0.072 7.05 13.11 13.39
12/28/2021 1:30:00 PM 2.86 37.148 0.072 7.06 13.22 13.39
12/28/2021 1:45:00 PM 2.87 37.166 0.072 7.08 13.26 13.4
12/28/2021 2:00:00 PM 2.87 37.166 0.072 7.06 13.07 13.42
12/28/2021 2:15:00 PM 2.88 37.184 0.071 7.09 13.14 13.42
12/28/2021 2:30:00 PM 2.87 37.166 0.072 7.08 13.11 13.43
12/28/2021 2:45:00 PM 2.84 37.112 0.072 7.06 13.24 13.44
12/28/2021 3:00:00 PM 2.83 37.094 0.072 7.06 13.07 13.46
12/28/2021 3:15:00 PM 2.83 37.094 0.072 7.07 13.91 13.46
12/28/2021 3:30:00 PM 2.83 37.094 0.072 7.09 13.56 13.47
12/28/2021 3:45:00 PM 2.81 37.058 0.072 7.06 13.34 13.47
12/28/2021 4:00:00 PM 2.78 37.004 0.072 7.07 13.76 13.48
12/28/2021 4:15:00 PM 2.76 36.968 0.071 7.05 13.78 13.47
12/28/2021 4:30:00 PM 2.74 36.932 0.072 7.07 13.59 13.47
12/28/2021 4:45:00 PM 2.74 36.932 0.071 7.08 13.61 13.46
12/28/2021 5:00:00 PM 2.7 36.86 0.072 7.06 13.68 13.44
12/28/2021 5:15:00 PM 2.67 36.806 0.071 7.08 13.9 13.44
12/28/2021 5:30:00 PM 2.63 36.734 0.071 7.05 13.83 13.42
12/28/2021 5:45:00 PM 2.6 36.68 0.071 7.06 14.32 13.4
12/28/2021 6:00:00 PM 2.57 36.626 0.072 7.06 14.45 13.39
12/28/2021 6:15:00 PM 2.53 36.554 0.072 7.06 14 13.37
12/28/2021 6:30:00 PM 2.51 36.518 0.071 7.06 14.27 13.36
12/28/2021 6:45:00 PM 2.48 36.464 0.071 7.05 14.11 13.35
12/28/2021 7:00:00 PM 2.46 36.428 0.072 7.04 14.22 13.34
12/28/2021 7:15:00 PM 2.44 36.392 0.072 7.05 14.49 13.32
12/28/2021 7:30:00 PM 2.42 36.356 0.072 7.04 14.52 13.31
12/28/2021 7:45:00 PM 2.4 36.32 0.072 7.05 14.04 13.29
12/28/2021 8:00:00 PM 2.36 36.248 0.071 7.05 14.25 13.28
12/28/2021 8:15:00 PM 2.32 36.176 0.071 7.02 14.14 13.27
12/28/2021 8:30:00 PM 2.27 36.086 0.071 7.05 14.51 13.25
12/28/2021 8:45:00 PM 2.22 35.996 0.071 7.04 14.46 13.24
12/28/2021 9:00:00 PM 2.18 35.924 0.071 7.05 14.49 13.23
12/28/2021 9:15:00 PM 2.13 35.834 0.071 7.02 14.66 13.22
12/28/2021 9:30:00 PM 2.07 35.726 0.071 7.03 14.35 13.21
12/28/2021 9:45:00 PM 2 35.6 0.071 7.03 14.21 13.22
12/28/2021 10:00:00 PM 1.96 35.528 0.071 7.04 14.26 13.21
12/28/2021 10:15:00 PM 1.95 35.51 0.071 7.02 14.06 13.21
12/28/2021 10:30:00 PM 1.93 35.474 0.071 7.01 14.42 13.21
12/28/2021 10:45:00 PM 1.93 35.474 0.071 7.01 14.72 13.19
12/28/2021 11:00:00 PM 1.93 35.474 0.07 7.01 14.65 13.19
12/28/2021 11:15:00 PM 1.93 35.474 0.071 7.01 14.54 13.19
12/28/2021 11:30:00 PM 1.94 35.492 0.071 7.02 14.44 13.19
12/28/2021 11:45:00 PM 1.95 35.51 0.071 7.02 14.34 13.2
12/29/2021 12:00:00 AM 1.96 35.528 0.071 7.02 14.29 13.19
12/29/2021 12:15:00 AM 1.97 35.546 0.071 7.02 14.2 13.17
12/29/2021 12:30:00 AM 1.97 35.546 0.071 7.01 14.6 13.17
12/29/2021 12:45:00 AM 1.97 35.546 0.071 7.02 15.39 13.17
12/29/2021 1:00:00 AM 1.97 35.546 0.071 7.02 14.97 13.18
12/29/2021 1:15:00 AM 1.97 35.546 0.071 7.02 15.15 13.18
12/29/2021 1:30:00 AM 1.97 35.546 0.071 7.02 14.72 13.17
12/29/2021 1:45:00 AM 1.98 35.564 0.072 7.02 14.95 13.17
12/29/2021 2:00:00 AM 1.99 35.582 0.071 7.01 14.63 13.16
12/29/2021 2:15:00 AM 2 35.6 0.071 7.01 14.88 13.15
12/29/2021 2:30:00 AM 2.02 35.636 0.071 7.02 14.96 13.16
12/29/2021 2:45:00 AM 2.02 35.636 0.071 7.01 15 13.16
12/29/2021 3:00:00 AM 2.03 35.654 0.071 7.01 14.7 13.17
12/29/2021 3:15:00 AM 2.03 35.654 0.071 7.01 15.6 13.16
12/29/2021 3:30:00 AM 2.03 35.654 0.071 7 15.75 13.15
12/29/2021 3:45:00 AM 2.05 35.69 0.071 7.01 15.05 13.16
12/29/2021 4:00:00 AM 2.05 35.69 0.07 7.01 15 13.16
12/29/2021 4:15:00 AM 2.05 35.69 0.071 7.01 15.46 13.15
12/29/2021 4:30:00 AM 2.06 35.708 0.071 7 15.21 13.14
12/29/2021 4:45:00 AM 2.06 35.708 0.07 7 15.08 13.14
12/29/2021 5:00:00 AM 2.08 35.744 0.071 7.01 14.67 13.14
12/29/2021 5:15:00 AM 2.08 35.744 0.071 7 14.81 13.12
12/29/2021 5:30:00 AM 2.09 35.762 0.071 7.02 15.28 13.12
12/29/2021 5:45:00 AM 2.09 35.762 0.071 7 14.98 13.11
12/29/2021 6:00:00 AM 2.09 35.762 0.071 7 14.9 13.11
12/29/2021 6:15:00 AM 2.1 35.78 0.071 7 15.18 13.1
12/29/2021 6:30:00 AM 2.1 35.78 0.071 7.01 15.05 13.09
12/29/2021 6:45:00 AM 2.1 35.78 0.071 7 14.86 13.11
12/29/2021 7:00:00 AM 2.11 35.798 0.071 7.01 14.75 13.11
12/29/2021 7:15:00 AM 2.11 35.798 0.07 7.01 14.84 13.13
12/29/2021 7:30:00 AM 2.11 35.798 0.071 7 14.79 13.12
12/29/2021 7:45:00 AM 2.11 35.798 0.071 7.01 14.51 13.12
12/29/2021 8:00:00 AM 2.11 35.798 0.071 7 14.5 13.11
12/29/2021 8:15:00 AM 2.1 35.78 0.071 6.99 14.51 13.11
12/29/2021 8:30:00 AM 2.11 35.798 0.071 7 14.36 13.11
12/29/2021 8:45:00 AM 2.11 35.798 0.07 6.99 14.48 13.11
12/29/2021 9:00:00 AM 2.12 35.816 0.071 6.99 14.28 13.12
12/29/2021 9:15:00 AM 2.12 35.816 0.071 7.01 14.13 13.12
12/29/2021 9:30:00 AM 2.13 35.834 0.07 6.99 14.21 13.13
12/29/2021 9:45:00 AM 2.14 35.852 0.071 7 14.08 13.13
12/29/2021 10:00:00 AM 2.15 35.87 0.07 7.01 13.99 13.15
12/29/2021 10:15:00 AM 2.17 35.906 0.07 7 14.12 13.14
12/29/2021 10:30:00 AM 2.2 35.96 0.07 7.01 14.28 13.17
12/29/2021 10:45:00 AM 2.22 35.996 0.07 7.01 14.2 13.17
12/29/2021 11:00:00 AM 2.24 36.032 0.07 7 13.97 13.19
12/29/2021 11:15:00 AM 2.27 36.086 0.07 7.02 13.93 13.2
12/29/2021 11:30:00 AM 2.3 36.14 0.07 7.01 14.06 13.2
12/29/2021 11:45:00 AM 2.33 36.194 0.07 7.03 14.03 13.23
12/29/2021 12:00:00 PM 2.36 36.248 0.07 7.02 14.03 13.24
12/29/2021 12:15:00 PM 2.4 36.32 0.069 7.01 13.93 13.26
12/29/2021 12:30:00 PM 2.43 36.374 0.07 7.01 13.75 13.28
12/29/2021 12:45:00 PM 2.45 36.41 0.07 7.03 13.96 13.3
12/29/2021 1:00:00 PM 2.48 36.464 0.07 7.03 13.8 13.31
12/29/2021 1:15:00 PM 2.5 36.5 0.07 7.04 13.65 13.32
12/29/2021 1:30:00 PM 2.53 36.554 0.07 7.04 13.89 13.33
12/29/2021 1:45:00 PM 2.56 36.608 0.07 7.04 13.83 13.34
12/29/2021 2:00:00 PM 2.58 36.644 0.07 7.03 13.86 13.34
12/29/2021 2:15:00 PM 2.6 36.68 0.07 7.03 14.09 13.36
12/29/2021 2:30:00 PM 2.62 36.716 0.069 7.06 13.86 13.37
12/29/2021 2:45:00 PM 2.63 36.734 0.07 7.03 13.89 13.38
12/29/2021 3:00:00 PM 2.65 36.77 0.069 7.06 14.1 13.41
12/29/2021 3:15:00 PM 2.67 36.806 0.069 7.03 13.97 13.41
12/29/2021 3:30:00 PM 2.7 36.86 0.07 7.05 13.89 13.41
12/29/2021 3:45:00 PM 2.71 36.878 0.069 7.05 13.98 13.42
12/29/2021 4:00:00 PM 2.73 36.914 0.07 7.04 13.99 13.42
12/29/2021 4:15:00 PM 2.75 36.95 0.07 7.07 13.86 13.42
12/29/2021 4:30:00 PM 2.76 36.968 0.07 7.04 14.07 13.42
12/29/2021 4:45:00 PM 2.76 36.968 0.069 7.05 13.88 13.43
12/29/2021 5:00:00 PM 2.75 36.95 0.069 7.06 14.13 13.42
12/29/2021 5:15:00 PM 2.75 36.95 0.07 7.05 13.82 13.41
12/29/2021 5:30:00 PM 2.74 36.932 0.07 7.05 13.84 13.4
12/29/2021 5:45:00 PM 2.72 36.896 0.07 7.03 13.92 13.39
12/29/2021 6:00:00 PM 2.71 36.878 0.07 7.07 14.34 13.37
12/29/2021 6:15:00 PM 2.7 36.86 0.07 7.03 14.42 13.35
12/29/2021 6:30:00 PM 2.68 36.824 0.07 7.02 14.31 13.33
12/29/2021 6:45:00 PM 2.68 36.824 0.07 7.04 15.6 13.31
12/29/2021 7:00:00 PM 2.67 36.806 0.07 7.02 15.07 13.3
12/29/2021 7:15:00 PM 2.66 36.788 0.07 7.05 14.63 13.29
12/29/2021 7:30:00 PM 2.65 36.77 0.07 7.04 15.03 13.26
12/29/2021 7:45:00 PM 2.65 36.77 0.07 7.02 14.78 13.25
12/29/2021 8:00:00 PM 2.64 36.752 0.07 7.03 15.31 13.24
12/29/2021 8:15:00 PM 2.63 36.734 0.07 7 15.41 13.22
12/29/2021 8:30:00 PM 2.63 36.734 0.07 7.01 15.03 13.2
12/29/2021 8:45:00 PM 2.62 36.716 0.07 7.01 15.03 13.19
12/29/2021 9:00:00 PM 2.61 36.698 0.07 7 14.97 13.17
12/29/2021 9:15:00 PM 2.61 36.698 0.07 7.01 14.85 13.15
12/29/2021 9:30:00 PM 2.6 36.68 0.07 6.98 14.98 13.14
12/29/2021 9:45:00 PM 2.59 36.662 0.07 7 14.82 13.12
12/29/2021 10:00:00 PM 2.59 36.662 0.07 7.01 14.83 13.11
12/29/2021 10:15:00 PM 2.58 36.644 0.07 6.99 15.02 13.1
12/29/2021 10:30:00 PM 2.56 36.608 0.07 6.99 15.33 13.1
12/29/2021 10:45:00 PM 2.56 36.608 0.07 6.98 15.11 13.08
12/29/2021 11:00:00 PM 2.56 36.608 0.07 6.97 15.13 13.07
12/29/2021 11:15:00 PM 2.55 36.59 0.07 6.98 15.14 13.07
12/29/2021 11:30:00 PM 2.55 36.59 0.07 6.99 15.04 13.07
12/29/2021 11:45:00 PM 2.55 36.59 0.07 6.97 15.23 13.06
12/30/2021 12:00:00 AM 2.55 36.59 0.07 6.98 15.09 13.05
12/30/2021 12:15:00 AM 2.54 36.572 0.07 6.98 15.02 13.05
12/30/2021 12:30:00 AM 2.54 36.572 0.07 7 15.15 13.05
12/30/2021 12:45:00 AM 2.54 36.572 0.07 6.96 15.22 13.04
12/30/2021 1:00:00 AM 2.54 36.572 0.071 6.98 15.25 13.05
12/30/2021 1:15:00 AM 2.54 36.572 0.07 6.98 15.21 13.05
12/30/2021 1:30:00 AM 2.54 36.572 0.07 7 15.34 13.04
12/30/2021 1:45:00 AM 2.54 36.572 0.071 6.99 15.44 13.04
12/30/2021 2:00:00 AM 2.54 36.572 0.07 6.98 15.2 13.04
12/30/2021 2:15:00 AM 2.54 36.572 0.071 6.97 15.39 13.03
12/30/2021 2:30:00 AM 2.54 36.572 0.071 6.97 15.24 13.03
12/30/2021 2:45:00 AM 2.55 36.59 0.07 6.97 15.13 13.02
12/30/2021 3:00:00 AM 2.55 36.59 0.071 6.98 15.05 13.02
12/30/2021 3:15:00 AM 2.55 36.59 0.07 6.97 15.17 13.02
12/30/2021 3:30:00 AM 2.55 36.59 0.071 6.96 15.17 13.02
12/30/2021 3:45:00 AM 2.55 36.59 0.071 6.98 15.06 13.01
12/30/2021 4:00:00 AM 2.55 36.59 0.071 6.98 15.15 13.01
12/30/2021 4:15:00 AM 2.55 36.59 0.07 6.98 15.62 13.01
12/30/2021 4:30:00 AM 2.55 36.59 0.07 6.96 15.09 13.01
12/30/2021 4:45:00 AM 2.56 36.608 0.07 6.98 15.24 13
12/30/2021 5:00:00 AM 2.56 36.608 0.07 6.97 15.18 13
12/30/2021 5:15:00 AM 2.56 36.608 0.071 6.97 15.3 12.99
12/30/2021 5:30:00 AM 2.57 36.626 0.07 6.98 15.27 12.98
12/30/2021 5:45:00 AM 2.57 36.626 0.07 6.96 15.16 12.99
12/30/2021 6:00:00 AM 2.57 36.626 0.07 6.97 15.1 12.98
12/30/2021 6:15:00 AM 2.57 36.626 0.07 6.96 15.42 12.98
12/30/2021 6:30:00 AM 2.58 36.644 0.071 6.96 15.54 12.97
12/30/2021 6:45:00 AM 2.58 36.644 0.07 6.98 15.83 12.97
12/30/2021 7:00:00 AM 2.58 36.644 0.071 6.96 15.18 12.97
12/30/2021 7:15:00 AM 2.59 36.662 0.07 6.98 15.33 12.96
12/30/2021 7:30:00 AM 2.59 36.662 0.07 6.95 14.91 12.97
12/30/2021 7:45:00 AM 2.6 36.68 0.071 6.97 15.14 12.97
12/30/2021 8:00:00 AM 2.6 36.68 0.071 6.95 14.94 12.97
12/30/2021 8:15:00 AM 2.61 36.698 0.071 6.98 14.77 12.97
12/30/2021 8:30:00 AM 2.61 36.698 0.07 6.97 15.07 12.98
12/30/2021 8:45:00 AM 2.61 36.698 0.07 6.95 14.73 12.98
12/30/2021 9:00:00 AM 2.62 36.716 0.07 6.98 15.1 12.97
12/30/2021 9:15:00 AM 2.63 36.734 0.071 6.95 14.9 12.98
12/30/2021 9:30:00 AM 2.63 36.734 0.07 6.96 14.68 13
12/30/2021 9:45:00 AM 2.65 36.77 0.071 6.98 14.85 13
12/30/2021 10:00:00 AM 2.66 36.788 0.071 6.97 14.75 13
12/30/2021 10:15:00 AM 2.67 36.806 0.07 6.97 15.36 13.01
12/30/2021 10:30:00 AM 2.68 36.824 0.07 6.97 14.39 13.03
12/30/2021 10:45:00 AM 2.7 36.86 0.07 6.98 14.74 13.03
12/30/2021 11:00:00 AM 2.72 36.896 0.07 6.99 14.69 13.05
12/30/2021 11:15:00 AM 2.75 36.95 0.07 7 14.47 13.06
12/30/2021 11:30:00 AM 2.76 36.968 0.07 6.97 14.43 13.08
12/30/2021 11:45:00 AM 2.78 37.004 0.07 7 14.47 13.1
12/30/2021 12:00:00 PM 2.81 37.058 0.07 6.99 14.42 13.11
12/30/2021 12:15:00 PM 2.83 37.094 0.07 7 14.38 13.13
12/30/2021 12:30:00 PM 2.86 37.148 0.07 6.99 14.2 13.14
12/30/2021 12:45:00 PM 2.87 37.166 0.07 7 14.2 13.16
12/30/2021 1:00:00 PM 2.9 37.22 0.07 7.01 14.24 13.16
12/30/2021 1:15:00 PM 2.91 37.238 0.07 7 14.18 13.17
12/30/2021 1:30:00 PM 2.93 37.274 0.07 7.01 14.12 13.18
12/30/2021 1:45:00 PM 2.95 37.31 0.07 6.99 14.21 13.18
12/30/2021 2:00:00 PM 2.96 37.328 0.07 7.02 14.14 13.2
12/30/2021 2:15:00 PM 2.98 37.364 0.07 7 14.2 13.2
12/30/2021 2:30:00 PM 3 37.4 0.07 7 14.17 13.21
12/30/2021 2:45:00 PM 3.02 37.436 0.071 7.02 14.08 13.21
12/30/2021 3:00:00 PM 3.03 37.454 0.07 7.01 14.08 13.21
12/30/2021 3:15:00 PM 3.04 37.472 0.071 7.01 14.14 13.21
12/30/2021 3:30:00 PM 3.05 37.49 0.07 7.03 14.24 13.22
12/30/2021 3:45:00 PM 3.07 37.526 0.071 7.01 14.07 13.21
12/30/2021 4:00:00 PM 3.08 37.544 0.071 7.02 14.09 13.21
12/30/2021 4:15:00 PM 3.08 37.544 0.071 7.03 14.08 13.21
12/30/2021 4:30:00 PM 3.08 37.544 0.07 7.03 14.02 13.2
12/30/2021 4:45:00 PM 3.09 37.562 0.071 7.01 14.02 13.19
12/30/2021 5:00:00 PM 3.08 37.544 0.07 7.03 14.1 13.17
12/30/2021 5:15:00 PM 3.07 37.526 0.07 7 14.14 13.15
12/30/2021 5:30:00 PM 3.06 37.508 0.071 7.01 14.13 13.14
12/30/2021 5:45:00 PM 3.05 37.49 0.07 7.01 14.39 13.13
12/30/2021 6:00:00 PM 3.04 37.472 0.071 6.99 14.23 13.11
12/30/2021 6:15:00 PM 3.03 37.454 0.071 7 14.2 13.1
12/30/2021 6:30:00 PM 3.02 37.436 0.071 6.99 14.31 13.08
12/30/2021 6:45:00 PM 3.02 37.436 0.071 6.99 14.36 13.07
12/30/2021 7:00:00 PM 3.01 37.418 0.071 7.01 14.42 13.06
12/30/2021 7:15:00 PM 3.01 37.418 0.071 6.99 14.41 13.04
12/30/2021 7:30:00 PM 3.01 37.418 0.071 6.99 14.67 13.03
12/30/2021 7:45:00 PM 3.01 37.418 0.071 6.98 14.58 13.02
12/30/2021 8:00:00 PM 3 37.4 0.071 6.99 14.71 13
12/30/2021 8:15:00 PM 3.02 37.436 0.071 6.99 14.65 12.97
12/30/2021 8:30:00 PM 3 37.4 0.071 6.98 14.8 12.97
12/30/2021 8:45:00 PM 3 37.4 0.071 6.98 14.63 12.96
12/30/2021 9:00:00 PM 3 37.4 0.071 6.99 14.98 12.93
12/30/2021 9:15:00 PM 3 37.4 0.071 6.99 14.91 12.93
12/30/2021 9:30:00 PM 3 37.4 0.071 6.96 15.12 12.92
12/30/2021 9:45:00 PM 3 37.4 0.071 6.98 15.37 12.91
12/30/2021 10:00:00 PM 3.01 37.418 0.071 6.95 15.59 12.9
12/30/2021 10:15:00 PM 3.01 37.418 0.071 6.95 15.46 12.9
12/30/2021 10:30:00 PM 3.01 37.418 0.071 6.98 15.8 12.89
12/30/2021 10:45:00 PM 3 37.4 0.071 6.95 15.69 12.89
12/30/2021 11:00:00 PM 3 37.4 0.071 6.95 15.55 12.89
12/30/2021 11:15:00 PM 3 37.4 0.071 6.96 15.31 12.89
12/30/2021 11:30:00 PM 3 37.4 0.071 6.96 15.81 12.88
12/30/2021 11:45:00 PM 3.01 37.418 0.071 6.96 15.71 12.88
12/31/2021 12:00:00 AM 3.01 37.418 0.071 6.96 15.43 12.87
12/31/2021 12:15:00 AM 3.01 37.418 0.071 6.97 15.44 12.87
12/31/2021 12:30:00 AM 3.04 37.472 0.071 6.95 15.49 12.87
12/31/2021 12:45:00 AM 3.05 37.49 0.071 6.96 15.45 12.85
12/31/2021 1:00:00 AM 3.06 37.508 0.071 6.95 16.13 12.84
12/31/2021 1:15:00 AM 3.07 37.526 0.071 6.95 15.45 12.84
12/31/2021 1:30:00 AM 3.07 37.526 0.071 6.97 15.54 12.84
12/31/2021 1:45:00 AM 3.09 37.562 0.071 6.95 15.69 12.84
12/31/2021 2:00:00 AM 3.09 37.562 0.071 6.95 15.6 12.84
12/31/2021 2:15:00 AM 3.1 37.58 0.071 6.95 15.9 12.83
12/31/2021 2:30:00 AM 3.11 37.598 0.071 6.96 15.74 12.82
12/31/2021 2:45:00 AM 3.12 37.616 0.071 6.96 15.46 12.82
12/31/2021 3:00:00 AM 3.13 37.634 0.07 6.98 15.39 12.82
12/31/2021 3:15:00 AM 3.13 37.634 0.071 6.96 15.4 12.81
12/31/2021 3:30:00 AM 3.13 37.634 0.071 6.97 15.79 12.82
12/31/2021 3:45:00 AM 3.14 37.652 0.071 6.97 15.12 12.81
12/31/2021 4:00:00 AM 3.13 37.634 0.071 6.97 15.21 12.81
12/31/2021 4:15:00 AM 3.13 37.634 0.071 6.95 15.01 12.82
12/31/2021 4:30:00 AM 3.13 37.634 0.071 6.94 15.28 12.8
12/31/2021 4:45:00 AM 3.13 37.634 0.071 6.97 15.15 12.8
12/31/2021 5:00:00 AM 3.12 37.616 0.071 6.97 15.1 12.81
12/31/2021 5:15:00 AM 3.13 37.634 0.071 6.95 15.05 12.79
12/31/2021 5:30:00 AM 3.11 37.598 0.071 6.95 15.02 12.81
12/31/2021 5:45:00 AM 3.11 37.598 0.071 6.95 15.03 12.81
12/31/2021 6:00:00 AM 3.11 37.598 0.071 6.96 15.21 12.81
12/31/2021 6:15:00 AM 3.11 37.598 0.071 6.96 15.23 12.79
12/31/2021 6:30:00 AM 3.1 37.58 0.072 6.95 14.97 12.8
12/31/2021 6:45:00 AM 3.11 37.598 0.071 6.95 15.17 12.79
12/31/2021 7:00:00 AM 3.11 37.598 0.072 6.96 15.11 12.79
12/31/2021 7:15:00 AM 3.11 37.598 0.072 6.96 14.95 12.79
12/31/2021 7:30:00 AM 3.11 37.598 0.071 6.96 15.01 12.78
12/31/2021 7:45:00 AM 3.11 37.598 0.072 6.93 14.81 12.78
12/31/2021 8:00:00 AM 3.11 37.598 0.071 6.98 14.89 12.79
12/31/2021 8:15:00 AM 3.12 37.616 0.072 6.97 15.01 12.79
12/31/2021 8:30:00 AM 3.12 37.616 0.071 6.96 14.9 12.79
12/31/2021 8:45:00 AM 3.14 37.652 0.072 6.98 14.73 12.78
12/31/2021 9:00:00 AM 3.15 37.67 0.072 6.96 14.77 12.78
12/31/2021 9:15:00 AM 3.16 37.688 0.071 6.96 14.7 12.78
12/31/2021 9:30:00 AM 3.17 37.706 0.071 6.96 14.66 12.8
12/31/2021 9:45:00 AM 3.19 37.742 0.071 6.96 14.84 12.82
12/31/2021 10:00:00 AM 3.22 37.796 0.072 6.98 14.48 12.83
12/31/2021 10:15:00 AM 3.27 37.886 0.072 6.97 14.55 12.85
12/31/2021 10:30:00 AM 3.31 37.958 0.071 6.99 14.53 12.85
12/31/2021 10:45:00 AM 3.37 38.066 0.072 6.96 14.48 12.88
12/31/2021 11:00:00 AM 3.4 38.12 0.072 6.98 14.47 12.9
12/31/2021 11:15:00 AM 3.45 38.21 0.072 6.96 14.32 12.91
12/31/2021 11:30:00 AM 3.52 38.336 0.072 6.99 14.36 12.92
12/31/2021 11:45:00 AM 3.58 38.444 0.071 7 14.58 12.96
12/31/2021 12:00:00 PM 3.66 38.588 0.072 6.98 14.4 12.96
12/31/2021 12:15:00 PM 3.73 38.714 0.071 6.98 14.38 12.97
12/31/2021 12:30:00 PM 3.81 38.858 0.072 7 14.35 12.98
12/31/2021 12:45:00 PM 3.87 38.966 0.072 7 14.28 12.98
12/31/2021 1:00:00 PM 3.94 39.092 0.072 7.02 14.19 12.99
12/31/2021 1:15:00 PM 3.98 39.164 0.072 7 14.29 13
12/31/2021 1:30:00 PM 4.03 39.254 0.072 7 14.18 13.01
12/31/2021 1:45:00 PM 4.09 39.362 0.072 7 14.27 13.02
12/31/2021 2:00:00 PM 4.12 39.416 0.072 7 14.57 13.06
12/31/2021 2:15:00 PM 4.16 39.488 0.072 7 14.35 13.07
12/31/2021 2:30:00 PM 4.2 39.56 0.072 6.99 14.1 13.08
12/31/2021 2:45:00 PM 4.21 39.578 0.072 7 14.26 13.09
12/31/2021 3:00:00 PM 4.21 39.578 0.072 7.01 14.11 13.11
12/31/2021 3:15:00 PM 4.2 39.56 0.072 7.02 14.05 13.12
12/31/2021 3:30:00 PM 4.21 39.578 0.072 7 14.3 13.11
12/31/2021 3:45:00 PM 4.18 39.524 0.072 7.02 14.09 13.1
12/31/2021 4:00:00 PM 4.17 39.506 0.072 7 14.2 13.11
12/31/2021 4:15:00 PM 4.16 39.488 0.072 7.01 14.18 13.11
12/31/2021 4:30:00 PM 4.16 39.488 0.072 7.02 14.11 13.11
12/31/2021 4:45:00 PM 4.16 39.488 0.072 7 14.42 13.1
12/31/2021 5:00:00 PM 4.13 39.434 0.072 7.01 14.26 13.1
12/31/2021 5:15:00 PM 4.08 39.344 0.072 7.01 14.61 13.09
12/31/2021 5:30:00 PM 4.05 39.29 0.072 7 14.51 13.06
12/31/2021 5:45:00 PM 4.03 39.254 0.072 6.99 14.37 13.04
12/31/2021 6:00:00 PM 3.98 39.164 0.072 6.99 14.23 13.01
12/31/2021 6:15:00 PM 3.96 39.128 0.072 6.99 14.45 12.98
12/31/2021 6:30:00 PM 3.93 39.074 0.072 6.99 14.5 12.95
12/31/2021 6:45:00 PM 3.91 39.038 0.072 6.99 14.54 12.92
12/31/2021 7:00:00 PM 3.89 39.002 0.072 6.96 14.56 12.9
12/31/2021 7:15:00 PM 3.86 38.948 0.072 6.97 14.74 12.88
12/31/2021 7:30:00 PM 3.82 38.876 0.072 6.99 14.69 12.87
12/31/2021 7:45:00 PM 3.8 38.84 0.072 6.98 14.85 12.85
12/31/2021 8:00:00 PM 3.78 38.804 0.072 6.88 15.2 12.84
12/31/2021 8:15:00 PM 3.78 38.804 0.072 7 15.26 12.81
12/31/2021 8:30:00 PM 3.73 38.714 0.072 6.98 15.17 12.81
12/31/2021 8:45:00 PM 3.72 38.696 0.072 6.96 15.74 12.8
12/31/2021 9:00:00 PM 3.71 38.678 0.072 6.96 15.06 12.77
12/31/2021 9:15:00 PM 3.7 38.66 0.072 6.96 15.71 12.76
12/31/2021 9:30:00 PM 3.68 38.624 0.072 6.96 15.7 12.75
12/31/2021 9:45:00 PM 3.69 38.642 0.072 6.96 15.16 12.73
12/31/2021 10:00:00 PM 3.7 38.66 0.072 6.98 15.08 12.71
12/31/2021 10:15:00 PM 3.69 38.642 0.072 6.98 15.23 12.71
12/31/2021 10:30:00 PM 3.7 38.66 0.072 6.95 30.09 12.69
12/31/2021 10:45:00 PM 3.7 38.66 0.072 6.95 15.63 12.68
12/31/2021 11:00:00 PM 3.69 38.642 0.072 6.96 18.95 12.68
12/31/2021 11:15:00 PM 3.7 38.66 0.072 6.97 15.9 12.66
12/31/2021 11:30:00 PM 3.7 38.66 0.072 6.99 15.8 12.67
12/31/2021 11:45:00 PM 3.7 38.66 0.072 6.97 16.43 12.66
1/1/2022 12:00:00 AM 3.7 38.66 0.072 6.97 17.07 12.66
1/1/2022 12:15:00 AM 3.69 38.642 0.072 6.97 16.87 12.67
1/1/2022 12:30:00 AM 3.68 38.624 0.072 6.96 16.4 12.66
1/1/2022 12:45:00 AM 3.68 38.624 0.072 6.97 15.94 12.67
1/1/2022 1:00:00 AM 3.68 38.624 0.071 6.97 16.09 12.66
1/1/2022 1:15:00 AM 3.67 38.606 0.072 6.97 16.46 12.66
1/1/2022 1:30:00 AM 3.67 38.606 0.071 6.97 15.6 12.66
1/1/2022 1:45:00 AM 3.68 38.624 0.072 6.97 15.92 12.65
1/1/2022 2:00:00 AM 3.66 38.588 0.072 6.97 15.87 12.66
1/1/2022 2:15:00 AM 3.67 38.606 0.072 6.96 15.53 12.66
1/1/2022 2:30:00 AM 3.67 38.606 0.072 6.97 15.75 12.65
1/1/2022 2:45:00 AM 3.67 38.606 0.072 6.95 15.59 12.65
1/1/2022 3:00:00 AM 3.67 38.606 0.072 6.95 15.63 12.66
1/1/2022 3:15:00 AM 3.69 38.642 0.072 6.96 15.79 12.64
1/1/2022 3:30:00 AM 3.7 38.66 0.072 6.96 15.54 12.62
1/1/2022 3:45:00 AM 3.7 38.66 0.072 6.95 15.93 12.63
1/1/2022 4:00:00 AM 3.68 38.624 0.072 6.99 15.35 12.64
1/1/2022 4:15:00 AM 3.69 38.642 0.072 6.97 15.48 12.63
1/1/2022 4:30:00 AM 3.7 38.66 0.072 6.97 15.63 12.63
1/1/2022 4:45:00 AM 3.72 38.696 0.072 6.95 15.58 12.62
1/1/2022 5:00:00 AM 3.73 38.714 0.072 6.97 15.36 12.62
1/1/2022 5:15:00 AM 3.75 38.75 0.073 6.95 15.65 12.6
1/1/2022 5:30:00 AM 3.76 38.768 0.072 6.97 15.56 12.6
1/1/2022 5:45:00 AM 3.77 38.786 0.073 6.97 15.52 12.6
1/1/2022 6:00:00 AM 3.8 38.84 0.072 6.97 15.72 12.57
1/1/2022 6:15:00 AM 3.8 38.84 0.072 6.96 15.53 12.58
1/1/2022 6:30:00 AM 3.81 38.858 0.072 6.95 15.69 12.57
1/1/2022 6:45:00 AM 3.82 38.876 0.072 6.96 15.39 12.56
1/1/2022 7:00:00 AM 3.83 38.894 0.072 6.95 15.94 12.54
1/1/2022 7:15:00 AM 3.85 38.93 0.073 6.95 15.57 12.52
1/1/2022 7:30:00 AM 3.87 38.966 0.073 6.96 15.54 12.52
1/1/2022 7:45:00 AM 3.88 38.984 0.072 6.96 15.57 12.5
1/1/2022 8:00:00 AM 3.88 38.984 0.072 6.94 15.6 12.51
1/1/2022 8:15:00 AM 3.89 39.002 0.072 6.95 15.56 12.51
1/1/2022 8:30:00 AM 3.9 39.02 0.073 6.93 15.44 12.5
1/1/2022 8:45:00 AM 3.9 39.02 0.072 6.95 15.39 12.51
1/1/2022 9:00:00 AM 3.91 39.038 0.072 6.94 15.94 12.51
1/1/2022 9:15:00 AM 3.92 39.056 0.072 6.95 15.21 12.51
1/1/2022 9:30:00 AM 3.91 39.038 0.072 6.94 14.74 12.54
1/1/2022 9:45:00 AM 3.92 39.056 0.072 6.98 14.74 12.55
1/1/2022 10:00:00 AM 3.93 39.074 0.072 6.95 14.78 12.56
1/1/2022 10:15:00 AM 3.96 39.128 0.072 6.97 14.69 12.58
1/1/2022 10:30:00 AM 3.99 39.182 0.072 6.98 14.69 12.58
1/1/2022 10:45:00 AM 4.02 39.236 0.072 6.97 14.86 12.59
1/1/2022 11:00:00 AM 4.06 39.308 0.072 6.98 14.74 12.59
1/1/2022 11:15:00 AM 4.06 39.308 0.072 6.97 14.69 12.62
1/1/2022 11:30:00 AM 4.08 39.344 0.072 6.97 14.62 12.64
1/1/2022 11:45:00 AM 4.12 39.416 0.072 6.98 14.64 12.65
1/1/2022 12:00:00 PM 4.15 39.47 0.071 6.99 14.79 12.67
1/1/2022 12:15:00 PM 4.2 39.56 0.072 6.99 14.84 12.66
1/1/2022 12:30:00 PM 4.22 39.596 0.071 6.99 14.51 12.68
1/1/2022 12:45:00 PM 4.24 39.632 0.071 6.98 14.37 12.69
1/1/2022 1:00:00 PM 4.25 39.65 0.071 6.99 14.39 12.69
1/1/2022 1:15:00 PM 4.27 39.686 0.072 6.98 14.33 12.7
1/1/2022 1:30:00 PM 4.3 39.74 0.072 6.99 14.23 12.71
1/1/2022 1:45:00 PM 4.31 39.758 0.072 6.99 14.29 12.74
1/1/2022 2:00:00 PM 4.34 39.812 0.071 7 14.18 12.76
1/1/2022 2:15:00 PM 4.36 39.848 0.072 6.99 14.28 12.77
1/1/2022 2:30:00 PM 4.39 39.902 0.071 7.01 14.3 12.78
1/1/2022 2:45:00 PM 4.39 39.902 0.071 7 14.37 12.79
1/1/2022 3:00:00 PM 4.44 39.992 0.071 7 14.24 12.81
1/1/2022 3:15:00 PM 4.45 40.01 0.071 7.01 14.27 12.82
1/1/2022 3:30:00 PM 4.48 40.064 0.071 7.03 14.32 12.83
1/1/2022 3:45:00 PM 4.5 40.1 0.071 7 14.38 12.83
1/1/2022 4:00:00 PM 4.5 40.1 0.071 7.01 14.42 12.83
1/1/2022 4:15:00 PM 4.51 40.118 0.071 7.02 14.16 12.81
1/1/2022 4:30:00 PM 4.51 40.118 0.071 7.01 14.22 12.79
1/1/2022 4:45:00 PM 4.52 40.136 0.071 7.01 14.22 12.78
1/1/2022 5:00:00 PM 4.53 40.154 0.071 7 14.41 12.75
1/1/2022 5:15:00 PM 4.53 40.154 0.071 7.01 14.45 12.74
1/1/2022 5:30:00 PM 4.5 40.1 0.071 7.01 14.37 12.72
1/1/2022 5:45:00 PM 4.47 40.046 0.071 7 14.47 12.71
1/1/2022 6:00:00 PM 4.47 40.046 0.071 6.99 14.41 12.7
1/1/2022 6:15:00 PM 4.44 39.992 0.071 6.99 14.66 12.68
1/1/2022 6:30:00 PM 4.45 40.01 0.073 6.97 18.92 12.66
1/1/2022 6:45:00 PM 4.41 39.938 0.071 6.98 15.77 12.66
1/1/2022 7:00:00 PM 4.43 39.974 0.071 6.98 15.07 12.64
1/1/2022 7:15:00 PM 4.43 39.974 0.071 6.97 15.26 12.62
1/1/2022 7:30:00 PM 4.41 39.938 0.071 6.98 15.23 12.6
1/1/2022 7:45:00 PM 4.43 39.974 0.072 6.98 14.99 12.58
1/1/2022 8:00:00 PM 4.44 39.992 0.072 6.98 15.28 12.55
1/1/2022 8:15:00 PM 4.42 39.956 0.072 6.98 15.42 12.55
1/1/2022 8:30:00 PM 4.41 39.938 0.071 6.97 15.61 12.53
1/1/2022 8:45:00 PM 4.39 39.902 0.071 6.99 15.28 12.51
1/1/2022 9:00:00 PM 4.39 39.902 0.071 6.97 15.39 12.48
1/1/2022 9:15:00 PM 4.38 39.884 0.071 6.97 15.61 12.47
1/1/2022 9:30:00 PM 4.37 39.866 0.071 6.95 15.57 12.45
1/1/2022 9:45:00 PM 4.37 39.866 0.07 6.98 15.87 12.44
1/1/2022 10:00:00 PM 4.34 39.812 0.07 6.95 15.42 12.43
1/1/2022 10:15:00 PM 4.34 39.812 0.07 6.97 15.42 12.42
1/1/2022 10:30:00 PM 4.32 39.776 0.07 6.98 15.42 12.4
1/1/2022 10:45:00 PM 4.31 39.758 0.07 6.96 15.48 12.39
1/1/2022 11:00:00 PM 4.31 39.758 0.07 6.96 15.46 12.39
1/1/2022 11:15:00 PM 4.31 39.758 0.07 6.95 15.67 12.37
1/1/2022 11:30:00 PM 4.33 39.794 0.07 6.95 15.62 12.36
1/1/2022 11:45:00 PM 4.34 39.812 0.07 6.95 15.6 12.34
1/2/2022 12:00:00 AM 4.35 39.83 0.07 6.96 16.01 12.32
1/2/2022 12:15:00 AM 4.4 39.92 0.07 6.97 15.55 12.31
1/2/2022 12:30:00 AM 4.43 39.974 0.07 6.94 15.65 12.27
1/2/2022 12:45:00 AM 4.43 39.974 0.07 6.95 15.61 12.26
1/2/2022 1:00:00 AM 4.43 39.974 0.071 6.96 15.54 12.27
1/2/2022 1:15:00 AM 4.45 40.01 0.071 6.92 15.57 12.24
1/2/2022 1:30:00 AM 4.45 40.01 0.071 6.93 15.68 12.24
1/2/2022 1:45:00 AM 4.46 40.028 0.071 6.94 16.31 12.23
1/2/2022 2:00:00 AM 4.46 40.028 0.071 6.94 15.62 12.23
1/2/2022 2:15:00 AM 4.46 40.028 0.071 6.95 15.76 12.22
1/2/2022 2:30:00 AM 4.46 40.028 0.071 6.92 15.8 12.22
1/2/2022 2:45:00 AM 4.46 40.028 0.071 6.92 15.8 12.21
1/2/2022 3:00:00 AM 4.45 40.01 0.071 6.92 15.7 12.2
1/2/2022 3:15:00 AM 4.46 40.028 0.071 6.92 15.69 12.2
1/2/2022 3:30:00 AM 4.45 40.01 0.071 6.92 15.56 12.2
1/2/2022 3:45:00 AM 4.47 40.046 0.071 6.92 15.71 12.18
1/2/2022 4:00:00 AM 4.47 40.046 0.071 6.94 15.82 12.18
1/2/2022 4:15:00 AM 4.48 40.064 0.072 6.91 15.85 12.16
1/2/2022 4:30:00 AM 4.47 40.046 0.071 6.92 15.73 12.16
1/2/2022 4:45:00 AM 4.47 40.046 0.072 6.92 15.63 12.16
1/2/2022 5:00:00 AM 4.47 40.046 0.072 6.94 15.67 12.16
1/2/2022 5:15:00 AM 4.46 40.028 0.072 6.92 16 12.18
1/2/2022 5:30:00 AM 4.46 40.028 0.072 6.93 16.59 12.17
1/2/2022 5:45:00 AM 4.45 40.01 0.072 6.93 15.82 12.17
1/2/2022 6:00:00 AM 4.44 39.992 0.072 6.92 15.81 12.18
1/2/2022 6:15:00 AM 4.43 39.974 0.072 6.95 15.89 12.17
1/2/2022 6:30:00 AM 4.42 39.956 0.072 6.92 15.97 12.17
1/2/2022 6:45:00 AM 4.42 39.956 0.072 6.93 16.19 12.16
1/2/2022 7:00:00 AM 4.42 39.956 0.072 6.91 15.64 12.16
1/2/2022 7:15:00 AM 4.42 39.956 0.072 6.92 15.59 12.14
1/2/2022 7:30:00 AM 4.41 39.938 0.072 6.93 15.64 12.15
1/2/2022 7:45:00 AM 4.41 39.938 0.072 6.92 15.92 12.14
1/2/2022 8:00:00 AM 4.41 39.938 0.072 6.93 15.7 12.13
1/2/2022 8:15:00 AM 4.41 39.938 0.072 6.92 15.77 12.12
1/2/2022 8:30:00 AM 4.41 39.938 0.072 6.94 15.57 12.12
1/2/2022 8:45:00 AM 4.41 39.938 0.072 6.93 15.23 12.12
1/2/2022 9:00:00 AM 4.42 39.956 0.072 6.92 15.08 12.12
1/2/2022 9:15:00 AM 4.41 39.938 0.071 6.94 15.07 12.13
1/2/2022 9:30:00 AM 4.41 39.938 0.071 6.92 15.32 12.14
1/2/2022 9:45:00 AM 4.42 39.956 0.071 6.94 14.95 12.15
1/2/2022 10:00:00 AM 4.44 39.992 0.071 6.93 14.97 12.15
1/2/2022 10:15:00 AM 4.44 39.992 0.071 6.94 14.87 12.15
1/2/2022 10:30:00 AM 4.45 40.01 0.071 6.94 14.73 12.16
1/2/2022 10:45:00 AM 4.48 40.064 0.071 6.94 14.82 12.16
1/2/2022 11:00:00 AM 4.51 40.118 0.071 6.95 14.66 12.18
1/2/2022 11:15:00 AM 4.53 40.154 0.071 6.94 14.59 12.19
1/2/2022 11:30:00 AM 4.56 40.208 0.071 6.96 14.68 12.18
1/2/2022 11:45:00 AM 4.59 40.262 0.071 6.97 14.59 12.2
1/2/2022 12:00:00 PM 4.62 40.316 0.07 6.97 14.59 12.21
1/2/2022 12:15:00 PM 4.64 40.352 0.07 6.97 14.74 12.22
1/2/2022 12:30:00 PM 4.67 40.406 0.07 6.99 14.56 12.22
1/2/2022 12:45:00 PM 4.71 40.478 0.07 6.98 14.66 12.22
1/2/2022 1:00:00 PM 4.72 40.496 0.07 7 14.77 12.24
1/2/2022 1:15:00 PM 4.74 40.532 0.07 7 14.73 12.26
1/2/2022 1:30:00 PM 4.76 40.568 0.07 7.01 14.61 12.27
1/2/2022 1:45:00 PM 4.77 40.586 0.069 7 14.48 12.28
1/2/2022 2:00:00 PM 4.78 40.604 0.069 7.05 14.63 12.28
1/2/2022 2:15:00 PM 4.79 40.622 0.069 7.03 14.61 12.29
1/2/2022 2:30:00 PM 4.8 40.64 0.069 7.03 14.64 12.3
1/2/2022 2:45:00 PM 4.8 40.64 0.069 7.04 14.55 12.3
1/2/2022 3:00:00 PM 4.79 40.622 0.069 7.03 14.67 12.3
1/2/2022 3:15:00 PM 4.77 40.586 0.069 7.04 14.79 12.29
1/2/2022 3:30:00 PM 4.74 40.532 0.069 7.04 14.64 12.29
1/2/2022 3:45:00 PM 4.71 40.478 0.069 7.05 14.66 12.29
1/2/2022 4:00:00 PM 4.68 40.424 0.069 7.04 14.63 12.3
1/2/2022 4:15:00 PM 4.64 40.352 0.069 7.03 14.59 12.28
1/2/2022 4:30:00 PM 4.59 40.262 0.069 7.05 14.61 12.28
1/2/2022 4:45:00 PM 4.56 40.208 0.069 7.03 14.8 12.28
1/2/2022 5:00:00 PM 4.51 40.118 0.069 7.05 14.78 12.27
1/2/2022 5:15:00 PM 4.45 40.01 0.069 7.05 14.91 12.26
1/2/2022 5:30:00 PM 4.41 39.938 0.069 7.04 14.83 12.26
1/2/2022 5:45:00 PM 4.37 39.866 0.069 7.06 15 12.26
1/2/2022 6:00:00 PM 4.35 39.83 0.068 7.05 15.07 12.25
1/2/2022 6:15:00 PM 4.33 39.794 0.068 7.06 14.93 12.24
1/2/2022 6:30:00 PM 4.27 39.686 0.068 7.05 15.02 12.25
1/2/2022 6:45:00 PM 4.22 39.596 0.068 7.05 15.27 12.25
1/2/2022 7:00:00 PM 4.17 39.506 0.068 7.05 15.7 12.25
1/2/2022 7:15:00 PM 4.12 39.416 0.068 7.05 16.12 12.26
1/2/2022 7:30:00 PM 4.12 39.416 0.068 7.07 15.84 12.27
1/2/2022 7:45:00 PM 4.06 39.308 0.067 7.06 15.75 12.28
1/2/2022 8:00:00 PM 4.02 39.236 0.068 7.07 15.82 12.3
1/2/2022 8:15:00 PM 3.93 39.074 0.068 7.05 15.84 12.34
1/2/2022 8:30:00 PM 3.85 38.93 0.068 7.08 15.78 12.36
1/2/2022 8:45:00 PM 3.77 38.786 0.068 7.05 15.58 12.38
1/2/2022 9:00:00 PM 3.72 38.696 0.069 7.06 15.54 12.4
1/2/2022 9:15:00 PM 3.69 38.642 0.069 7.06 15.43 12.42
1/2/2022 9:30:00 PM 3.64 38.552 0.069 7.06 15.44 12.43
1/2/2022 9:45:00 PM 3.59 38.462 0.069 7.06 15.43 12.44
1/2/2022 10:00:00 PM 3.57 38.426 0.069 7.08 15.43 12.46
1/2/2022 10:15:00 PM 3.53 38.354 0.069 7.07 15.38 12.47
1/2/2022 10:30:00 PM 3.46 38.228 0.069 7.05 15.46 12.48
1/2/2022 10:45:00 PM 3.39 38.102 0.069 7.06 15.74 12.48
1/2/2022 11:00:00 PM 3.37 38.066 0.07 7.06 15.81 12.49
1/2/2022 11:15:00 PM 3.33 37.994 0.07 7.07 15.55 12.5
1/2/2022 11:30:00 PM 3.27 37.886 0.07 7.07 15.84 12.52
1/2/2022 11:45:00 PM 3.2 37.76 0.07 7.05 15.76 12.53
1/3/2022 12:00:00 AM 3.18 37.724 0.07 7.08 16.21 12.54
1/3/2022 12:15:00 AM 3.15 37.67 0.07 7.05 16.07 12.54
1/3/2022 12:30:00 AM 3.13 37.634 0.07 7.04 15.85 12.55
1/3/2022 12:45:00 AM 3.08 37.544 0.07 7.05 15.81 12.56
1/3/2022 1:00:00 AM 3.07 37.526 0.07 7.06 16.27 12.56
1/3/2022 1:15:00 AM 3.05 37.49 0.07 7.07 16.42 12.57
1/3/2022 1:30:00 AM 3.02 37.436 0.07 7.05 16.33 12.57
1/3/2022 1:45:00 AM 3 37.4 0.071 7.04 16.26 12.56
1/3/2022 2:00:00 AM 2.97 37.346 0.071 7.06 16.19 12.57
1/3/2022 2:15:00 AM 2.95 37.31 0.071 7.05 16.53 12.57
1/3/2022 2:30:00 AM 2.91 37.238 0.071 7.05 16.49 12.57
1/3/2022 2:45:00 AM 2.89 37.202 0.071 7.04 16.08 12.57
1/3/2022 3:00:00 AM 2.87 37.166 0.071 7.04 16.14 12.57
1/3/2022 3:15:00 AM 2.87 37.166 0.071 7.04 16.07 12.58
1/3/2022 3:30:00 AM 2.85 37.13 0.071 7.04 16.18 12.58
1/3/2022 3:45:00 AM 2.82 37.076 0.071 7.04 15.94 12.58
1/3/2022 4:00:00 AM 2.82 37.076 0.071 7.04 15.7 12.58
1/3/2022 4:15:00 AM 2.8 37.04 0.071 7.03 16.09 12.59
1/3/2022 4:30:00 AM 2.76 36.968 0.071 7.04 16.02 12.6
1/3/2022 4:45:00 AM 2.7 36.86 0.071 7.03 16.08 12.61
1/3/2022 5:00:00 AM 2.65 36.77 0.071 7.02 16.09 12.63
1/3/2022 5:15:00 AM 2.54 36.572 0.071 7.03 16.41 12.66
1/3/2022 5:30:00 AM 2.45 36.41 0.071 7.05 16.33 12.69
1/3/2022 5:45:00 AM 2.39 36.302 0.071 7.03 16.24 12.73
1/3/2022 6:00:00 AM 2.32 36.176 0.071 7.06 16.17 12.76
1/3/2022 6:15:00 AM 2.28 36.104 0.071 7.05 16.13 12.79
1/3/2022 6:30:00 AM 2.25 36.05 0.071 7.05 15.69 12.81
1/3/2022 6:45:00 AM 2.19 35.942 0.071 7.04 15.68 12.84
1/3/2022 7:00:00 AM 2.15 35.87 0.07 7.03 15.5 12.85
1/3/2022 7:15:00 AM 2.11 35.798 0.07 7.04 15.57 12.85
1/3/2022 7:30:00 AM 2.07 35.726 0.07 7.05 15.53 12.88
1/3/2022 7:45:00 AM 2.05 35.69 0.07 7.05 15.65 12.88
1/3/2022 8:00:00 AM 2.03 35.654 0.07 7.04 15.49 12.9
1/3/2022 8:15:00 AM 1.99 35.582 0.07 7.04 15.65 12.91
1/3/2022 8:30:00 AM 1.97 35.546 0.07 7.05 15.64 12.93
1/3/2022 8:45:00 AM 1.96 35.528 0.07 7.06 15.89 12.94
1/3/2022 9:00:00 AM 1.96 35.528 0.07 7.07 16.1 12.95
1/3/2022 9:15:00 AM 1.96 35.528 0.07 7.06 15.91 12.96
1/3/2022 9:30:00 AM 1.93 35.474 0.07 7.05 16.08 12.97
1/3/2022 9:45:00 AM 1.91 35.438 0.07 7.06 16.13 12.99
1/3/2022 10:00:00 AM 1.89 35.402 0.07 7.05 16.81 13
1/3/2022 10:15:00 AM 1.86 35.348 0.07 7.06 17.94 13.03
1/3/2022 10:30:00 AM 1.84 35.312 0.07 7.07 17.24 13.07
1/3/2022 10:45:00 AM 1.77 35.186 0.07 7.07 17.35 13.1
1/3/2022 11:00:00 AM 1.75 35.15 0.07 7.08 16.11 13.14
1/3/2022 11:15:00 AM 1.72 35.096 0.07 7.08 15.56 13.17
1/3/2022 11:30:00 AM 1.68 35.024 0.07 7.07 15.38 13.21
1/3/2022 11:45:00 AM 1.67 35.006 0.07 7.08 15.01 13.24
1/3/2022 12:00:00 PM 1.66 34.988 0.07 7.09 14.72 13.27
1/3/2022 12:15:00 PM 1.63 34.934 0.07 7.09 14.22 13.29
1/3/2022 12:30:00 PM 1.63 34.934 0.07 7.11 13.9 13.32
1/3/2022 12:45:00 PM 1.64 34.952 0.071 7.1 13.62 13.34
1/3/2022 1:00:00 PM 1.64 34.952 0.07 7.11 13.46 13.36
1/3/2022 1:15:00 PM 1.64 34.952 0.071 7.12 13.37 13.38
1/3/2022 1:30:00 PM 1.61 34.898 0.071 7.11 13.07 13.4
1/3/2022 1:45:00 PM 1.62 34.916 0.071 7.12 12.99 13.42
1/3/2022 2:00:00 PM 1.63 34.934 0.071 7.14 12.93 13.44
1/3/2022 2:15:00 PM 1.64 34.952 0.071 7.13 13.06 13.45
1/3/2022 2:30:00 PM 1.63 34.934 0.071 7.13 12.2 13.47
1/3/2022 2:45:00 PM 1.64 34.952 0.071 7.14 11.92 13.49
1/3/2022 3:00:00 PM 1.61 34.898 0.071 7.14 11.34 13.5
1/3/2022 3:15:00 PM 1.62 34.916 0.071 7.16 12.54 13.5
1/3/2022 3:30:00 PM 1.62 34.916 0.071 7.15 11.08 13.51
1/3/2022 3:45:00 PM 1.62 34.916 0.071 7.16 11.2 13.51
1/3/2022 4:00:00 PM 1.66 34.988 0.071 7.17 11.03 13.51
1/3/2022 4:15:00 PM 1.66 34.988 0.072 7.17 10.99 13.51
1/3/2022 4:30:00 PM 1.64 34.952 0.071 7.18 10.87 13.52
1/3/2022 4:45:00 PM 1.61 34.898 0.071 7.16 10.87 13.52
1/3/2022 5:00:00 PM 1.6 34.88 0.071 7.18 10.69 13.52
1/3/2022 5:15:00 PM 1.57 34.826 0.071 7.16 10.6 13.52
1/3/2022 5:30:00 PM 1.52 34.736 0.072 7.17 12.02 13.51
1/3/2022 5:45:00 PM 1.47 34.646 0.072 7.15 12.03 13.51
1/3/2022 6:00:00 PM 1.4 34.52 0.072 7.16 12.11 13.52
1/3/2022 6:15:00 PM 1.34 34.412 0.072 7.15 10.59 13.51
1/3/2022 6:30:00 PM 1.26 34.268 0.074 7.16 10.03 13.51
1/3/2022 6:45:00 PM 1.18 34.124 0.075 7.18 6.35 13.52
1/3/2022 7:00:00 PM 1.06 33.908 0.075 7.17 6.96 13.54
1/3/2022 7:15:00 PM 0.95 33.71 0.075 7.17 6.34 13.56
1/3/2022 7:30:00 PM 0.86 33.548 0.075 7.16 6.31 13.58
1/3/2022 7:45:00 PM 0.78 33.404 0.075 7.17 6.77 13.61
1/3/2022 8:00:00 PM 0.7 33.26 0.075 7.17 7.25 13.63
1/3/2022 8:15:00 PM 0.61 33.098 0.075 7.16 6.93 13.65
1/3/2022 8:30:00 PM 0.53 32.954 0.075 7.16 6.78 13.68
1/3/2022 8:45:00 PM 0.45 32.81 0.075 7.17 6.97 13.72
1/3/2022 9:00:00 PM 0.42 32.756 0.075 7.17 6.51 13.73
1/3/2022 9:15:00 PM 0.37 32.666 0.075 7.17 6.96 13.74
1/3/2022 9:30:00 PM 0.34 32.612 0.075 7.17 7.21 13.74
1/3/2022 9:45:00 PM 0.34 32.612 0.075 7.17 6.89 13.75
1/3/2022 10:00:00 PM 0.37 32.666 0.075 7.18 6.55 13.75
1/3/2022 10:15:00 PM 0.35 32.63 0.075 7.17 7.1 13.76
1/3/2022 10:30:00 PM 0.35 32.63 0.075 7.17 7.08 13.76
1/3/2022 10:45:00 PM 0.33 32.594 0.075 7.17 7.19 13.77
1/3/2022 11:00:00 PM 0.31 32.558 0.075 7.17 7.18 13.78
1/3/2022 11:15:00 PM 0.3 32.54 0.075 7.17 7.1 13.78
1/3/2022 11:30:00 PM 0.29 32.522 0.075 7.17 7.28 13.78
1/3/2022 11:45:00 PM 0.26 32.468 0.075 7.17 7.74 13.8
1/4/2022 12:00:00 AM 0.23 32.414 0.075 7.16 7.99 13.81
1/4/2022 12:15:00 AM 0.2 32.36 0.075 7.17 8.59 13.82
1/4/2022 12:30:00 AM 0.17 32.306 0.075 7.17 8.05 13.84
1/4/2022 12:45:00 AM 0.16 32.288 0.075 7.17 7.64 13.84
1/4/2022 1:00:00 AM 0.14 32.252 0.075 7.17 8.05 13.85
1/4/2022 1:15:00 AM 0.13 32.234 0.075 7.17 8.27 13.86
1/4/2022 1:30:00 AM 0.13 32.234 0.075 7.17 8.47 13.86
1/4/2022 1:45:00 AM 0.13 32.234 0.075 7.17 9.44 13.86
1/4/2022 2:00:00 AM 0.1 32.18 0.075 7.17 8.8 13.87
1/4/2022 2:15:00 AM 0.1 32.18 0.075 7.17 8.69 13.88
1/4/2022 2:30:00 AM 0.08 32.144 0.075 7.16 9.21 13.87
1/4/2022 2:45:00 AM 0.08 32.144 0.075 7.16 9.22 13.87
1/4/2022 3:00:00 AM 0.1 32.18 0.075 7.16 9.28 13.86
1/4/2022 3:15:00 AM 0.11 32.198 0.076 7.16 8.55 13.85
1/4/2022 3:30:00 AM 0.12 32.216 0.076 7.16 8.79 13.84
1/4/2022 3:45:00 AM 0.14 32.252 0.076 7.16 8.74 13.82
1/4/2022 4:00:00 AM 0.15 32.27 0.076 7.16 8.77 13.8
1/4/2022 4:15:00 AM 0.15 32.27 0.076 7.15 8.8 13.79
1/4/2022 4:30:00 AM 0.16 32.288 0.076 7.15 8.76 13.78
1/4/2022 4:45:00 AM 0.17 32.306 0.076 7.15 9.34 13.77
1/4/2022 5:00:00 AM 0.19 32.342 0.076 7.15 8.94 13.76
1/4/2022 5:15:00 AM 0.19 32.342 0.076 7.14 8.89 13.74
1/4/2022 5:30:00 AM 0.19 32.342 0.076 7.14 8.63 13.74
1/4/2022 5:45:00 AM 0.2 32.36 0.076 7.14 8.87 13.73
1/4/2022 6:00:00 AM 0.22 32.396 0.076 7.14 8.74 13.72
1/4/2022 6:15:00 AM 0.24 32.432 0.077 7.14 8.45 13.71
1/4/2022 6:30:00 AM 0.26 32.468 0.077 7.13 8.39 13.7
1/4/2022 6:45:00 AM 0.27 32.486 0.077 7.13 8.59 13.7
1/4/2022 7:00:00 AM 0.27 32.486 0.077 7.12 8.46 13.69
1/4/2022 7:15:00 AM 0.27 32.486 0.077 7.12 8.55 13.69
1/4/2022 7:30:00 AM 0.27 32.486 0.077 7.12 8.55 13.69
1/4/2022 7:45:00 AM 0.27 32.486 0.077 7.12 8.31 13.7
1/4/2022 8:00:00 AM 0.27 32.486 0.077 7.12 8.38 13.71
1/4/2022 8:15:00 AM 0.27 32.486 0.077 7.12 8.4 13.72
1/4/2022 8:30:00 AM 0.27 32.486 0.077 7.12 8.43 13.72
1/4/2022 8:45:00 AM 0.28 32.504 0.077 7.12 8.45 13.74